<?xml version="1.0" encoding="UTF-8" standalone="no" ?>
<gpx xmlns="http://www.topografix.com/GPX/1/1" xmlns:xsi="http://www.w3.org/2001/XMLSchema-instance" xsi:schemaLocation="http://www.topografix.com/GPX/1/1 http://www.topografix.com/GPX/1/1/gpx.xsd" version="1.1" creator="VisuGPX - https://www.visugpx.com">
  <metadata>
    <name>pernes sortie landra</name>
    <desc><![CDATA[super sortie sur sentier ]]></desc>
  </metadata>
  <trk>
    <name><![CDATA[pernes mardi]]></name>
    <trkseg>
      <trkpt lat="43.99699" lon="5.06055">
        <ele>96.400001525879</ele>
        <time>2012-04-03T17:07:58.000Z</time>
      </trkpt>
      <trkpt lat="43.99699" lon="5.06058">
        <ele>96.400001525879</ele>
        <time>2012-04-03T17:08:03.000Z</time>
      </trkpt>
      <trkpt lat="43.99699" lon="5.06065">
        <ele>96.599998474121</ele>
        <time>2012-04-03T17:08:08.000Z</time>
      </trkpt>
      <trkpt lat="43.99699" lon="5.06066">
        <ele>96.599998474121</ele>
        <time>2012-04-03T17:08:09.000Z</time>
      </trkpt>
      <trkpt lat="43.99699" lon="5.06079">
        <ele>96.599998474121</ele>
        <time>2012-04-03T17:08:17.000Z</time>
      </trkpt>
      <trkpt lat="43.99698" lon="5.06079">
        <ele>96.599998474121</ele>
        <time>2012-04-03T17:08:18.000Z</time>
      </trkpt>
      <trkpt lat="43.99697" lon="5.06085">
        <ele>96.800003051758</ele>
        <time>2012-04-03T17:08:22.000Z</time>
      </trkpt>
      <trkpt lat="43.99697" lon="5.06097">
        <ele>96.599998474121</ele>
        <time>2012-04-03T17:08:28.000Z</time>
      </trkpt>
      <trkpt lat="43.997" lon="5.06109">
        <ele>96.199996948242</ele>
        <time>2012-04-03T17:08:33.000Z</time>
      </trkpt>
      <trkpt lat="43.99702" lon="5.06116">
        <ele>95.800003051758</ele>
        <time>2012-04-03T17:08:36.000Z</time>
      </trkpt>
      <trkpt lat="43.99703" lon="5.06119">
        <ele>95.599998474121</ele>
        <time>2012-04-03T17:08:37.000Z</time>
      </trkpt>
      <trkpt lat="43.99705" lon="5.06125">
        <ele>95.400001525879</ele>
        <time>2012-04-03T17:08:40.000Z</time>
      </trkpt>
      <trkpt lat="43.99706" lon="5.06128">
        <ele>95.400001525879</ele>
        <time>2012-04-03T17:08:41.000Z</time>
      </trkpt>
      <trkpt lat="43.99711" lon="5.06141">
        <ele>94.800003051758</ele>
        <time>2012-04-03T17:08:46.000Z</time>
      </trkpt>
      <trkpt lat="43.99715" lon="5.06152">
        <ele>94.400001525879</ele>
        <time>2012-04-03T17:08:51.000Z</time>
      </trkpt>
      <trkpt lat="43.99718" lon="5.0616">
        <ele>94</ele>
        <time>2012-04-03T17:08:54.000Z</time>
      </trkpt>
      <trkpt lat="43.99718" lon="5.06162">
        <ele>94</ele>
        <time>2012-04-03T17:08:55.000Z</time>
      </trkpt>
      <trkpt lat="43.99716" lon="5.06176">
        <ele>93.800003051758</ele>
        <time>2012-04-03T17:09:00.000Z</time>
      </trkpt>
      <trkpt lat="43.99718" lon="5.06192">
        <ele>93.199996948242</ele>
        <time>2012-04-03T17:09:05.000Z</time>
      </trkpt>
      <trkpt lat="43.99719" lon="5.06209">
        <ele>92.599998474121</ele>
        <time>2012-04-03T17:09:11.000Z</time>
      </trkpt>
      <trkpt lat="43.99721" lon="5.06221">
        <ele>92.199996948242</ele>
        <time>2012-04-03T17:09:16.000Z</time>
      </trkpt>
      <trkpt lat="43.99724" lon="5.06232">
        <ele>91.800003051758</ele>
        <time>2012-04-03T17:09:20.000Z</time>
      </trkpt>
      <trkpt lat="43.99719" lon="5.0624">
        <ele>91.800003051758</ele>
        <time>2012-04-03T17:09:23.000Z</time>
      </trkpt>
      <trkpt lat="43.99716" lon="5.06245">
        <ele>91.800003051758</ele>
        <time>2012-04-03T17:09:25.000Z</time>
      </trkpt>
      <trkpt lat="43.99708" lon="5.06261">
        <ele>91.800003051758</ele>
        <time>2012-04-03T17:09:31.000Z</time>
      </trkpt>
      <trkpt lat="43.99702" lon="5.06272">
        <ele>92</ele>
        <time>2012-04-03T17:09:35.000Z</time>
      </trkpt>
      <trkpt lat="43.99695" lon="5.06283">
        <ele>92</ele>
        <time>2012-04-03T17:09:40.000Z</time>
      </trkpt>
      <trkpt lat="43.99688" lon="5.06296">
        <ele>92</ele>
        <time>2012-04-03T17:09:45.000Z</time>
      </trkpt>
      <trkpt lat="43.99678" lon="5.06309">
        <ele>92.199996948242</ele>
        <time>2012-04-03T17:09:51.000Z</time>
      </trkpt>
      <trkpt lat="43.99666" lon="5.06324">
        <ele>92.400001525879</ele>
        <time>2012-04-03T17:09:58.000Z</time>
      </trkpt>
      <trkpt lat="43.99658" lon="5.06332">
        <ele>93.400001525879</ele>
        <time>2012-04-03T17:10:03.000Z</time>
      </trkpt>
      <trkpt lat="43.99648" lon="5.06341">
        <ele>94.400001525879</ele>
        <time>2012-04-03T17:10:08.000Z</time>
      </trkpt>
      <trkpt lat="43.99638" lon="5.06353">
        <ele>95</ele>
        <time>2012-04-03T17:10:14.000Z</time>
      </trkpt>
      <trkpt lat="43.99628" lon="5.06364">
        <ele>95.400001525879</ele>
        <time>2012-04-03T17:10:20.000Z</time>
      </trkpt>
      <trkpt lat="43.99617" lon="5.06375">
        <ele>95.800003051758</ele>
        <time>2012-04-03T17:10:26.000Z</time>
      </trkpt>
      <trkpt lat="43.99607" lon="5.06383">
        <ele>96</ele>
        <time>2012-04-03T17:10:31.000Z</time>
      </trkpt>
      <trkpt lat="43.99596" lon="5.06395">
        <ele>95.800003051758</ele>
        <time>2012-04-03T17:10:37.000Z</time>
      </trkpt>
      <trkpt lat="43.99587" lon="5.06406">
        <ele>95</ele>
        <time>2012-04-03T17:10:43.000Z</time>
      </trkpt>
      <trkpt lat="43.99577" lon="5.06417">
        <ele>95</ele>
        <time>2012-04-03T17:10:49.000Z</time>
      </trkpt>
      <trkpt lat="43.99565" lon="5.06427">
        <ele>96.400001525879</ele>
        <time>2012-04-03T17:10:55.000Z</time>
      </trkpt>
      <trkpt lat="43.99555" lon="5.06437">
        <ele>97.199996948242</ele>
        <time>2012-04-03T17:11:00.000Z</time>
      </trkpt>
      <trkpt lat="43.99542" lon="5.06449">
        <ele>98.199996948242</ele>
        <time>2012-04-03T17:11:07.000Z</time>
      </trkpt>
      <trkpt lat="43.99529" lon="5.0646">
        <ele>98.800003051758</ele>
        <time>2012-04-03T17:11:13.000Z</time>
      </trkpt>
      <trkpt lat="43.99518" lon="5.06468">
        <ele>99</ele>
        <time>2012-04-03T17:11:18.000Z</time>
      </trkpt>
      <trkpt lat="43.99508" lon="5.06475">
        <ele>99.400001525879</ele>
        <time>2012-04-03T17:11:23.000Z</time>
      </trkpt>
      <trkpt lat="43.99495" lon="5.06482">
        <ele>99.400001525879</ele>
        <time>2012-04-03T17:11:29.000Z</time>
      </trkpt>
      <trkpt lat="43.99485" lon="5.06488">
        <ele>99.199996948242</ele>
        <time>2012-04-03T17:11:34.000Z</time>
      </trkpt>
      <trkpt lat="43.99472" lon="5.06493">
        <ele>99.199996948242</ele>
        <time>2012-04-03T17:11:39.000Z</time>
      </trkpt>
      <trkpt lat="43.99459" lon="5.06499">
        <ele>99.199996948242</ele>
        <time>2012-04-03T17:11:45.000Z</time>
      </trkpt>
      <trkpt lat="43.99447" lon="5.06507">
        <ele>99.199996948242</ele>
        <time>2012-04-03T17:11:50.000Z</time>
      </trkpt>
      <trkpt lat="43.99434" lon="5.06515">
        <ele>99.400001525879</ele>
        <time>2012-04-03T17:11:56.000Z</time>
      </trkpt>
      <trkpt lat="43.99423" lon="5.06524">
        <ele>99.400001525879</ele>
        <time>2012-04-03T17:12:01.000Z</time>
      </trkpt>
      <trkpt lat="43.99413" lon="5.06533">
        <ele>99</ele>
        <time>2012-04-03T17:12:06.000Z</time>
      </trkpt>
      <trkpt lat="43.99399" lon="5.06545">
        <ele>98.800003051758</ele>
        <time>2012-04-03T17:12:12.000Z</time>
      </trkpt>
      <trkpt lat="43.99385" lon="5.06558">
        <ele>98.400001525879</ele>
        <time>2012-04-03T17:12:19.000Z</time>
      </trkpt>
      <trkpt lat="43.99375" lon="5.06565">
        <ele>98.400001525879</ele>
        <time>2012-04-03T17:12:24.000Z</time>
      </trkpt>
      <trkpt lat="43.99362" lon="5.06576">
        <ele>98.400001525879</ele>
        <time>2012-04-03T17:12:30.000Z</time>
      </trkpt>
      <trkpt lat="43.99351" lon="5.06584">
        <ele>98.400001525879</ele>
        <time>2012-04-03T17:12:35.000Z</time>
      </trkpt>
      <trkpt lat="43.99336" lon="5.06597">
        <ele>98.800003051758</ele>
        <time>2012-04-03T17:12:42.000Z</time>
      </trkpt>
      <trkpt lat="43.99324" lon="5.06607">
        <ele>99</ele>
        <time>2012-04-03T17:12:48.000Z</time>
      </trkpt>
      <trkpt lat="43.9931" lon="5.06617">
        <ele>99.199996948242</ele>
        <time>2012-04-03T17:12:54.000Z</time>
      </trkpt>
      <trkpt lat="43.99299" lon="5.06624">
        <ele>99.400001525879</ele>
        <time>2012-04-03T17:12:59.000Z</time>
      </trkpt>
      <trkpt lat="43.99284" lon="5.06631">
        <ele>99.599998474121</ele>
        <time>2012-04-03T17:13:06.000Z</time>
      </trkpt>
      <trkpt lat="43.99273" lon="5.06637">
        <ele>99.800003051758</ele>
        <time>2012-04-03T17:13:11.000Z</time>
      </trkpt>
      <trkpt lat="43.99266" lon="5.06644">
        <ele>99.800003051758</ele>
        <time>2012-04-03T17:13:16.000Z</time>
      </trkpt>
      <trkpt lat="43.99264" lon="5.06656">
        <ele>99.800003051758</ele>
        <time>2012-04-03T17:13:20.000Z</time>
      </trkpt>
      <trkpt lat="43.99261" lon="5.06669">
        <ele>99.800003051758</ele>
        <time>2012-04-03T17:13:24.000Z</time>
      </trkpt>
      <trkpt lat="43.99255" lon="5.06678">
        <ele>99.800003051758</ele>
        <time>2012-04-03T17:13:28.000Z</time>
      </trkpt>
      <trkpt lat="43.99244" lon="5.06695">
        <ele>100.19999694824</ele>
        <time>2012-04-03T17:13:35.000Z</time>
      </trkpt>
      <trkpt lat="43.99234" lon="5.06706">
        <ele>100.19999694824</ele>
        <time>2012-04-03T17:13:41.000Z</time>
      </trkpt>
      <trkpt lat="43.99226" lon="5.06718">
        <ele>100.40000152588</ele>
        <time>2012-04-03T17:13:46.000Z</time>
      </trkpt>
      <trkpt lat="43.99215" lon="5.06731">
        <ele>100.59999847412</ele>
        <time>2012-04-03T17:13:52.000Z</time>
      </trkpt>
      <trkpt lat="43.99204" lon="5.06745">
        <ele>100.59999847412</ele>
        <time>2012-04-03T17:13:58.000Z</time>
      </trkpt>
      <trkpt lat="43.99194" lon="5.06761">
        <ele>100.80000305176</ele>
        <time>2012-04-03T17:14:05.000Z</time>
      </trkpt>
      <trkpt lat="43.99181" lon="5.06776">
        <ele>100.80000305176</ele>
        <time>2012-04-03T17:14:12.000Z</time>
      </trkpt>
      <trkpt lat="43.99168" lon="5.06794">
        <ele>101</ele>
        <time>2012-04-03T17:14:19.000Z</time>
      </trkpt>
      <trkpt lat="43.99157" lon="5.0681">
        <ele>101.19999694824</ele>
        <time>2012-04-03T17:14:26.000Z</time>
      </trkpt>
      <trkpt lat="43.99144" lon="5.06821">
        <ele>101.59999847412</ele>
        <time>2012-04-03T17:14:32.000Z</time>
      </trkpt>
      <trkpt lat="43.9913" lon="5.06836">
        <ele>102</ele>
        <time>2012-04-03T17:14:39.000Z</time>
      </trkpt>
      <trkpt lat="43.99121" lon="5.06845">
        <ele>102.19999694824</ele>
        <time>2012-04-03T17:14:44.000Z</time>
      </trkpt>
      <trkpt lat="43.99118" lon="5.06848">
        <ele>102.40000152588</ele>
        <time>2012-04-03T17:14:45.000Z</time>
      </trkpt>
      <trkpt lat="43.99107" lon="5.06864">
        <ele>102.80000305176</ele>
        <time>2012-04-03T17:14:51.000Z</time>
      </trkpt>
      <trkpt lat="43.99101" lon="5.06878">
        <ele>103.19999694824</ele>
        <time>2012-04-03T17:14:56.000Z</time>
      </trkpt>
      <trkpt lat="43.9909" lon="5.06898">
        <ele>103.59999847412</ele>
        <time>2012-04-03T17:15:03.000Z</time>
      </trkpt>
      <trkpt lat="43.99079" lon="5.0692">
        <ele>104.19999694824</ele>
        <time>2012-04-03T17:15:11.000Z</time>
      </trkpt>
      <trkpt lat="43.99073" lon="5.06934">
        <ele>104.59999847412</ele>
        <time>2012-04-03T17:15:16.000Z</time>
      </trkpt>
      <trkpt lat="43.99064" lon="5.0695">
        <ele>105.19999694824</ele>
        <time>2012-04-03T17:15:22.000Z</time>
      </trkpt>
      <trkpt lat="43.99058" lon="5.06965">
        <ele>105.59999847412</ele>
        <time>2012-04-03T17:15:27.000Z</time>
      </trkpt>
      <trkpt lat="43.99051" lon="5.06983">
        <ele>106</ele>
        <time>2012-04-03T17:15:33.000Z</time>
      </trkpt>
      <trkpt lat="43.99043" lon="5.07002">
        <ele>106.59999847412</ele>
        <time>2012-04-03T17:15:40.000Z</time>
      </trkpt>
      <trkpt lat="43.99034" lon="5.07018">
        <ele>107.59999847412</ele>
        <time>2012-04-03T17:15:46.000Z</time>
      </trkpt>
      <trkpt lat="43.99024" lon="5.07029">
        <ele>108.40000152588</ele>
        <time>2012-04-03T17:15:51.000Z</time>
      </trkpt>
      <trkpt lat="43.99007" lon="5.07042">
        <ele>109.40000152588</ele>
        <time>2012-04-03T17:15:59.000Z</time>
      </trkpt>
      <trkpt lat="43.98997" lon="5.07049">
        <ele>110</ele>
        <time>2012-04-03T17:16:03.000Z</time>
      </trkpt>
      <trkpt lat="43.98986" lon="5.07056">
        <ele>110.59999847412</ele>
        <time>2012-04-03T17:16:08.000Z</time>
      </trkpt>
      <trkpt lat="43.98968" lon="5.07064">
        <ele>111.40000152588</ele>
        <time>2012-04-03T17:16:15.000Z</time>
      </trkpt>
      <trkpt lat="43.98956" lon="5.07069">
        <ele>111.80000305176</ele>
        <time>2012-04-03T17:16:20.000Z</time>
      </trkpt>
      <trkpt lat="43.98941" lon="5.07076">
        <ele>112.40000152588</ele>
        <time>2012-04-03T17:16:26.000Z</time>
      </trkpt>
      <trkpt lat="43.98927" lon="5.07083">
        <ele>112.80000305176</ele>
        <time>2012-04-03T17:16:32.000Z</time>
      </trkpt>
      <trkpt lat="43.98914" lon="5.07087">
        <ele>113.19999694824</ele>
        <time>2012-04-03T17:16:37.000Z</time>
      </trkpt>
      <trkpt lat="43.98902" lon="5.07093">
        <ele>113.40000152588</ele>
        <time>2012-04-03T17:16:42.000Z</time>
      </trkpt>
      <trkpt lat="43.98886" lon="5.071">
        <ele>113.40000152588</ele>
        <time>2012-04-03T17:16:49.000Z</time>
      </trkpt>
      <trkpt lat="43.98879" lon="5.07107">
        <ele>113.59999847412</ele>
        <time>2012-04-03T17:16:54.000Z</time>
      </trkpt>
      <trkpt lat="43.98868" lon="5.07114">
        <ele>113.59999847412</ele>
        <time>2012-04-03T17:17:00.000Z</time>
      </trkpt>
      <trkpt lat="43.98857" lon="5.07121">
        <ele>113.59999847412</ele>
        <time>2012-04-03T17:17:05.000Z</time>
      </trkpt>
      <trkpt lat="43.98846" lon="5.07129">
        <ele>113.40000152588</ele>
        <time>2012-04-03T17:17:10.000Z</time>
      </trkpt>
      <trkpt lat="43.98837" lon="5.07138">
        <ele>113.40000152588</ele>
        <time>2012-04-03T17:17:15.000Z</time>
      </trkpt>
      <trkpt lat="43.98836" lon="5.07154">
        <ele>113.80000305176</ele>
        <time>2012-04-03T17:17:20.000Z</time>
      </trkpt>
      <trkpt lat="43.98835" lon="5.07174">
        <ele>114.40000152588</ele>
        <time>2012-04-03T17:17:26.000Z</time>
      </trkpt>
      <trkpt lat="43.98834" lon="5.07189">
        <ele>114.80000305176</ele>
        <time>2012-04-03T17:17:30.000Z</time>
      </trkpt>
      <trkpt lat="43.98831" lon="5.07209">
        <ele>115.40000152588</ele>
        <time>2012-04-03T17:17:36.000Z</time>
      </trkpt>
      <trkpt lat="43.98827" lon="5.07229">
        <ele>116.19999694824</ele>
        <time>2012-04-03T17:17:42.000Z</time>
      </trkpt>
      <trkpt lat="43.98821" lon="5.07243">
        <ele>116.59999847412</ele>
        <time>2012-04-03T17:17:47.000Z</time>
      </trkpt>
      <trkpt lat="43.98812" lon="5.07261">
        <ele>117.19999694824</ele>
        <time>2012-04-03T17:17:53.000Z</time>
      </trkpt>
      <trkpt lat="43.98804" lon="5.07274">
        <ele>117.59999847412</ele>
        <time>2012-04-03T17:17:58.000Z</time>
      </trkpt>
      <trkpt lat="43.98793" lon="5.07295">
        <ele>118.19999694824</ele>
        <time>2012-04-03T17:18:05.000Z</time>
      </trkpt>
      <trkpt lat="43.98785" lon="5.07308">
        <ele>118.40000152588</ele>
        <time>2012-04-03T17:18:10.000Z</time>
      </trkpt>
      <trkpt lat="43.98774" lon="5.07324">
        <ele>118.59999847412</ele>
        <time>2012-04-03T17:18:16.000Z</time>
      </trkpt>
      <trkpt lat="43.98764" lon="5.07337">
        <ele>118.59999847412</ele>
        <time>2012-04-03T17:18:22.000Z</time>
      </trkpt>
      <trkpt lat="43.98751" lon="5.0735">
        <ele>118.59999847412</ele>
        <time>2012-04-03T17:18:29.000Z</time>
      </trkpt>
      <trkpt lat="43.98737" lon="5.07363">
        <ele>119.19999694824</ele>
        <time>2012-04-03T17:18:36.000Z</time>
      </trkpt>
      <trkpt lat="43.98721" lon="5.07376">
        <ele>119.80000305176</ele>
        <time>2012-04-03T17:18:43.000Z</time>
      </trkpt>
      <trkpt lat="43.98709" lon="5.07388">
        <ele>120.40000152588</ele>
        <time>2012-04-03T17:18:49.000Z</time>
      </trkpt>
      <trkpt lat="43.98699" lon="5.074">
        <ele>120.59999847412</ele>
        <time>2012-04-03T17:18:54.000Z</time>
      </trkpt>
      <trkpt lat="43.98687" lon="5.07414">
        <ele>121</ele>
        <time>2012-04-03T17:19:00.000Z</time>
      </trkpt>
      <trkpt lat="43.98675" lon="5.07427">
        <ele>121.19999694824</ele>
        <time>2012-04-03T17:19:06.000Z</time>
      </trkpt>
      <trkpt lat="43.98662" lon="5.07442">
        <ele>121.40000152588</ele>
        <time>2012-04-03T17:19:12.000Z</time>
      </trkpt>
      <trkpt lat="43.98652" lon="5.07453">
        <ele>121.80000305176</ele>
        <time>2012-04-03T17:19:17.000Z</time>
      </trkpt>
      <trkpt lat="43.98637" lon="5.07467">
        <ele>122.59999847412</ele>
        <time>2012-04-03T17:19:24.000Z</time>
      </trkpt>
      <trkpt lat="43.98626" lon="5.07478">
        <ele>123</ele>
        <time>2012-04-03T17:19:29.000Z</time>
      </trkpt>
      <trkpt lat="43.98615" lon="5.07491">
        <ele>123.59999847412</ele>
        <time>2012-04-03T17:19:34.000Z</time>
      </trkpt>
      <trkpt lat="43.98605" lon="5.07504">
        <ele>124.40000152588</ele>
        <time>2012-04-03T17:19:40.000Z</time>
      </trkpt>
      <trkpt lat="43.98591" lon="5.07521">
        <ele>125.19999694824</ele>
        <time>2012-04-03T17:19:47.000Z</time>
      </trkpt>
      <trkpt lat="43.9858" lon="5.07535">
        <ele>125.80000305176</ele>
        <time>2012-04-03T17:19:53.000Z</time>
      </trkpt>
      <trkpt lat="43.98567" lon="5.07551">
        <ele>126.40000152588</ele>
        <time>2012-04-03T17:20:00.000Z</time>
      </trkpt>
      <trkpt lat="43.98555" lon="5.07566">
        <ele>127</ele>
        <time>2012-04-03T17:20:06.000Z</time>
      </trkpt>
      <trkpt lat="43.98545" lon="5.07577">
        <ele>127.40000152588</ele>
        <time>2012-04-03T17:20:11.000Z</time>
      </trkpt>
      <trkpt lat="43.98536" lon="5.07587">
        <ele>127.80000305176</ele>
        <time>2012-04-03T17:20:16.000Z</time>
      </trkpt>
      <trkpt lat="43.98524" lon="5.07604">
        <ele>128.80000305176</ele>
        <time>2012-04-03T17:20:23.000Z</time>
      </trkpt>
      <trkpt lat="43.98515" lon="5.07619">
        <ele>129.60000610352</ele>
        <time>2012-04-03T17:20:29.000Z</time>
      </trkpt>
      <trkpt lat="43.98506" lon="5.07636">
        <ele>130.39999389648</ele>
        <time>2012-04-03T17:20:35.000Z</time>
      </trkpt>
      <trkpt lat="43.98495" lon="5.07653">
        <ele>131.60000610352</ele>
        <time>2012-04-03T17:20:41.000Z</time>
      </trkpt>
      <trkpt lat="43.9849" lon="5.07659">
        <ele>132</ele>
        <time>2012-04-03T17:20:44.000Z</time>
      </trkpt>
      <trkpt lat="43.98484" lon="5.07666">
        <ele>132.60000610352</ele>
        <time>2012-04-03T17:20:47.000Z</time>
      </trkpt>
      <trkpt lat="43.98472" lon="5.07679">
        <ele>134.19999694824</ele>
        <time>2012-04-03T17:20:53.000Z</time>
      </trkpt>
      <trkpt lat="43.98465" lon="5.07688">
        <ele>135.39999389648</ele>
        <time>2012-04-03T17:20:59.000Z</time>
      </trkpt>
      <trkpt lat="43.98467" lon="5.07699">
        <ele>136.39999389648</ele>
        <time>2012-04-03T17:21:03.000Z</time>
      </trkpt>
      <trkpt lat="43.9847" lon="5.07708">
        <ele>137.19999694824</ele>
        <time>2012-04-03T17:21:08.000Z</time>
      </trkpt>
      <trkpt lat="43.98471" lon="5.07711">
        <ele>137.60000610352</ele>
        <time>2012-04-03T17:21:09.000Z</time>
      </trkpt>
      <trkpt lat="43.98473" lon="5.07721">
        <ele>138.39999389648</ele>
        <time>2012-04-03T17:21:12.000Z</time>
      </trkpt>
      <trkpt lat="43.98473" lon="5.07733">
        <ele>139.60000610352</ele>
        <time>2012-04-03T17:21:17.000Z</time>
      </trkpt>
      <trkpt lat="43.9847" lon="5.07741">
        <ele>140.60000610352</ele>
        <time>2012-04-03T17:21:21.000Z</time>
      </trkpt>
      <trkpt lat="43.98468" lon="5.07742">
        <ele>140.80000305176</ele>
        <time>2012-04-03T17:21:22.000Z</time>
      </trkpt>
      <trkpt lat="43.98467" lon="5.07748">
        <ele>141.39999389648</ele>
        <time>2012-04-03T17:21:24.000Z</time>
      </trkpt>
      <trkpt lat="43.98466" lon="5.07755">
        <ele>142</ele>
        <time>2012-04-03T17:21:26.000Z</time>
      </trkpt>
      <trkpt lat="43.98464" lon="5.07764">
        <ele>142.80000305176</ele>
        <time>2012-04-03T17:21:30.000Z</time>
      </trkpt>
      <trkpt lat="43.98466" lon="5.07776">
        <ele>143.60000610352</ele>
        <time>2012-04-03T17:21:34.000Z</time>
      </trkpt>
      <trkpt lat="43.98465" lon="5.07779">
        <ele>144</ele>
        <time>2012-04-03T17:21:35.000Z</time>
      </trkpt>
      <trkpt lat="43.9846" lon="5.07791">
        <ele>145.19999694824</ele>
        <time>2012-04-03T17:21:40.000Z</time>
      </trkpt>
      <trkpt lat="43.9846" lon="5.07794">
        <ele>145.39999389648</ele>
        <time>2012-04-03T17:21:41.000Z</time>
      </trkpt>
      <trkpt lat="43.98452" lon="5.07811">
        <ele>147</ele>
        <time>2012-04-03T17:21:46.000Z</time>
      </trkpt>
      <trkpt lat="43.9845" lon="5.07822">
        <ele>148</ele>
        <time>2012-04-03T17:21:50.000Z</time>
      </trkpt>
      <trkpt lat="43.98447" lon="5.07837">
        <ele>149.19999694824</ele>
        <time>2012-04-03T17:21:55.000Z</time>
      </trkpt>
      <trkpt lat="43.98445" lon="5.07852">
        <ele>149.60000610352</ele>
        <time>2012-04-03T17:22:00.000Z</time>
      </trkpt>
      <trkpt lat="43.98443" lon="5.07867">
        <ele>150</ele>
        <time>2012-04-03T17:22:05.000Z</time>
      </trkpt>
      <trkpt lat="43.98441" lon="5.07883">
        <ele>150.39999389648</ele>
        <time>2012-04-03T17:22:11.000Z</time>
      </trkpt>
      <trkpt lat="43.98442" lon="5.07899">
        <ele>150.80000305176</ele>
        <time>2012-04-03T17:22:16.000Z</time>
      </trkpt>
      <trkpt lat="43.98443" lon="5.07917">
        <ele>151</ele>
        <time>2012-04-03T17:22:21.000Z</time>
      </trkpt>
      <trkpt lat="43.98443" lon="5.07919">
        <ele>151</ele>
        <time>2012-04-03T17:22:22.000Z</time>
      </trkpt>
      <trkpt lat="43.98444" lon="5.07933">
        <ele>151.19999694824</ele>
        <time>2012-04-03T17:22:27.000Z</time>
      </trkpt>
      <trkpt lat="43.98443" lon="5.07935">
        <ele>151.19999694824</ele>
        <time>2012-04-03T17:22:28.000Z</time>
      </trkpt>
      <trkpt lat="43.98442" lon="5.07945">
        <ele>151.39999389648</ele>
        <time>2012-04-03T17:22:31.000Z</time>
      </trkpt>
      <trkpt lat="43.98442" lon="5.07951">
        <ele>151.39999389648</ele>
        <time>2012-04-03T17:22:33.000Z</time>
      </trkpt>
      <trkpt lat="43.98441" lon="5.07953">
        <ele>151.60000610352</ele>
        <time>2012-04-03T17:22:34.000Z</time>
      </trkpt>
      <trkpt lat="43.98439" lon="5.07955">
        <ele>151.60000610352</ele>
        <time>2012-04-03T17:22:35.000Z</time>
      </trkpt>
      <trkpt lat="43.98442" lon="5.07967">
        <ele>151.60000610352</ele>
        <time>2012-04-03T17:22:39.000Z</time>
      </trkpt>
      <trkpt lat="43.98445" lon="5.07977">
        <ele>151.80000305176</ele>
        <time>2012-04-03T17:22:43.000Z</time>
      </trkpt>
      <trkpt lat="43.98449" lon="5.07995">
        <ele>152</ele>
        <time>2012-04-03T17:22:48.000Z</time>
      </trkpt>
      <trkpt lat="43.98444" lon="5.0801">
        <ele>152</ele>
        <time>2012-04-03T17:22:52.000Z</time>
      </trkpt>
      <trkpt lat="43.9844" lon="5.08025">
        <ele>152.19999694824</ele>
        <time>2012-04-03T17:22:57.000Z</time>
      </trkpt>
      <trkpt lat="43.98439" lon="5.08037">
        <ele>152.19999694824</ele>
        <time>2012-04-03T17:23:01.000Z</time>
      </trkpt>
      <trkpt lat="43.98433" lon="5.08052">
        <ele>152.19999694824</ele>
        <time>2012-04-03T17:23:06.000Z</time>
      </trkpt>
      <trkpt lat="43.98424" lon="5.08069">
        <ele>152.19999694824</ele>
        <time>2012-04-03T17:23:11.000Z</time>
      </trkpt>
      <trkpt lat="43.98417" lon="5.08087">
        <ele>152.19999694824</ele>
        <time>2012-04-03T17:23:18.000Z</time>
      </trkpt>
      <trkpt lat="43.98415" lon="5.08094">
        <ele>152.60000610352</ele>
        <time>2012-04-03T17:23:21.000Z</time>
      </trkpt>
      <trkpt lat="43.98414" lon="5.08099">
        <ele>153</ele>
        <time>2012-04-03T17:23:23.000Z</time>
      </trkpt>
      <trkpt lat="43.98409" lon="5.08114">
        <ele>154</ele>
        <time>2012-04-03T17:23:28.000Z</time>
      </trkpt>
      <trkpt lat="43.98404" lon="5.08129">
        <ele>155</ele>
        <time>2012-04-03T17:23:33.000Z</time>
      </trkpt>
      <trkpt lat="43.984" lon="5.08141">
        <ele>155.60000610352</ele>
        <time>2012-04-03T17:23:37.000Z</time>
      </trkpt>
      <trkpt lat="43.984" lon="5.08147">
        <ele>155.80000305176</ele>
        <time>2012-04-03T17:23:39.000Z</time>
      </trkpt>
      <trkpt lat="43.98398" lon="5.08152">
        <ele>156.19999694824</ele>
        <time>2012-04-03T17:23:41.000Z</time>
      </trkpt>
      <trkpt lat="43.98393" lon="5.08169">
        <ele>157</ele>
        <time>2012-04-03T17:23:46.000Z</time>
      </trkpt>
      <trkpt lat="43.98388" lon="5.08182">
        <ele>157.80000305176</ele>
        <time>2012-04-03T17:23:51.000Z</time>
      </trkpt>
      <trkpt lat="43.98381" lon="5.08199">
        <ele>159</ele>
        <time>2012-04-03T17:23:56.000Z</time>
      </trkpt>
      <trkpt lat="43.98379" lon="5.082">
        <ele>159.19999694824</ele>
        <time>2012-04-03T17:23:57.000Z</time>
      </trkpt>
      <trkpt lat="43.98373" lon="5.08206">
        <ele>159.80000305176</ele>
        <time>2012-04-03T17:24:00.000Z</time>
      </trkpt>
      <trkpt lat="43.98366" lon="5.08216">
        <ele>160.60000610352</ele>
        <time>2012-04-03T17:24:04.000Z</time>
      </trkpt>
      <trkpt lat="43.98365" lon="5.0822">
        <ele>160.80000305176</ele>
        <time>2012-04-03T17:24:06.000Z</time>
      </trkpt>
      <trkpt lat="43.98363" lon="5.08221">
        <ele>161</ele>
        <time>2012-04-03T17:24:07.000Z</time>
      </trkpt>
      <trkpt lat="43.98359" lon="5.08228">
        <ele>161.60000610352</ele>
        <time>2012-04-03T17:24:10.000Z</time>
      </trkpt>
      <trkpt lat="43.98352" lon="5.08243">
        <ele>162.60000610352</ele>
        <time>2012-04-03T17:24:14.000Z</time>
      </trkpt>
      <trkpt lat="43.98349" lon="5.0826">
        <ele>163.39999389648</ele>
        <time>2012-04-03T17:24:19.000Z</time>
      </trkpt>
      <trkpt lat="43.98346" lon="5.08266">
        <ele>163.80000305176</ele>
        <time>2012-04-03T17:24:22.000Z</time>
      </trkpt>
      <trkpt lat="43.98347" lon="5.0827">
        <ele>163.80000305176</ele>
        <time>2012-04-03T17:24:24.000Z</time>
      </trkpt>
      <trkpt lat="43.98345" lon="5.08274">
        <ele>164</ele>
        <time>2012-04-03T17:24:26.000Z</time>
      </trkpt>
      <trkpt lat="43.98342" lon="5.08281">
        <ele>164.19999694824</ele>
        <time>2012-04-03T17:24:29.000Z</time>
      </trkpt>
      <trkpt lat="43.98342" lon="5.08282">
        <ele>164.19999694824</ele>
        <time>2012-04-03T17:24:30.000Z</time>
      </trkpt>
      <trkpt lat="43.98342" lon="5.08284">
        <ele>164.19999694824</ele>
        <time>2012-04-03T17:24:31.000Z</time>
      </trkpt>
      <trkpt lat="43.98339" lon="5.0829">
        <ele>164.39999389648</ele>
        <time>2012-04-03T17:24:33.000Z</time>
      </trkpt>
      <trkpt lat="43.98339" lon="5.08292">
        <ele>164.39999389648</ele>
        <time>2012-04-03T17:24:34.000Z</time>
      </trkpt>
      <trkpt lat="43.98334" lon="5.08304">
        <ele>164.60000610352</ele>
        <time>2012-04-03T17:24:38.000Z</time>
      </trkpt>
      <trkpt lat="43.98331" lon="5.08317">
        <ele>164.80000305176</ele>
        <time>2012-04-03T17:24:42.000Z</time>
      </trkpt>
      <trkpt lat="43.98326" lon="5.08327">
        <ele>165.19999694824</ele>
        <time>2012-04-03T17:24:45.000Z</time>
      </trkpt>
      <trkpt lat="43.98323" lon="5.08332">
        <ele>165.39999389648</ele>
        <time>2012-04-03T17:24:47.000Z</time>
      </trkpt>
      <trkpt lat="43.98319" lon="5.08336">
        <ele>165.60000610352</ele>
        <time>2012-04-03T17:24:49.000Z</time>
      </trkpt>
      <trkpt lat="43.98316" lon="5.0834">
        <ele>166</ele>
        <time>2012-04-03T17:24:51.000Z</time>
      </trkpt>
      <trkpt lat="43.98302" lon="5.08356">
        <ele>166.80000305176</ele>
        <time>2012-04-03T17:24:58.000Z</time>
      </trkpt>
      <trkpt lat="43.98291" lon="5.08361">
        <ele>167</ele>
        <time>2012-04-03T17:25:03.000Z</time>
      </trkpt>
      <trkpt lat="43.98279" lon="5.08364">
        <ele>167.19999694824</ele>
        <time>2012-04-03T17:25:08.000Z</time>
      </trkpt>
      <trkpt lat="43.98268" lon="5.08372">
        <ele>167.19999694824</ele>
        <time>2012-04-03T17:25:13.000Z</time>
      </trkpt>
      <trkpt lat="43.98258" lon="5.08383">
        <ele>167</ele>
        <time>2012-04-03T17:25:18.000Z</time>
      </trkpt>
      <trkpt lat="43.98247" lon="5.08392">
        <ele>166.60000610352</ele>
        <time>2012-04-03T17:25:23.000Z</time>
      </trkpt>
      <trkpt lat="43.9824" lon="5.08391">
        <ele>166.39999389648</ele>
        <time>2012-04-03T17:25:27.000Z</time>
      </trkpt>
      <trkpt lat="43.98236" lon="5.0839">
        <ele>166.39999389648</ele>
        <time>2012-04-03T17:25:29.000Z</time>
      </trkpt>
      <trkpt lat="43.98234" lon="5.08391">
        <ele>166.39999389648</ele>
        <time>2012-04-03T17:25:30.000Z</time>
      </trkpt>
      <trkpt lat="43.98232" lon="5.08392">
        <ele>166.39999389648</ele>
        <time>2012-04-03T17:25:31.000Z</time>
      </trkpt>
      <trkpt lat="43.98219" lon="5.08387">
        <ele>166.19999694824</ele>
        <time>2012-04-03T17:25:36.000Z</time>
      </trkpt>
      <trkpt lat="43.98217" lon="5.08384">
        <ele>166.19999694824</ele>
        <time>2012-04-03T17:25:37.000Z</time>
      </trkpt>
      <trkpt lat="43.98206" lon="5.08377">
        <ele>166</ele>
        <time>2012-04-03T17:25:42.000Z</time>
      </trkpt>
      <trkpt lat="43.98202" lon="5.08371">
        <ele>165.80000305176</ele>
        <time>2012-04-03T17:25:47.000Z</time>
      </trkpt>
      <trkpt lat="43.98199" lon="5.08363">
        <ele>165.80000305176</ele>
        <time>2012-04-03T17:25:52.000Z</time>
      </trkpt>
      <trkpt lat="43.98199" lon="5.08362">
        <ele>165.80000305176</ele>
        <time>2012-04-03T17:25:53.000Z</time>
      </trkpt>
      <trkpt lat="43.98197" lon="5.08362">
        <ele>165.60000610352</ele>
        <time>2012-04-03T17:25:56.000Z</time>
      </trkpt>
      <trkpt lat="43.98197" lon="5.08363">
        <ele>165.60000610352</ele>
        <time>2012-04-03T17:25:58.000Z</time>
      </trkpt>
      <trkpt lat="43.98195" lon="5.0836">
        <ele>165.60000610352</ele>
        <time>2012-04-03T17:26:00.000Z</time>
      </trkpt>
      <trkpt lat="43.98193" lon="5.0836">
        <ele>165.39999389648</ele>
        <time>2012-04-03T17:26:03.000Z</time>
      </trkpt>
      <trkpt lat="43.9819" lon="5.08361">
        <ele>165.39999389648</ele>
        <time>2012-04-03T17:26:09.000Z</time>
      </trkpt>
      <trkpt lat="43.98193" lon="5.08359">
        <ele>165.39999389648</ele>
        <time>2012-04-03T17:26:17.000Z</time>
      </trkpt>
      <trkpt lat="43.98197" lon="5.08354">
        <ele>165.60000610352</ele>
        <time>2012-04-03T17:26:48.000Z</time>
      </trkpt>
      <trkpt lat="43.98192" lon="5.08357">
        <ele>165.39999389648</ele>
        <time>2012-04-03T17:27:04.000Z</time>
      </trkpt>
      <trkpt lat="43.98191" lon="5.08355">
        <ele>165.39999389648</ele>
        <time>2012-04-03T17:27:22.000Z</time>
      </trkpt>
      <trkpt lat="43.9819" lon="5.08356">
        <ele>165.39999389648</ele>
        <time>2012-04-03T17:27:29.000Z</time>
      </trkpt>
      <trkpt lat="43.98189" lon="5.08349">
        <ele>165.19999694824</ele>
        <time>2012-04-03T17:27:46.000Z</time>
      </trkpt>
      <trkpt lat="43.98188" lon="5.08344">
        <ele>165.19999694824</ele>
        <time>2012-04-03T17:27:52.000Z</time>
      </trkpt>
      <trkpt lat="43.98183" lon="5.08336">
        <ele>164.80000305176</ele>
        <time>2012-04-03T17:27:58.000Z</time>
      </trkpt>
      <trkpt lat="43.98179" lon="5.08328">
        <ele>164.39999389648</ele>
        <time>2012-04-03T17:28:03.000Z</time>
      </trkpt>
      <trkpt lat="43.98179" lon="5.08326">
        <ele>164.39999389648</ele>
        <time>2012-04-03T17:28:04.000Z</time>
      </trkpt>
      <trkpt lat="43.98173" lon="5.08313">
        <ele>163.60000610352</ele>
        <time>2012-04-03T17:28:11.000Z</time>
      </trkpt>
      <trkpt lat="43.98163" lon="5.08301">
        <ele>162.80000305176</ele>
        <time>2012-04-03T17:28:17.000Z</time>
      </trkpt>
      <trkpt lat="43.98161" lon="5.08303">
        <ele>163</ele>
        <time>2012-04-03T17:28:19.000Z</time>
      </trkpt>
      <trkpt lat="43.98158" lon="5.08308">
        <ele>163</ele>
        <time>2012-04-03T17:28:21.000Z</time>
      </trkpt>
      <trkpt lat="43.98153" lon="5.08317">
        <ele>163.39999389648</ele>
        <time>2012-04-03T17:28:25.000Z</time>
      </trkpt>
      <trkpt lat="43.98151" lon="5.0832">
        <ele>163.60000610352</ele>
        <time>2012-04-03T17:28:27.000Z</time>
      </trkpt>
      <trkpt lat="43.98141" lon="5.08336">
        <ele>164</ele>
        <time>2012-04-03T17:28:33.000Z</time>
      </trkpt>
      <trkpt lat="43.98129" lon="5.08352">
        <ele>164.60000610352</ele>
        <time>2012-04-03T17:28:40.000Z</time>
      </trkpt>
      <trkpt lat="43.9812" lon="5.08365">
        <ele>165</ele>
        <time>2012-04-03T17:28:45.000Z</time>
      </trkpt>
      <trkpt lat="43.98115" lon="5.08376">
        <ele>165.39999389648</ele>
        <time>2012-04-03T17:28:49.000Z</time>
      </trkpt>
      <trkpt lat="43.98106" lon="5.08397">
        <ele>166</ele>
        <time>2012-04-03T17:28:56.000Z</time>
      </trkpt>
      <trkpt lat="43.98101" lon="5.08412">
        <ele>166.60000610352</ele>
        <time>2012-04-03T17:29:01.000Z</time>
      </trkpt>
      <trkpt lat="43.98093" lon="5.08427">
        <ele>167.19999694824</ele>
        <time>2012-04-03T17:29:06.000Z</time>
      </trkpt>
      <trkpt lat="43.98089" lon="5.08439">
        <ele>167.80000305176</ele>
        <time>2012-04-03T17:29:10.000Z</time>
      </trkpt>
      <trkpt lat="43.98088" lon="5.08443">
        <ele>167.80000305176</ele>
        <time>2012-04-03T17:29:11.000Z</time>
      </trkpt>
      <trkpt lat="43.98082" lon="5.08458">
        <ele>168.60000610352</ele>
        <time>2012-04-03T17:29:16.000Z</time>
      </trkpt>
      <trkpt lat="43.98073" lon="5.08476">
        <ele>170</ele>
        <time>2012-04-03T17:29:22.000Z</time>
      </trkpt>
      <trkpt lat="43.98069" lon="5.08489">
        <ele>170.80000305176</ele>
        <time>2012-04-03T17:29:27.000Z</time>
      </trkpt>
      <trkpt lat="43.98062" lon="5.08504">
        <ele>172</ele>
        <time>2012-04-03T17:29:32.000Z</time>
      </trkpt>
      <trkpt lat="43.98054" lon="5.08525">
        <ele>174.19999694824</ele>
        <time>2012-04-03T17:29:39.000Z</time>
      </trkpt>
      <trkpt lat="43.98048" lon="5.0854">
        <ele>175.60000610352</ele>
        <time>2012-04-03T17:29:44.000Z</time>
      </trkpt>
      <trkpt lat="43.9804" lon="5.08559">
        <ele>177.60000610352</ele>
        <time>2012-04-03T17:29:51.000Z</time>
      </trkpt>
      <trkpt lat="43.98032" lon="5.08574">
        <ele>179.19999694824</ele>
        <time>2012-04-03T17:29:57.000Z</time>
      </trkpt>
      <trkpt lat="43.98033" lon="5.0859">
        <ele>180.39999389648</ele>
        <time>2012-04-03T17:30:03.000Z</time>
      </trkpt>
      <trkpt lat="43.98045" lon="5.08596">
        <ele>180.19999694824</ele>
        <time>2012-04-03T17:30:08.000Z</time>
      </trkpt>
      <trkpt lat="43.9806" lon="5.08604">
        <ele>180.19999694824</ele>
        <time>2012-04-03T17:30:14.000Z</time>
      </trkpt>
      <trkpt lat="43.98068" lon="5.0861">
        <ele>180.19999694824</ele>
        <time>2012-04-03T17:30:18.000Z</time>
      </trkpt>
      <trkpt lat="43.98082" lon="5.0862">
        <ele>180.60000610352</ele>
        <time>2012-04-03T17:30:24.000Z</time>
      </trkpt>
      <trkpt lat="43.98093" lon="5.08629">
        <ele>181</ele>
        <time>2012-04-03T17:30:29.000Z</time>
      </trkpt>
      <trkpt lat="43.98105" lon="5.08639">
        <ele>181.39999389648</ele>
        <time>2012-04-03T17:30:35.000Z</time>
      </trkpt>
      <trkpt lat="43.98117" lon="5.08649">
        <ele>181.60000610352</ele>
        <time>2012-04-03T17:30:40.000Z</time>
      </trkpt>
      <trkpt lat="43.98128" lon="5.08658">
        <ele>181.39999389648</ele>
        <time>2012-04-03T17:30:45.000Z</time>
      </trkpt>
      <trkpt lat="43.98138" lon="5.08663">
        <ele>181.19999694824</ele>
        <time>2012-04-03T17:30:49.000Z</time>
      </trkpt>
      <trkpt lat="43.98144" lon="5.08672">
        <ele>181.60000610352</ele>
        <time>2012-04-03T17:30:53.000Z</time>
      </trkpt>
      <trkpt lat="43.98147" lon="5.0868">
        <ele>182.39999389648</ele>
        <time>2012-04-03T17:30:56.000Z</time>
      </trkpt>
      <trkpt lat="43.98149" lon="5.08685">
        <ele>182.80000305176</ele>
        <time>2012-04-03T17:30:58.000Z</time>
      </trkpt>
      <trkpt lat="43.9815" lon="5.0869">
        <ele>183.39999389648</ele>
        <time>2012-04-03T17:31:00.000Z</time>
      </trkpt>
      <trkpt lat="43.98148" lon="5.08698">
        <ele>184.60000610352</ele>
        <time>2012-04-03T17:31:02.000Z</time>
      </trkpt>
      <trkpt lat="43.98145" lon="5.08701">
        <ele>185.19999694824</ele>
        <time>2012-04-03T17:31:04.000Z</time>
      </trkpt>
      <trkpt lat="43.98141" lon="5.08701">
        <ele>185.80000305176</ele>
        <time>2012-04-03T17:31:06.000Z</time>
      </trkpt>
      <trkpt lat="43.98127" lon="5.08701">
        <ele>187.39999389648</ele>
        <time>2012-04-03T17:31:13.000Z</time>
      </trkpt>
      <trkpt lat="43.98119" lon="5.08694">
        <ele>187.39999389648</ele>
        <time>2012-04-03T17:31:17.000Z</time>
      </trkpt>
      <trkpt lat="43.98108" lon="5.0869">
        <ele>187.80000305176</ele>
        <time>2012-04-03T17:31:21.000Z</time>
      </trkpt>
      <trkpt lat="43.98098" lon="5.08685">
        <ele>188</ele>
        <time>2012-04-03T17:31:26.000Z</time>
      </trkpt>
      <trkpt lat="43.98086" lon="5.08678">
        <ele>187.80000305176</ele>
        <time>2012-04-03T17:31:32.000Z</time>
      </trkpt>
      <trkpt lat="43.98085" lon="5.08685">
        <ele>189.19999694824</ele>
        <time>2012-04-03T17:31:35.000Z</time>
      </trkpt>
      <trkpt lat="43.98086" lon="5.08691">
        <ele>190.19999694824</ele>
        <time>2012-04-03T17:31:38.000Z</time>
      </trkpt>
      <trkpt lat="43.98087" lon="5.08694">
        <ele>191</ele>
        <time>2012-04-03T17:31:40.000Z</time>
      </trkpt>
      <trkpt lat="43.98086" lon="5.08698">
        <ele>191.80000305176</ele>
        <time>2012-04-03T17:31:42.000Z</time>
      </trkpt>
      <trkpt lat="43.98083" lon="5.08701">
        <ele>192.60000610352</ele>
        <time>2012-04-03T17:31:45.000Z</time>
      </trkpt>
      <trkpt lat="43.98078" lon="5.08698">
        <ele>192.39999389648</ele>
        <time>2012-04-03T17:31:50.000Z</time>
      </trkpt>
      <trkpt lat="43.98072" lon="5.08696">
        <ele>192.39999389648</ele>
        <time>2012-04-03T17:31:56.000Z</time>
      </trkpt>
      <trkpt lat="43.98069" lon="5.08694">
        <ele>192.19999694824</ele>
        <time>2012-04-03T17:32:00.000Z</time>
      </trkpt>
      <trkpt lat="43.98063" lon="5.08695">
        <ele>193</ele>
        <time>2012-04-03T17:32:03.000Z</time>
      </trkpt>
      <trkpt lat="43.98061" lon="5.08694">
        <ele>193</ele>
        <time>2012-04-03T17:32:04.000Z</time>
      </trkpt>
      <trkpt lat="43.98058" lon="5.08692">
        <ele>193</ele>
        <time>2012-04-03T17:32:05.000Z</time>
      </trkpt>
      <trkpt lat="43.98046" lon="5.08695">
        <ele>194.39999389648</ele>
        <time>2012-04-03T17:32:10.000Z</time>
      </trkpt>
      <trkpt lat="43.98036" lon="5.087">
        <ele>196.19999694824</ele>
        <time>2012-04-03T17:32:15.000Z</time>
      </trkpt>
      <trkpt lat="43.98034" lon="5.087">
        <ele>196.60000610352</ele>
        <time>2012-04-03T17:32:16.000Z</time>
      </trkpt>
      <trkpt lat="43.98022" lon="5.08704">
        <ele>198.19999694824</ele>
        <time>2012-04-03T17:32:20.000Z</time>
      </trkpt>
      <trkpt lat="43.98011" lon="5.08705">
        <ele>199.39999389648</ele>
        <time>2012-04-03T17:32:25.000Z</time>
      </trkpt>
      <trkpt lat="43.97992" lon="5.08708">
        <ele>201.60000610352</ele>
        <time>2012-04-03T17:32:31.000Z</time>
      </trkpt>
      <trkpt lat="43.97982" lon="5.08705">
        <ele>202</ele>
        <time>2012-04-03T17:32:35.000Z</time>
      </trkpt>
      <trkpt lat="43.97966" lon="5.08699">
        <ele>202.19999694824</ele>
        <time>2012-04-03T17:32:41.000Z</time>
      </trkpt>
      <trkpt lat="43.97954" lon="5.08696">
        <ele>202.60000610352</ele>
        <time>2012-04-03T17:32:46.000Z</time>
      </trkpt>
      <trkpt lat="43.9795" lon="5.08693">
        <ele>202.39999389648</ele>
        <time>2012-04-03T17:32:48.000Z</time>
      </trkpt>
      <trkpt lat="43.97946" lon="5.08685">
        <ele>201.19999694824</ele>
        <time>2012-04-03T17:32:51.000Z</time>
      </trkpt>
      <trkpt lat="43.97942" lon="5.08678">
        <ele>200.39999389648</ele>
        <time>2012-04-03T17:32:53.000Z</time>
      </trkpt>
      <trkpt lat="43.97936" lon="5.08674">
        <ele>200.39999389648</ele>
        <time>2012-04-03T17:32:56.000Z</time>
      </trkpt>
      <trkpt lat="43.97932" lon="5.08671">
        <ele>200</ele>
        <time>2012-04-03T17:32:58.000Z</time>
      </trkpt>
      <trkpt lat="43.97931" lon="5.08667">
        <ele>199.60000610352</ele>
        <time>2012-04-03T17:33:00.000Z</time>
      </trkpt>
      <trkpt lat="43.97931" lon="5.08659">
        <ele>198.19999694824</ele>
        <time>2012-04-03T17:33:02.000Z</time>
      </trkpt>
      <trkpt lat="43.97929" lon="5.08656">
        <ele>198</ele>
        <time>2012-04-03T17:33:03.000Z</time>
      </trkpt>
      <trkpt lat="43.97926" lon="5.08654">
        <ele>198</ele>
        <time>2012-04-03T17:33:04.000Z</time>
      </trkpt>
      <trkpt lat="43.97915" lon="5.08651">
        <ele>198.60000610352</ele>
        <time>2012-04-03T17:33:09.000Z</time>
      </trkpt>
      <trkpt lat="43.97914" lon="5.08648">
        <ele>198.39999389648</ele>
        <time>2012-04-03T17:33:10.000Z</time>
      </trkpt>
      <trkpt lat="43.97911" lon="5.08642">
        <ele>197.80000305176</ele>
        <time>2012-04-03T17:33:13.000Z</time>
      </trkpt>
      <trkpt lat="43.97908" lon="5.08639">
        <ele>197.80000305176</ele>
        <time>2012-04-03T17:33:14.000Z</time>
      </trkpt>
      <trkpt lat="43.97899" lon="5.08634">
        <ele>198.19999694824</ele>
        <time>2012-04-03T17:33:17.000Z</time>
      </trkpt>
      <trkpt lat="43.97886" lon="5.08626">
        <ele>199</ele>
        <time>2012-04-03T17:33:23.000Z</time>
      </trkpt>
      <trkpt lat="43.97879" lon="5.08618">
        <ele>199</ele>
        <time>2012-04-03T17:33:27.000Z</time>
      </trkpt>
      <trkpt lat="43.97871" lon="5.086">
        <ele>197.39999389648</ele>
        <time>2012-04-03T17:33:32.000Z</time>
      </trkpt>
      <trkpt lat="43.97869" lon="5.086">
        <ele>197.80000305176</ele>
        <time>2012-04-03T17:33:33.000Z</time>
      </trkpt>
      <trkpt lat="43.97865" lon="5.08599">
        <ele>198.19999694824</ele>
        <time>2012-04-03T17:33:35.000Z</time>
      </trkpt>
      <trkpt lat="43.97862" lon="5.08599">
        <ele>198.80000305176</ele>
        <time>2012-04-03T17:33:36.000Z</time>
      </trkpt>
      <trkpt lat="43.97855" lon="5.08598">
        <ele>199.60000610352</ele>
        <time>2012-04-03T17:33:41.000Z</time>
      </trkpt>
      <trkpt lat="43.97851" lon="5.08598">
        <ele>200.39999389648</ele>
        <time>2012-04-03T17:33:46.000Z</time>
      </trkpt>
      <trkpt lat="43.97852" lon="5.08603">
        <ele>201</ele>
        <time>2012-04-03T17:33:50.000Z</time>
      </trkpt>
      <trkpt lat="43.97852" lon="5.08605">
        <ele>201.39999389648</ele>
        <time>2012-04-03T17:33:51.000Z</time>
      </trkpt>
      <trkpt lat="43.97852" lon="5.08613">
        <ele>202.60000610352</ele>
        <time>2012-04-03T17:33:54.000Z</time>
      </trkpt>
      <trkpt lat="43.97856" lon="5.0862">
        <ele>203</ele>
        <time>2012-04-03T17:33:58.000Z</time>
      </trkpt>
      <trkpt lat="43.97858" lon="5.0863">
        <ele>204.19999694824</ele>
        <time>2012-04-03T17:34:02.000Z</time>
      </trkpt>
      <trkpt lat="43.97858" lon="5.08633">
        <ele>204.80000305176</ele>
        <time>2012-04-03T17:34:03.000Z</time>
      </trkpt>
      <trkpt lat="43.97857" lon="5.08639">
        <ele>205.80000305176</ele>
        <time>2012-04-03T17:34:05.000Z</time>
      </trkpt>
      <trkpt lat="43.97857" lon="5.08644">
        <ele>206.60000610352</ele>
        <time>2012-04-03T17:34:07.000Z</time>
      </trkpt>
      <trkpt lat="43.97856" lon="5.0865">
        <ele>207.80000305176</ele>
        <time>2012-04-03T17:34:09.000Z</time>
      </trkpt>
      <trkpt lat="43.97853" lon="5.08654">
        <ele>209</ele>
        <time>2012-04-03T17:34:11.000Z</time>
      </trkpt>
      <trkpt lat="43.97851" lon="5.08655">
        <ele>209.39999389648</ele>
        <time>2012-04-03T17:34:12.000Z</time>
      </trkpt>
      <trkpt lat="43.97848" lon="5.08662">
        <ele>211</ele>
        <time>2012-04-03T17:34:16.000Z</time>
      </trkpt>
      <trkpt lat="43.97847" lon="5.08663">
        <ele>211.19999694824</ele>
        <time>2012-04-03T17:34:17.000Z</time>
      </trkpt>
      <trkpt lat="43.97836" lon="5.0866">
        <ele>212.60000610352</ele>
        <time>2012-04-03T17:34:23.000Z</time>
      </trkpt>
      <trkpt lat="43.97835" lon="5.08659">
        <ele>212.60000610352</ele>
        <time>2012-04-03T17:34:24.000Z</time>
      </trkpt>
      <trkpt lat="43.97831" lon="5.08657">
        <ele>212.39999389648</ele>
        <time>2012-04-03T17:34:27.000Z</time>
      </trkpt>
      <trkpt lat="43.97825" lon="5.08653">
        <ele>212</ele>
        <time>2012-04-03T17:34:32.000Z</time>
      </trkpt>
      <trkpt lat="43.97816" lon="5.08644">
        <ele>210.60000610352</ele>
        <time>2012-04-03T17:34:38.000Z</time>
      </trkpt>
      <trkpt lat="43.97807" lon="5.08642">
        <ele>210.60000610352</ele>
        <time>2012-04-03T17:34:43.000Z</time>
      </trkpt>
      <trkpt lat="43.97801" lon="5.08644">
        <ele>211</ele>
        <time>2012-04-03T17:34:49.000Z</time>
      </trkpt>
      <trkpt lat="43.97794" lon="5.08649">
        <ele>211.60000610352</ele>
        <time>2012-04-03T17:34:56.000Z</time>
      </trkpt>
      <trkpt lat="43.97787" lon="5.08651">
        <ele>212</ele>
        <time>2012-04-03T17:35:02.000Z</time>
      </trkpt>
      <trkpt lat="43.97783" lon="5.08653">
        <ele>212.19999694824</ele>
        <time>2012-04-03T17:35:07.000Z</time>
      </trkpt>
      <trkpt lat="43.97782" lon="5.08653">
        <ele>212.39999389648</ele>
        <time>2012-04-03T17:35:08.000Z</time>
      </trkpt>
      <trkpt lat="43.97776" lon="5.08656">
        <ele>212.60000610352</ele>
        <time>2012-04-03T17:35:14.000Z</time>
      </trkpt>
      <trkpt lat="43.97774" lon="5.0866">
        <ele>213.19999694824</ele>
        <time>2012-04-03T17:35:19.000Z</time>
      </trkpt>
      <trkpt lat="43.97775" lon="5.08661">
        <ele>213.39999389648</ele>
        <time>2012-04-03T17:35:20.000Z</time>
      </trkpt>
      <trkpt lat="43.97774" lon="5.08662">
        <ele>213.39999389648</ele>
        <time>2012-04-03T17:35:21.000Z</time>
      </trkpt>
      <trkpt lat="43.97773" lon="5.08662">
        <ele>213.39999389648</ele>
        <time>2012-04-03T17:35:25.000Z</time>
      </trkpt>
      <trkpt lat="43.97771" lon="5.08658">
        <ele>213</ele>
        <time>2012-04-03T17:35:54.000Z</time>
      </trkpt>
      <trkpt lat="43.97766" lon="5.08659">
        <ele>213.19999694824</ele>
        <time>2012-04-03T17:36:02.000Z</time>
      </trkpt>
      <trkpt lat="43.97755" lon="5.08659">
        <ele>213.19999694824</ele>
        <time>2012-04-03T17:36:06.000Z</time>
      </trkpt>
      <trkpt lat="43.97748" lon="5.08662">
        <ele>213.19999694824</ele>
        <time>2012-04-03T17:36:10.000Z</time>
      </trkpt>
      <trkpt lat="43.97747" lon="5.08663">
        <ele>213.19999694824</ele>
        <time>2012-04-03T17:36:14.000Z</time>
      </trkpt>
      <trkpt lat="43.97748" lon="5.08661">
        <ele>213.19999694824</ele>
        <time>2012-04-03T17:36:17.000Z</time>
      </trkpt>
      <trkpt lat="43.97751" lon="5.08662">
        <ele>213.60000610352</ele>
        <time>2012-04-03T17:36:20.000Z</time>
      </trkpt>
      <trkpt lat="43.97752" lon="5.08667">
        <ele>214</ele>
        <time>2012-04-03T17:36:24.000Z</time>
      </trkpt>
      <trkpt lat="43.97751" lon="5.08669">
        <ele>214.39999389648</ele>
        <time>2012-04-03T17:36:26.000Z</time>
      </trkpt>
      <trkpt lat="43.97747" lon="5.0867">
        <ele>214</ele>
        <time>2012-04-03T17:36:31.000Z</time>
      </trkpt>
      <trkpt lat="43.97743" lon="5.0867">
        <ele>213.39999389648</ele>
        <time>2012-04-03T17:36:35.000Z</time>
      </trkpt>
      <trkpt lat="43.97743" lon="5.08669">
        <ele>213.19999694824</ele>
        <time>2012-04-03T17:36:36.000Z</time>
      </trkpt>
      <trkpt lat="43.97738" lon="5.08673">
        <ele>213</ele>
        <time>2012-04-03T17:36:40.000Z</time>
      </trkpt>
      <trkpt lat="43.97732" lon="5.08673">
        <ele>212.19999694824</ele>
        <time>2012-04-03T17:36:44.000Z</time>
      </trkpt>
      <trkpt lat="43.9773" lon="5.08675">
        <ele>212</ele>
        <time>2012-04-03T17:36:49.000Z</time>
      </trkpt>
      <trkpt lat="43.97731" lon="5.08676">
        <ele>212.39999389648</ele>
        <time>2012-04-03T17:36:50.000Z</time>
      </trkpt>
      <trkpt lat="43.97731" lon="5.08678">
        <ele>212.60000610352</ele>
        <time>2012-04-03T17:36:53.000Z</time>
      </trkpt>
      <trkpt lat="43.9773" lon="5.08683">
        <ele>213</ele>
        <time>2012-04-03T17:37:00.000Z</time>
      </trkpt>
      <trkpt lat="43.97732" lon="5.08691">
        <ele>214.19999694824</ele>
        <time>2012-04-03T17:37:04.000Z</time>
      </trkpt>
      <trkpt lat="43.97732" lon="5.08695">
        <ele>214.80000305176</ele>
        <time>2012-04-03T17:37:05.000Z</time>
      </trkpt>
      <trkpt lat="43.97732" lon="5.08705">
        <ele>215.80000305176</ele>
        <time>2012-04-03T17:37:08.000Z</time>
      </trkpt>
      <trkpt lat="43.97731" lon="5.08712">
        <ele>216.39999389648</ele>
        <time>2012-04-03T17:37:10.000Z</time>
      </trkpt>
      <trkpt lat="43.97731" lon="5.08723">
        <ele>217.60000610352</ele>
        <time>2012-04-03T17:37:14.000Z</time>
      </trkpt>
      <trkpt lat="43.97732" lon="5.08737">
        <ele>219.39999389648</ele>
        <time>2012-04-03T17:37:19.000Z</time>
      </trkpt>
      <trkpt lat="43.97732" lon="5.08749">
        <ele>220.80000305176</ele>
        <time>2012-04-03T17:37:24.000Z</time>
      </trkpt>
      <trkpt lat="43.97727" lon="5.08758">
        <ele>221.60000610352</ele>
        <time>2012-04-03T17:37:28.000Z</time>
      </trkpt>
      <trkpt lat="43.97726" lon="5.08769">
        <ele>223.19999694824</ele>
        <time>2012-04-03T17:37:33.000Z</time>
      </trkpt>
      <trkpt lat="43.97724" lon="5.08777">
        <ele>224</ele>
        <time>2012-04-03T17:37:37.000Z</time>
      </trkpt>
      <trkpt lat="43.97721" lon="5.0878">
        <ele>224.19999694824</ele>
        <time>2012-04-03T17:37:39.000Z</time>
      </trkpt>
      <trkpt lat="43.97718" lon="5.08784">
        <ele>224.39999389648</ele>
        <time>2012-04-03T17:37:41.000Z</time>
      </trkpt>
      <trkpt lat="43.97708" lon="5.08797">
        <ele>224.60000610352</ele>
        <time>2012-04-03T17:37:47.000Z</time>
      </trkpt>
      <trkpt lat="43.97702" lon="5.08806">
        <ele>225</ele>
        <time>2012-04-03T17:37:51.000Z</time>
      </trkpt>
      <trkpt lat="43.97699" lon="5.08809">
        <ele>224.80000305176</ele>
        <time>2012-04-03T17:37:53.000Z</time>
      </trkpt>
      <trkpt lat="43.97695" lon="5.08812">
        <ele>224.39999389648</ele>
        <time>2012-04-03T17:37:55.000Z</time>
      </trkpt>
      <trkpt lat="43.97694" lon="5.08814">
        <ele>224.60000610352</ele>
        <time>2012-04-03T17:37:57.000Z</time>
      </trkpt>
      <trkpt lat="43.97691" lon="5.08823">
        <ele>225.39999389648</ele>
        <time>2012-04-03T17:38:00.000Z</time>
      </trkpt>
      <trkpt lat="43.97688" lon="5.08827">
        <ele>225.39999389648</ele>
        <time>2012-04-03T17:38:03.000Z</time>
      </trkpt>
      <trkpt lat="43.97686" lon="5.08832">
        <ele>225.80000305176</ele>
        <time>2012-04-03T17:38:05.000Z</time>
      </trkpt>
      <trkpt lat="43.97678" lon="5.08842">
        <ele>225.19999694824</ele>
        <time>2012-04-03T17:38:10.000Z</time>
      </trkpt>
      <trkpt lat="43.97672" lon="5.0886">
        <ele>225.80000305176</ele>
        <time>2012-04-03T17:38:15.000Z</time>
      </trkpt>
      <trkpt lat="43.97671" lon="5.08885">
        <ele>228.19999694824</ele>
        <time>2012-04-03T17:38:20.000Z</time>
      </trkpt>
      <trkpt lat="43.97674" lon="5.08902">
        <ele>230.60000610352</ele>
        <time>2012-04-03T17:38:24.000Z</time>
      </trkpt>
      <trkpt lat="43.97675" lon="5.08917">
        <ele>232.60000610352</ele>
        <time>2012-04-03T17:38:28.000Z</time>
      </trkpt>
      <trkpt lat="43.97675" lon="5.08931">
        <ele>235.80000305176</ele>
        <time>2012-04-03T17:38:33.000Z</time>
      </trkpt>
      <trkpt lat="43.97666" lon="5.08939">
        <ele>236.19999694824</ele>
        <time>2012-04-03T17:38:38.000Z</time>
      </trkpt>
      <trkpt lat="43.97653" lon="5.08942">
        <ele>235.19999694824</ele>
        <time>2012-04-03T17:38:43.000Z</time>
      </trkpt>
      <trkpt lat="43.97636" lon="5.08947">
        <ele>233.60000610352</ele>
        <time>2012-04-03T17:38:50.000Z</time>
      </trkpt>
      <trkpt lat="43.97627" lon="5.08958">
        <ele>234.60000610352</ele>
        <time>2012-04-03T17:38:56.000Z</time>
      </trkpt>
      <trkpt lat="43.97623" lon="5.08967">
        <ele>236</ele>
        <time>2012-04-03T17:39:00.000Z</time>
      </trkpt>
      <trkpt lat="43.97623" lon="5.08971">
        <ele>236.80000305176</ele>
        <time>2012-04-03T17:39:02.000Z</time>
      </trkpt>
      <trkpt lat="43.97622" lon="5.08974">
        <ele>237.19999694824</ele>
        <time>2012-04-03T17:39:04.000Z</time>
      </trkpt>
      <trkpt lat="43.9762" lon="5.08981">
        <ele>238.19999694824</ele>
        <time>2012-04-03T17:39:07.000Z</time>
      </trkpt>
      <trkpt lat="43.97617" lon="5.08991">
        <ele>239.60000610352</ele>
        <time>2012-04-03T17:39:10.000Z</time>
      </trkpt>
      <trkpt lat="43.97614" lon="5.09006">
        <ele>241.80000305176</ele>
        <time>2012-04-03T17:39:15.000Z</time>
      </trkpt>
      <trkpt lat="43.9761" lon="5.0902">
        <ele>243.39999389648</ele>
        <time>2012-04-03T17:39:20.000Z</time>
      </trkpt>
      <trkpt lat="43.97607" lon="5.09034">
        <ele>245.39999389648</ele>
        <time>2012-04-03T17:39:25.000Z</time>
      </trkpt>
      <trkpt lat="43.97605" lon="5.09037">
        <ele>245.39999389648</ele>
        <time>2012-04-03T17:39:26.000Z</time>
      </trkpt>
      <trkpt lat="43.97604" lon="5.09047">
        <ele>247</ele>
        <time>2012-04-03T17:39:29.000Z</time>
      </trkpt>
      <trkpt lat="43.97603" lon="5.09058">
        <ele>248.39999389648</ele>
        <time>2012-04-03T17:39:33.000Z</time>
      </trkpt>
      <trkpt lat="43.97603" lon="5.09062">
        <ele>249.19999694824</ele>
        <time>2012-04-03T17:39:34.000Z</time>
      </trkpt>
      <trkpt lat="43.97602" lon="5.09073">
        <ele>250.80000305176</ele>
        <time>2012-04-03T17:39:38.000Z</time>
      </trkpt>
      <trkpt lat="43.97598" lon="5.09082">
        <ele>251.60000610352</ele>
        <time>2012-04-03T17:39:41.000Z</time>
      </trkpt>
      <trkpt lat="43.97597" lon="5.09087">
        <ele>252.19999694824</ele>
        <time>2012-04-03T17:39:43.000Z</time>
      </trkpt>
      <trkpt lat="43.97594" lon="5.091">
        <ele>253.60000610352</ele>
        <time>2012-04-03T17:39:48.000Z</time>
      </trkpt>
      <trkpt lat="43.97592" lon="5.09113">
        <ele>255.39999389648</ele>
        <time>2012-04-03T17:39:53.000Z</time>
      </trkpt>
      <trkpt lat="43.97589" lon="5.09119">
        <ele>255.80000305176</ele>
        <time>2012-04-03T17:39:57.000Z</time>
      </trkpt>
      <trkpt lat="43.97587" lon="5.0912">
        <ele>255.80000305176</ele>
        <time>2012-04-03T17:39:58.000Z</time>
      </trkpt>
      <trkpt lat="43.97584" lon="5.09123">
        <ele>255.80000305176</ele>
        <time>2012-04-03T17:40:02.000Z</time>
      </trkpt>
      <trkpt lat="43.97582" lon="5.09124">
        <ele>256</ele>
        <time>2012-04-03T17:40:03.000Z</time>
      </trkpt>
      <trkpt lat="43.97576" lon="5.09124">
        <ele>257</ele>
        <time>2012-04-03T17:40:08.000Z</time>
      </trkpt>
      <trkpt lat="43.97575" lon="5.09125">
        <ele>257.20001220703</ele>
        <time>2012-04-03T17:40:10.000Z</time>
      </trkpt>
      <trkpt lat="43.97573" lon="5.09124">
        <ele>257.39999389648</ele>
        <time>2012-04-03T17:40:13.000Z</time>
      </trkpt>
      <trkpt lat="43.97571" lon="5.09123">
        <ele>257.60000610352</ele>
        <time>2012-04-03T17:40:15.000Z</time>
      </trkpt>
      <trkpt lat="43.9757" lon="5.09123">
        <ele>257.79998779297</ele>
        <time>2012-04-03T17:40:16.000Z</time>
      </trkpt>
      <trkpt lat="43.97567" lon="5.09124">
        <ele>258.39999389648</ele>
        <time>2012-04-03T17:40:22.000Z</time>
      </trkpt>
      <trkpt lat="43.97569" lon="5.09125">
        <ele>258.39999389648</ele>
        <time>2012-04-03T17:40:31.000Z</time>
      </trkpt>
      <trkpt lat="43.97563" lon="5.0912">
        <ele>258.39999389648</ele>
        <time>2012-04-03T17:40:46.000Z</time>
      </trkpt>
      <trkpt lat="43.97561" lon="5.09118">
        <ele>258.39999389648</ele>
        <time>2012-04-03T17:40:50.000Z</time>
      </trkpt>
      <trkpt lat="43.97558" lon="5.09116">
        <ele>258.39999389648</ele>
        <time>2012-04-03T17:40:53.000Z</time>
      </trkpt>
      <trkpt lat="43.97554" lon="5.09112">
        <ele>258.39999389648</ele>
        <time>2012-04-03T17:40:58.000Z</time>
      </trkpt>
      <trkpt lat="43.97553" lon="5.0911">
        <ele>258.20001220703</ele>
        <time>2012-04-03T17:40:59.000Z</time>
      </trkpt>
      <trkpt lat="43.97547" lon="5.09106">
        <ele>258.39999389648</ele>
        <time>2012-04-03T17:41:03.000Z</time>
      </trkpt>
      <trkpt lat="43.97539" lon="5.09093">
        <ele>257.60000610352</ele>
        <time>2012-04-03T17:41:09.000Z</time>
      </trkpt>
      <trkpt lat="43.97531" lon="5.09083">
        <ele>257.20001220703</ele>
        <time>2012-04-03T17:41:14.000Z</time>
      </trkpt>
      <trkpt lat="43.97522" lon="5.09078">
        <ele>257.39999389648</ele>
        <time>2012-04-03T17:41:18.000Z</time>
      </trkpt>
      <trkpt lat="43.97512" lon="5.09072">
        <ele>257.79998779297</ele>
        <time>2012-04-03T17:41:23.000Z</time>
      </trkpt>
      <trkpt lat="43.975" lon="5.09068">
        <ele>258.79998779297</ele>
        <time>2012-04-03T17:41:28.000Z</time>
      </trkpt>
      <trkpt lat="43.97492" lon="5.09064">
        <ele>259.20001220703</ele>
        <time>2012-04-03T17:41:32.000Z</time>
      </trkpt>
      <trkpt lat="43.9748" lon="5.09056">
        <ele>259.39999389648</ele>
        <time>2012-04-03T17:41:38.000Z</time>
      </trkpt>
      <trkpt lat="43.97469" lon="5.09052">
        <ele>260.39999389648</ele>
        <time>2012-04-03T17:41:43.000Z</time>
      </trkpt>
      <trkpt lat="43.97458" lon="5.0905">
        <ele>261.60000610352</ele>
        <time>2012-04-03T17:41:48.000Z</time>
      </trkpt>
      <trkpt lat="43.97447" lon="5.09046">
        <ele>262.79998779297</ele>
        <time>2012-04-03T17:41:55.000Z</time>
      </trkpt>
      <trkpt lat="43.97447" lon="5.09041">
        <ele>262.39999389648</ele>
        <time>2012-04-03T17:41:59.000Z</time>
      </trkpt>
      <trkpt lat="43.97447" lon="5.09038">
        <ele>262</ele>
        <time>2012-04-03T17:42:01.000Z</time>
      </trkpt>
      <trkpt lat="43.97448" lon="5.09035">
        <ele>261.60000610352</ele>
        <time>2012-04-03T17:42:11.000Z</time>
      </trkpt>
      <trkpt lat="43.97446" lon="5.09026">
        <ele>260.79998779297</ele>
        <time>2012-04-03T17:42:16.000Z</time>
      </trkpt>
      <trkpt lat="43.97447" lon="5.09025">
        <ele>260.60000610352</ele>
        <time>2012-04-03T17:42:18.000Z</time>
      </trkpt>
      <trkpt lat="43.97448" lon="5.09028">
        <ele>260.79998779297</ele>
        <time>2012-04-03T17:42:20.000Z</time>
      </trkpt>
      <trkpt lat="43.97446" lon="5.09027">
        <ele>260.79998779297</ele>
        <time>2012-04-03T17:42:23.000Z</time>
      </trkpt>
      <trkpt lat="43.97446" lon="5.09026">
        <ele>261</ele>
        <time>2012-04-03T17:42:24.000Z</time>
      </trkpt>
      <trkpt lat="43.97444" lon="5.09026">
        <ele>261.20001220703</ele>
        <time>2012-04-03T17:42:25.000Z</time>
      </trkpt>
      <trkpt lat="43.97437" lon="5.09025">
        <ele>262.60000610352</ele>
        <time>2012-04-03T17:42:29.000Z</time>
      </trkpt>
      <trkpt lat="43.9743" lon="5.09022">
        <ele>263.79998779297</ele>
        <time>2012-04-03T17:42:34.000Z</time>
      </trkpt>
      <trkpt lat="43.9742" lon="5.09021">
        <ele>265.60000610352</ele>
        <time>2012-04-03T17:42:39.000Z</time>
      </trkpt>
      <trkpt lat="43.97418" lon="5.09022">
        <ele>266</ele>
        <time>2012-04-03T17:42:40.000Z</time>
      </trkpt>
      <trkpt lat="43.97403" lon="5.09022">
        <ele>267.39999389648</ele>
        <time>2012-04-03T17:42:46.000Z</time>
      </trkpt>
      <trkpt lat="43.97389" lon="5.09009">
        <ele>267.60000610352</ele>
        <time>2012-04-03T17:42:52.000Z</time>
      </trkpt>
      <trkpt lat="43.97371" lon="5.08996">
        <ele>267.79998779297</ele>
        <time>2012-04-03T17:42:59.000Z</time>
      </trkpt>
      <trkpt lat="43.97363" lon="5.08986">
        <ele>267.39999389648</ele>
        <time>2012-04-03T17:43:03.000Z</time>
      </trkpt>
      <trkpt lat="43.9735" lon="5.08976">
        <ele>267.60000610352</ele>
        <time>2012-04-03T17:43:08.000Z</time>
      </trkpt>
      <trkpt lat="43.97344" lon="5.08969">
        <ele>267.39999389648</ele>
        <time>2012-04-03T17:43:11.000Z</time>
      </trkpt>
      <trkpt lat="43.97342" lon="5.08966">
        <ele>267.39999389648</ele>
        <time>2012-04-03T17:43:12.000Z</time>
      </trkpt>
      <trkpt lat="43.97337" lon="5.08961">
        <ele>267.39999389648</ele>
        <time>2012-04-03T17:43:15.000Z</time>
      </trkpt>
      <trkpt lat="43.97335" lon="5.08959">
        <ele>267.39999389648</ele>
        <time>2012-04-03T17:43:16.000Z</time>
      </trkpt>
      <trkpt lat="43.97329" lon="5.08948">
        <ele>266.60000610352</ele>
        <time>2012-04-03T17:43:20.000Z</time>
      </trkpt>
      <trkpt lat="43.97327" lon="5.08931">
        <ele>265.39999389648</ele>
        <time>2012-04-03T17:43:25.000Z</time>
      </trkpt>
      <trkpt lat="43.97325" lon="5.08912">
        <ele>263.79998779297</ele>
        <time>2012-04-03T17:43:30.000Z</time>
      </trkpt>
      <trkpt lat="43.97324" lon="5.0889">
        <ele>261.79998779297</ele>
        <time>2012-04-03T17:43:35.000Z</time>
      </trkpt>
      <trkpt lat="43.97328" lon="5.08864">
        <ele>259.60000610352</ele>
        <time>2012-04-03T17:43:40.000Z</time>
      </trkpt>
      <trkpt lat="43.97333" lon="5.08854">
        <ele>258.60000610352</ele>
        <time>2012-04-03T17:43:44.000Z</time>
      </trkpt>
      <trkpt lat="43.97331" lon="5.08851">
        <ele>258.39999389648</ele>
        <time>2012-04-03T17:43:46.000Z</time>
      </trkpt>
      <trkpt lat="43.97326" lon="5.08848">
        <ele>258.20001220703</ele>
        <time>2012-04-03T17:43:48.000Z</time>
      </trkpt>
      <trkpt lat="43.97323" lon="5.08846">
        <ele>258</ele>
        <time>2012-04-03T17:43:50.000Z</time>
      </trkpt>
      <trkpt lat="43.97315" lon="5.08848">
        <ele>258</ele>
        <time>2012-04-03T17:43:53.000Z</time>
      </trkpt>
      <trkpt lat="43.97303" lon="5.08847">
        <ele>257.60000610352</ele>
        <time>2012-04-03T17:43:57.000Z</time>
      </trkpt>
      <trkpt lat="43.97287" lon="5.08839">
        <ele>256.60000610352</ele>
        <time>2012-04-03T17:44:03.000Z</time>
      </trkpt>
      <trkpt lat="43.97276" lon="5.08837">
        <ele>256</ele>
        <time>2012-04-03T17:44:07.000Z</time>
      </trkpt>
      <trkpt lat="43.97262" lon="5.0883">
        <ele>255</ele>
        <time>2012-04-03T17:44:12.000Z</time>
      </trkpt>
      <trkpt lat="43.97253" lon="5.08829">
        <ele>254.80000305176</ele>
        <time>2012-04-03T17:44:16.000Z</time>
      </trkpt>
      <trkpt lat="43.97237" lon="5.08828">
        <ele>254</ele>
        <time>2012-04-03T17:44:21.000Z</time>
      </trkpt>
      <trkpt lat="43.97216" lon="5.08825">
        <ele>252.60000610352</ele>
        <time>2012-04-03T17:44:28.000Z</time>
      </trkpt>
      <trkpt lat="43.97202" lon="5.08826">
        <ele>252</ele>
        <time>2012-04-03T17:44:33.000Z</time>
      </trkpt>
      <trkpt lat="43.97191" lon="5.08827">
        <ele>251.60000610352</ele>
        <time>2012-04-03T17:44:37.000Z</time>
      </trkpt>
      <trkpt lat="43.97182" lon="5.0883">
        <ele>251.39999389648</ele>
        <time>2012-04-03T17:44:41.000Z</time>
      </trkpt>
      <trkpt lat="43.97172" lon="5.08831">
        <ele>251</ele>
        <time>2012-04-03T17:44:46.000Z</time>
      </trkpt>
      <trkpt lat="43.97171" lon="5.08829">
        <ele>250.80000305176</ele>
        <time>2012-04-03T17:44:47.000Z</time>
      </trkpt>
      <trkpt lat="43.97161" lon="5.08832">
        <ele>251.19999694824</ele>
        <time>2012-04-03T17:44:51.000Z</time>
      </trkpt>
      <trkpt lat="43.97155" lon="5.08832">
        <ele>251.39999389648</ele>
        <time>2012-04-03T17:44:53.000Z</time>
      </trkpt>
      <trkpt lat="43.97149" lon="5.0883">
        <ele>251.60000610352</ele>
        <time>2012-04-03T17:44:55.000Z</time>
      </trkpt>
      <trkpt lat="43.97135" lon="5.0882">
        <ele>251.19999694824</ele>
        <time>2012-04-03T17:45:01.000Z</time>
      </trkpt>
      <trkpt lat="43.97131" lon="5.08811">
        <ele>250.39999389648</ele>
        <time>2012-04-03T17:45:05.000Z</time>
      </trkpt>
      <trkpt lat="43.9713" lon="5.08798">
        <ele>249.19999694824</ele>
        <time>2012-04-03T17:45:09.000Z</time>
      </trkpt>
      <trkpt lat="43.97127" lon="5.08783">
        <ele>247.80000305176</ele>
        <time>2012-04-03T17:45:13.000Z</time>
      </trkpt>
      <trkpt lat="43.97117" lon="5.0877">
        <ele>246.80000305176</ele>
        <time>2012-04-03T17:45:18.000Z</time>
      </trkpt>
      <trkpt lat="43.97117" lon="5.08766">
        <ele>246.39999389648</ele>
        <time>2012-04-03T17:45:19.000Z</time>
      </trkpt>
      <trkpt lat="43.97115" lon="5.08758">
        <ele>245.39999389648</ele>
        <time>2012-04-03T17:45:22.000Z</time>
      </trkpt>
      <trkpt lat="43.97112" lon="5.08753">
        <ele>245</ele>
        <time>2012-04-03T17:45:24.000Z</time>
      </trkpt>
      <trkpt lat="43.97107" lon="5.0875">
        <ele>244.80000305176</ele>
        <time>2012-04-03T17:45:26.000Z</time>
      </trkpt>
      <trkpt lat="43.97097" lon="5.08746">
        <ele>244.80000305176</ele>
        <time>2012-04-03T17:45:31.000Z</time>
      </trkpt>
      <trkpt lat="43.97087" lon="5.08742">
        <ele>244.60000610352</ele>
        <time>2012-04-03T17:45:36.000Z</time>
      </trkpt>
      <trkpt lat="43.97077" lon="5.08741">
        <ele>245</ele>
        <time>2012-04-03T17:45:40.000Z</time>
      </trkpt>
      <trkpt lat="43.97061" lon="5.08736">
        <ele>245.39999389648</ele>
        <time>2012-04-03T17:45:45.000Z</time>
      </trkpt>
      <trkpt lat="43.97058" lon="5.08737">
        <ele>245.60000610352</ele>
        <time>2012-04-03T17:45:46.000Z</time>
      </trkpt>
      <trkpt lat="43.97054" lon="5.08736">
        <ele>245.80000305176</ele>
        <time>2012-04-03T17:45:48.000Z</time>
      </trkpt>
      <trkpt lat="43.97049" lon="5.08735">
        <ele>246</ele>
        <time>2012-04-03T17:45:51.000Z</time>
      </trkpt>
      <trkpt lat="43.97046" lon="5.08736">
        <ele>246.19999694824</ele>
        <time>2012-04-03T17:45:53.000Z</time>
      </trkpt>
      <trkpt lat="43.97029" lon="5.08739">
        <ele>247.39999389648</ele>
        <time>2012-04-03T17:46:00.000Z</time>
      </trkpt>
      <trkpt lat="43.97026" lon="5.08736">
        <ele>247.19999694824</ele>
        <time>2012-04-03T17:46:02.000Z</time>
      </trkpt>
      <trkpt lat="43.97021" lon="5.08737">
        <ele>247.60000610352</ele>
        <time>2012-04-03T17:46:04.000Z</time>
      </trkpt>
      <trkpt lat="43.97013" lon="5.08736">
        <ele>248</ele>
        <time>2012-04-03T17:46:08.000Z</time>
      </trkpt>
      <trkpt lat="43.97012" lon="5.08735">
        <ele>248</ele>
        <time>2012-04-03T17:46:09.000Z</time>
      </trkpt>
      <trkpt lat="43.97006" lon="5.08734">
        <ele>248.19999694824</ele>
        <time>2012-04-03T17:46:13.000Z</time>
      </trkpt>
      <trkpt lat="43.97003" lon="5.08734">
        <ele>248.19999694824</ele>
        <time>2012-04-03T17:46:15.000Z</time>
      </trkpt>
      <trkpt lat="43.96999" lon="5.08737">
        <ele>248.80000305176</ele>
        <time>2012-04-03T17:46:18.000Z</time>
      </trkpt>
      <trkpt lat="43.96999" lon="5.08738">
        <ele>249</ele>
        <time>2012-04-03T17:46:19.000Z</time>
      </trkpt>
      <trkpt lat="43.96996" lon="5.08748">
        <ele>249.80000305176</ele>
        <time>2012-04-03T17:46:23.000Z</time>
      </trkpt>
      <trkpt lat="43.96996" lon="5.08754">
        <ele>250.19999694824</ele>
        <time>2012-04-03T17:46:25.000Z</time>
      </trkpt>
      <trkpt lat="43.96995" lon="5.08763">
        <ele>250.39999389648</ele>
        <time>2012-04-03T17:46:28.000Z</time>
      </trkpt>
      <trkpt lat="43.96991" lon="5.08773">
        <ele>250.80000305176</ele>
        <time>2012-04-03T17:46:32.000Z</time>
      </trkpt>
      <trkpt lat="43.96981" lon="5.08776">
        <ele>251</ele>
        <time>2012-04-03T17:46:37.000Z</time>
      </trkpt>
      <trkpt lat="43.96977" lon="5.08778">
        <ele>251.19999694824</ele>
        <time>2012-04-03T17:46:41.000Z</time>
      </trkpt>
      <trkpt lat="43.96976" lon="5.0878">
        <ele>251.19999694824</ele>
        <time>2012-04-03T17:46:43.000Z</time>
      </trkpt>
      <trkpt lat="43.96976" lon="5.08783">
        <ele>251.39999389648</ele>
        <time>2012-04-03T17:46:47.000Z</time>
      </trkpt>
      <trkpt lat="43.9697" lon="5.08785">
        <ele>251.60000610352</ele>
        <time>2012-04-03T17:47:16.000Z</time>
      </trkpt>
      <trkpt lat="43.96963" lon="5.08785">
        <ele>251.60000610352</ele>
        <time>2012-04-03T17:47:22.000Z</time>
      </trkpt>
      <trkpt lat="43.96961" lon="5.08785">
        <ele>251.60000610352</ele>
        <time>2012-04-03T17:47:27.000Z</time>
      </trkpt>
      <trkpt lat="43.96958" lon="5.08785">
        <ele>251.60000610352</ele>
        <time>2012-04-03T17:47:51.000Z</time>
      </trkpt>
      <trkpt lat="43.96954" lon="5.08783">
        <ele>251.60000610352</ele>
        <time>2012-04-03T17:47:59.000Z</time>
      </trkpt>
      <trkpt lat="43.96951" lon="5.08784">
        <ele>251.80000305176</ele>
        <time>2012-04-03T17:48:04.000Z</time>
      </trkpt>
      <trkpt lat="43.96948" lon="5.08783">
        <ele>251.60000610352</ele>
        <time>2012-04-03T17:48:06.000Z</time>
      </trkpt>
      <trkpt lat="43.96941" lon="5.08787">
        <ele>252</ele>
        <time>2012-04-03T17:48:09.000Z</time>
      </trkpt>
      <trkpt lat="43.96939" lon="5.08788">
        <ele>252</ele>
        <time>2012-04-03T17:48:10.000Z</time>
      </trkpt>
      <trkpt lat="43.96927" lon="5.08787">
        <ele>252</ele>
        <time>2012-04-03T17:48:15.000Z</time>
      </trkpt>
      <trkpt lat="43.96923" lon="5.08785">
        <ele>252</ele>
        <time>2012-04-03T17:48:16.000Z</time>
      </trkpt>
      <trkpt lat="43.96908" lon="5.08783">
        <ele>252</ele>
        <time>2012-04-03T17:48:20.000Z</time>
      </trkpt>
      <trkpt lat="43.96899" lon="5.08776">
        <ele>251.39999389648</ele>
        <time>2012-04-03T17:48:24.000Z</time>
      </trkpt>
      <trkpt lat="43.96894" lon="5.08753">
        <ele>250.19999694824</ele>
        <time>2012-04-03T17:48:29.000Z</time>
      </trkpt>
      <trkpt lat="43.96895" lon="5.08738">
        <ele>249.39999389648</ele>
        <time>2012-04-03T17:48:33.000Z</time>
      </trkpt>
      <trkpt lat="43.96896" lon="5.08727">
        <ele>248.80000305176</ele>
        <time>2012-04-03T17:48:38.000Z</time>
      </trkpt>
      <trkpt lat="43.96896" lon="5.08721">
        <ele>248.39999389648</ele>
        <time>2012-04-03T17:48:40.000Z</time>
      </trkpt>
      <trkpt lat="43.96891" lon="5.08715">
        <ele>248</ele>
        <time>2012-04-03T17:48:42.000Z</time>
      </trkpt>
      <trkpt lat="43.96887" lon="5.0871">
        <ele>247.60000610352</ele>
        <time>2012-04-03T17:48:44.000Z</time>
      </trkpt>
      <trkpt lat="43.96875" lon="5.08697">
        <ele>246.19999694824</ele>
        <time>2012-04-03T17:48:49.000Z</time>
      </trkpt>
      <trkpt lat="43.96863" lon="5.08683">
        <ele>244.39999389648</ele>
        <time>2012-04-03T17:48:54.000Z</time>
      </trkpt>
      <trkpt lat="43.96857" lon="5.08672">
        <ele>243.19999694824</ele>
        <time>2012-04-03T17:48:59.000Z</time>
      </trkpt>
      <trkpt lat="43.96846" lon="5.0866">
        <ele>241.60000610352</ele>
        <time>2012-04-03T17:49:04.000Z</time>
      </trkpt>
      <trkpt lat="43.96833" lon="5.08648">
        <ele>240.19999694824</ele>
        <time>2012-04-03T17:49:09.000Z</time>
      </trkpt>
      <trkpt lat="43.96825" lon="5.08633">
        <ele>239.60000610352</ele>
        <time>2012-04-03T17:49:13.000Z</time>
      </trkpt>
      <trkpt lat="43.96826" lon="5.0862">
        <ele>238.80000305176</ele>
        <time>2012-04-03T17:49:17.000Z</time>
      </trkpt>
      <trkpt lat="43.96828" lon="5.08601">
        <ele>237.80000305176</ele>
        <time>2012-04-03T17:49:22.000Z</time>
      </trkpt>
      <trkpt lat="43.96835" lon="5.08577">
        <ele>236.19999694824</ele>
        <time>2012-04-03T17:49:28.000Z</time>
      </trkpt>
      <trkpt lat="43.96838" lon="5.08558">
        <ele>234.19999694824</ele>
        <time>2012-04-03T17:49:33.000Z</time>
      </trkpt>
      <trkpt lat="43.96836" lon="5.08543">
        <ele>232.60000610352</ele>
        <time>2012-04-03T17:49:37.000Z</time>
      </trkpt>
      <trkpt lat="43.96832" lon="5.08539">
        <ele>232.19999694824</ele>
        <time>2012-04-03T17:49:39.000Z</time>
      </trkpt>
      <trkpt lat="43.96827" lon="5.08538">
        <ele>231.80000305176</ele>
        <time>2012-04-03T17:49:41.000Z</time>
      </trkpt>
      <trkpt lat="43.96819" lon="5.0854">
        <ele>231.80000305176</ele>
        <time>2012-04-03T17:49:45.000Z</time>
      </trkpt>
      <trkpt lat="43.96808" lon="5.08542">
        <ele>231.39999389648</ele>
        <time>2012-04-03T17:49:49.000Z</time>
      </trkpt>
      <trkpt lat="43.96805" lon="5.08542">
        <ele>231.39999389648</ele>
        <time>2012-04-03T17:49:50.000Z</time>
      </trkpt>
      <trkpt lat="43.96796" lon="5.08541">
        <ele>230.80000305176</ele>
        <time>2012-04-03T17:49:54.000Z</time>
      </trkpt>
      <trkpt lat="43.96794" lon="5.08539">
        <ele>230.60000610352</ele>
        <time>2012-04-03T17:49:55.000Z</time>
      </trkpt>
      <trkpt lat="43.96787" lon="5.08525">
        <ele>229</ele>
        <time>2012-04-03T17:49:58.000Z</time>
      </trkpt>
      <trkpt lat="43.96781" lon="5.08514">
        <ele>227.60000610352</ele>
        <time>2012-04-03T17:50:02.000Z</time>
      </trkpt>
      <trkpt lat="43.96772" lon="5.08498">
        <ele>225.80000305176</ele>
        <time>2012-04-03T17:50:08.000Z</time>
      </trkpt>
      <trkpt lat="43.9677" lon="5.08488">
        <ele>225.19999694824</ele>
        <time>2012-04-03T17:50:12.000Z</time>
      </trkpt>
      <trkpt lat="43.96766" lon="5.08484">
        <ele>225</ele>
        <time>2012-04-03T17:50:14.000Z</time>
      </trkpt>
      <trkpt lat="43.9676" lon="5.08479">
        <ele>224.39999389648</ele>
        <time>2012-04-03T17:50:16.000Z</time>
      </trkpt>
      <trkpt lat="43.96752" lon="5.08461">
        <ele>223.19999694824</ele>
        <time>2012-04-03T17:50:21.000Z</time>
      </trkpt>
      <trkpt lat="43.96753" lon="5.08456">
        <ele>223</ele>
        <time>2012-04-03T17:50:23.000Z</time>
      </trkpt>
      <trkpt lat="43.96753" lon="5.08452">
        <ele>222.80000305176</ele>
        <time>2012-04-03T17:50:24.000Z</time>
      </trkpt>
      <trkpt lat="43.96746" lon="5.08441">
        <ele>222.19999694824</ele>
        <time>2012-04-03T17:50:28.000Z</time>
      </trkpt>
      <trkpt lat="43.96742" lon="5.08429">
        <ele>221.39999389648</ele>
        <time>2012-04-03T17:50:31.000Z</time>
      </trkpt>
      <trkpt lat="43.96741" lon="5.08425">
        <ele>221.19999694824</ele>
        <time>2012-04-03T17:50:32.000Z</time>
      </trkpt>
      <trkpt lat="43.96732" lon="5.08405">
        <ele>221.19999694824</ele>
        <time>2012-04-03T17:50:38.000Z</time>
      </trkpt>
      <trkpt lat="43.96721" lon="5.084">
        <ele>221</ele>
        <time>2012-04-03T17:50:43.000Z</time>
      </trkpt>
      <trkpt lat="43.96706" lon="5.08396">
        <ele>220.60000610352</ele>
        <time>2012-04-03T17:50:48.000Z</time>
      </trkpt>
      <trkpt lat="43.96695" lon="5.08399">
        <ele>220.19999694824</ele>
        <time>2012-04-03T17:50:52.000Z</time>
      </trkpt>
      <trkpt lat="43.96678" lon="5.08401">
        <ele>219.60000610352</ele>
        <time>2012-04-03T17:50:58.000Z</time>
      </trkpt>
      <trkpt lat="43.96665" lon="5.08396">
        <ele>219.39999389648</ele>
        <time>2012-04-03T17:51:03.000Z</time>
      </trkpt>
      <trkpt lat="43.9665" lon="5.08386">
        <ele>219.19999694824</ele>
        <time>2012-04-03T17:51:08.000Z</time>
      </trkpt>
      <trkpt lat="43.96638" lon="5.08378">
        <ele>219</ele>
        <time>2012-04-03T17:51:13.000Z</time>
      </trkpt>
      <trkpt lat="43.96627" lon="5.08367">
        <ele>218.60000610352</ele>
        <time>2012-04-03T17:51:18.000Z</time>
      </trkpt>
      <trkpt lat="43.96612" lon="5.08361">
        <ele>218.19999694824</ele>
        <time>2012-04-03T17:51:25.000Z</time>
      </trkpt>
      <trkpt lat="43.96597" lon="5.08359">
        <ele>217.60000610352</ele>
        <time>2012-04-03T17:51:30.000Z</time>
      </trkpt>
      <trkpt lat="43.96582" lon="5.08357">
        <ele>217</ele>
        <time>2012-04-03T17:51:35.000Z</time>
      </trkpt>
      <trkpt lat="43.96569" lon="5.08358">
        <ele>216.60000610352</ele>
        <time>2012-04-03T17:51:40.000Z</time>
      </trkpt>
      <trkpt lat="43.96559" lon="5.08355">
        <ele>216.19999694824</ele>
        <time>2012-04-03T17:51:44.000Z</time>
      </trkpt>
      <trkpt lat="43.96545" lon="5.08351">
        <ele>215.60000610352</ele>
        <time>2012-04-03T17:51:50.000Z</time>
      </trkpt>
      <trkpt lat="43.96542" lon="5.0835">
        <ele>215.60000610352</ele>
        <time>2012-04-03T17:51:51.000Z</time>
      </trkpt>
      <trkpt lat="43.96529" lon="5.08344">
        <ele>214.80000305176</ele>
        <time>2012-04-03T17:51:56.000Z</time>
      </trkpt>
      <trkpt lat="43.96519" lon="5.0833">
        <ele>214</ele>
        <time>2012-04-03T17:52:01.000Z</time>
      </trkpt>
      <trkpt lat="43.9651" lon="5.08322">
        <ele>213.39999389648</ele>
        <time>2012-04-03T17:52:05.000Z</time>
      </trkpt>
      <trkpt lat="43.96504" lon="5.08321">
        <ele>213.19999694824</ele>
        <time>2012-04-03T17:52:07.000Z</time>
      </trkpt>
      <trkpt lat="43.96496" lon="5.08317">
        <ele>212.80000305176</ele>
        <time>2012-04-03T17:52:10.000Z</time>
      </trkpt>
      <trkpt lat="43.96487" lon="5.08306">
        <ele>212.60000610352</ele>
        <time>2012-04-03T17:52:14.000Z</time>
      </trkpt>
      <trkpt lat="43.96478" lon="5.08289">
        <ele>211.60000610352</ele>
        <time>2012-04-03T17:52:19.000Z</time>
      </trkpt>
      <trkpt lat="43.96469" lon="5.08278">
        <ele>210.39999389648</ele>
        <time>2012-04-03T17:52:24.000Z</time>
      </trkpt>
      <trkpt lat="43.9646" lon="5.08259">
        <ele>208.39999389648</ele>
        <time>2012-04-03T17:52:30.000Z</time>
      </trkpt>
      <trkpt lat="43.96461" lon="5.08247">
        <ele>208</ele>
        <time>2012-04-03T17:52:35.000Z</time>
      </trkpt>
      <trkpt lat="43.96461" lon="5.08237">
        <ele>208.60000610352</ele>
        <time>2012-04-03T17:52:43.000Z</time>
      </trkpt>
      <trkpt lat="43.96462" lon="5.08234">
        <ele>208.80000305176</ele>
        <time>2012-04-03T17:52:45.000Z</time>
      </trkpt>
      <trkpt lat="43.96463" lon="5.0823">
        <ele>209.19999694824</ele>
        <time>2012-04-03T17:52:49.000Z</time>
      </trkpt>
      <trkpt lat="43.96464" lon="5.08229">
        <ele>209.39999389648</ele>
        <time>2012-04-03T17:52:50.000Z</time>
      </trkpt>
      <trkpt lat="43.96467" lon="5.08223">
        <ele>210</ele>
        <time>2012-04-03T17:52:55.000Z</time>
      </trkpt>
      <trkpt lat="43.96469" lon="5.08221">
        <ele>210.39999389648</ele>
        <time>2012-04-03T17:52:58.000Z</time>
      </trkpt>
      <trkpt lat="43.96471" lon="5.08217">
        <ele>210.80000305176</ele>
        <time>2012-04-03T17:53:02.000Z</time>
      </trkpt>
      <trkpt lat="43.96473" lon="5.08212">
        <ele>211.19999694824</ele>
        <time>2012-04-03T17:53:06.000Z</time>
      </trkpt>
      <trkpt lat="43.96474" lon="5.0821">
        <ele>211.39999389648</ele>
        <time>2012-04-03T17:53:08.000Z</time>
      </trkpt>
      <trkpt lat="43.96477" lon="5.08203">
        <ele>212</ele>
        <time>2012-04-03T17:53:13.000Z</time>
      </trkpt>
      <trkpt lat="43.96483" lon="5.08193">
        <ele>213</ele>
        <time>2012-04-03T17:53:21.000Z</time>
      </trkpt>
      <trkpt lat="43.96487" lon="5.08183">
        <ele>213.60000610352</ele>
        <time>2012-04-03T17:53:26.000Z</time>
      </trkpt>
      <trkpt lat="43.96493" lon="5.08173">
        <ele>214.39999389648</ele>
        <time>2012-04-03T17:53:30.000Z</time>
      </trkpt>
      <trkpt lat="43.96499" lon="5.08154">
        <ele>215.39999389648</ele>
        <time>2012-04-03T17:53:36.000Z</time>
      </trkpt>
      <trkpt lat="43.96502" lon="5.08137">
        <ele>216.19999694824</ele>
        <time>2012-04-03T17:53:41.000Z</time>
      </trkpt>
      <trkpt lat="43.96504" lon="5.08124">
        <ele>216.80000305176</ele>
        <time>2012-04-03T17:53:45.000Z</time>
      </trkpt>
      <trkpt lat="43.96504" lon="5.08124">
        <ele>216.80000305176</ele>
        <time>2012-04-03T17:53:46.000Z</time>
      </trkpt>
      <trkpt lat="43.96509" lon="5.08127">
        <ele>217</ele>
        <time>2012-04-03T17:53:49.000Z</time>
      </trkpt>
      <trkpt lat="43.96512" lon="5.08128">
        <ele>217.19999694824</ele>
        <time>2012-04-03T17:53:50.000Z</time>
      </trkpt>
      <trkpt lat="43.96518" lon="5.0813">
        <ele>217.39999389648</ele>
        <time>2012-04-03T17:53:53.000Z</time>
      </trkpt>
      <trkpt lat="43.96523" lon="5.08135">
        <ele>217.60000610352</ele>
        <time>2012-04-03T17:53:56.000Z</time>
      </trkpt>
      <trkpt lat="43.96527" lon="5.08139">
        <ele>217.80000305176</ele>
        <time>2012-04-03T17:53:58.000Z</time>
      </trkpt>
      <trkpt lat="43.96536" lon="5.08149">
        <ele>218.19999694824</ele>
        <time>2012-04-03T17:54:02.000Z</time>
      </trkpt>
      <trkpt lat="43.96543" lon="5.08166">
        <ele>218.60000610352</ele>
        <time>2012-04-03T17:54:07.000Z</time>
      </trkpt>
      <trkpt lat="43.96551" lon="5.08179">
        <ele>219.19999694824</ele>
        <time>2012-04-03T17:54:13.000Z</time>
      </trkpt>
      <trkpt lat="43.96559" lon="5.08189">
        <ele>220</ele>
        <time>2012-04-03T17:54:18.000Z</time>
      </trkpt>
      <trkpt lat="43.9657" lon="5.08196">
        <ele>221</ele>
        <time>2012-04-03T17:54:24.000Z</time>
      </trkpt>
      <trkpt lat="43.96573" lon="5.08195">
        <ele>221.19999694824</ele>
        <time>2012-04-03T17:54:25.000Z</time>
      </trkpt>
      <trkpt lat="43.9658" lon="5.08192">
        <ele>222</ele>
        <time>2012-04-03T17:54:28.000Z</time>
      </trkpt>
      <trkpt lat="43.96597" lon="5.0819">
        <ele>222.60000610352</ele>
        <time>2012-04-03T17:54:35.000Z</time>
      </trkpt>
      <trkpt lat="43.96608" lon="5.08195">
        <ele>222.80000305176</ele>
        <time>2012-04-03T17:54:40.000Z</time>
      </trkpt>
      <trkpt lat="43.96619" lon="5.08204">
        <ele>223.19999694824</ele>
        <time>2012-04-03T17:54:46.000Z</time>
      </trkpt>
      <trkpt lat="43.96621" lon="5.08206">
        <ele>223.19999694824</ele>
        <time>2012-04-03T17:54:48.000Z</time>
      </trkpt>
      <trkpt lat="43.96624" lon="5.08209">
        <ele>223.19999694824</ele>
        <time>2012-04-03T17:54:51.000Z</time>
      </trkpt>
      <trkpt lat="43.96624" lon="5.08211">
        <ele>223.19999694824</ele>
        <time>2012-04-03T17:54:52.000Z</time>
      </trkpt>
      <trkpt lat="43.96629" lon="5.08217">
        <ele>223.39999389648</ele>
        <time>2012-04-03T17:54:56.000Z</time>
      </trkpt>
      <trkpt lat="43.9663" lon="5.08221">
        <ele>223.39999389648</ele>
        <time>2012-04-03T17:54:59.000Z</time>
      </trkpt>
      <trkpt lat="43.9663" lon="5.08222">
        <ele>223.39999389648</ele>
        <time>2012-04-03T17:55:01.000Z</time>
      </trkpt>
      <trkpt lat="43.96633" lon="5.08229">
        <ele>223.39999389648</ele>
        <time>2012-04-03T17:55:06.000Z</time>
      </trkpt>
      <trkpt lat="43.96628" lon="5.08236">
        <ele>223.39999389648</ele>
        <time>2012-04-03T17:55:11.000Z</time>
      </trkpt>
      <trkpt lat="43.96628" lon="5.08247">
        <ele>223.60000610352</ele>
        <time>2012-04-03T17:55:15.000Z</time>
      </trkpt>
      <trkpt lat="43.96631" lon="5.08257">
        <ele>223.19999694824</ele>
        <time>2012-04-03T17:55:18.000Z</time>
      </trkpt>
      <trkpt lat="43.96633" lon="5.08264">
        <ele>222.80000305176</ele>
        <time>2012-04-03T17:55:20.000Z</time>
      </trkpt>
      <trkpt lat="43.96637" lon="5.08275">
        <ele>222.39999389648</ele>
        <time>2012-04-03T17:55:24.000Z</time>
      </trkpt>
      <trkpt lat="43.96638" lon="5.0828">
        <ele>222.19999694824</ele>
        <time>2012-04-03T17:55:27.000Z</time>
      </trkpt>
      <trkpt lat="43.96639" lon="5.08281">
        <ele>222.19999694824</ele>
        <time>2012-04-03T17:55:29.000Z</time>
      </trkpt>
      <trkpt lat="43.9664" lon="5.08282">
        <ele>222.19999694824</ele>
        <time>2012-04-03T17:55:31.000Z</time>
      </trkpt>
      <trkpt lat="43.96643" lon="5.0828">
        <ele>222.39999389648</ele>
        <time>2012-04-03T17:55:34.000Z</time>
      </trkpt>
      <trkpt lat="43.96651" lon="5.08273">
        <ele>222.80000305176</ele>
        <time>2012-04-03T17:55:40.000Z</time>
      </trkpt>
      <trkpt lat="43.96664" lon="5.08264">
        <ele>223.39999389648</ele>
        <time>2012-04-03T17:55:46.000Z</time>
      </trkpt>
      <trkpt lat="43.96676" lon="5.08255">
        <ele>224</ele>
        <time>2012-04-03T17:55:52.000Z</time>
      </trkpt>
      <trkpt lat="43.9668" lon="5.08257">
        <ele>224</ele>
        <time>2012-04-03T17:55:54.000Z</time>
      </trkpt>
      <trkpt lat="43.96681" lon="5.08259">
        <ele>224</ele>
        <time>2012-04-03T17:55:56.000Z</time>
      </trkpt>
      <trkpt lat="43.96683" lon="5.08267">
        <ele>223.80000305176</ele>
        <time>2012-04-03T17:56:01.000Z</time>
      </trkpt>
      <trkpt lat="43.96683" lon="5.08269">
        <ele>223.80000305176</ele>
        <time>2012-04-03T17:56:02.000Z</time>
      </trkpt>
      <trkpt lat="43.96687" lon="5.08282">
        <ele>223.60000610352</ele>
        <time>2012-04-03T17:56:07.000Z</time>
      </trkpt>
      <trkpt lat="43.96697" lon="5.08294">
        <ele>223.60000610352</ele>
        <time>2012-04-03T17:56:12.000Z</time>
      </trkpt>
      <trkpt lat="43.96708" lon="5.08304">
        <ele>223.80000305176</ele>
        <time>2012-04-03T17:56:17.000Z</time>
      </trkpt>
      <trkpt lat="43.96721" lon="5.08316">
        <ele>224</ele>
        <time>2012-04-03T17:56:22.000Z</time>
      </trkpt>
      <trkpt lat="43.96736" lon="5.08328">
        <ele>224.39999389648</ele>
        <time>2012-04-03T17:56:27.000Z</time>
      </trkpt>
      <trkpt lat="43.96751" lon="5.08345">
        <ele>224.39999389648</ele>
        <time>2012-04-03T17:56:33.000Z</time>
      </trkpt>
      <trkpt lat="43.96766" lon="5.08364">
        <ele>225</ele>
        <time>2012-04-03T17:56:39.000Z</time>
      </trkpt>
      <trkpt lat="43.96771" lon="5.08371">
        <ele>225.19999694824</ele>
        <time>2012-04-03T17:56:44.000Z</time>
      </trkpt>
      <trkpt lat="43.96771" lon="5.08376">
        <ele>224.80000305176</ele>
        <time>2012-04-03T17:56:48.000Z</time>
      </trkpt>
      <trkpt lat="43.9677" lon="5.08376">
        <ele>224.80000305176</ele>
        <time>2012-04-03T17:56:49.000Z</time>
      </trkpt>
      <trkpt lat="43.96771" lon="5.08377">
        <ele>224.80000305176</ele>
        <time>2012-04-03T17:56:50.000Z</time>
      </trkpt>
      <trkpt lat="43.96769" lon="5.08378">
        <ele>224.60000610352</ele>
        <time>2012-04-03T17:56:52.000Z</time>
      </trkpt>
      <trkpt lat="43.96768" lon="5.08379">
        <ele>224.39999389648</ele>
        <time>2012-04-03T17:56:56.000Z</time>
      </trkpt>
      <trkpt lat="43.96768" lon="5.08379">
        <ele>224.39999389648</ele>
        <time>2012-04-03T17:58:09.000Z</time>
      </trkpt>
      <trkpt lat="43.96775" lon="5.08375">
        <ele>225.19999694824</ele>
        <time>2012-04-03T17:58:28.000Z</time>
      </trkpt>
      <trkpt lat="43.96778" lon="5.08371">
        <ele>225.80000305176</ele>
        <time>2012-04-03T17:58:33.000Z</time>
      </trkpt>
      <trkpt lat="43.9678" lon="5.08366">
        <ele>226.19999694824</ele>
        <time>2012-04-03T17:58:39.000Z</time>
      </trkpt>
      <trkpt lat="43.96782" lon="5.08358">
        <ele>227</ele>
        <time>2012-04-03T17:58:48.000Z</time>
      </trkpt>
      <trkpt lat="43.96783" lon="5.08354">
        <ele>227.19999694824</ele>
        <time>2012-04-03T17:58:55.000Z</time>
      </trkpt>
      <trkpt lat="43.96783" lon="5.08349">
        <ele>227.60000610352</ele>
        <time>2012-04-03T17:59:01.000Z</time>
      </trkpt>
      <trkpt lat="43.96786" lon="5.08347">
        <ele>228</ele>
        <time>2012-04-03T17:59:07.000Z</time>
      </trkpt>
      <trkpt lat="43.96787" lon="5.08345">
        <ele>228.19999694824</ele>
        <time>2012-04-03T17:59:09.000Z</time>
      </trkpt>
      <trkpt lat="43.96789" lon="5.08343">
        <ele>228.60000610352</ele>
        <time>2012-04-03T17:59:13.000Z</time>
      </trkpt>
      <trkpt lat="43.96789" lon="5.08341">
        <ele>228.80000305176</ele>
        <time>2012-04-03T17:59:18.000Z</time>
      </trkpt>
      <trkpt lat="43.96792" lon="5.0834">
        <ele>229.19999694824</ele>
        <time>2012-04-03T17:59:23.000Z</time>
      </trkpt>
      <trkpt lat="43.96791" lon="5.08339">
        <ele>229</ele>
        <time>2012-04-03T17:59:31.000Z</time>
      </trkpt>
      <trkpt lat="43.96789" lon="5.08335">
        <ele>229.19999694824</ele>
        <time>2012-04-03T17:59:39.000Z</time>
      </trkpt>
      <trkpt lat="43.96787" lon="5.08331">
        <ele>229</ele>
        <time>2012-04-03T17:59:44.000Z</time>
      </trkpt>
      <trkpt lat="43.96789" lon="5.08325">
        <ele>229.39999389648</ele>
        <time>2012-04-03T17:59:50.000Z</time>
      </trkpt>
      <trkpt lat="43.96789" lon="5.08312">
        <ele>229.80000305176</ele>
        <time>2012-04-03T17:59:59.000Z</time>
      </trkpt>
      <trkpt lat="43.96788" lon="5.08306">
        <ele>229.80000305176</ele>
        <time>2012-04-03T18:00:02.000Z</time>
      </trkpt>
      <trkpt lat="43.96788" lon="5.08303">
        <ele>230</ele>
        <time>2012-04-03T18:00:04.000Z</time>
      </trkpt>
      <trkpt lat="43.96783" lon="5.08295">
        <ele>229.60000610352</ele>
        <time>2012-04-03T18:00:09.000Z</time>
      </trkpt>
      <trkpt lat="43.96777" lon="5.08288">
        <ele>229</ele>
        <time>2012-04-03T18:00:13.000Z</time>
      </trkpt>
      <trkpt lat="43.96773" lon="5.08283">
        <ele>228.60000610352</ele>
        <time>2012-04-03T18:00:16.000Z</time>
      </trkpt>
      <trkpt lat="43.96773" lon="5.08282">
        <ele>228.60000610352</ele>
        <time>2012-04-03T18:00:17.000Z</time>
      </trkpt>
      <trkpt lat="43.96772" lon="5.08281">
        <ele>228.60000610352</ele>
        <time>2012-04-03T18:00:19.000Z</time>
      </trkpt>
      <trkpt lat="43.9677" lon="5.0828">
        <ele>228.19999694824</ele>
        <time>2012-04-03T18:00:21.000Z</time>
      </trkpt>
      <trkpt lat="43.96771" lon="5.08275">
        <ele>228.60000610352</ele>
        <time>2012-04-03T18:00:23.000Z</time>
      </trkpt>
      <trkpt lat="43.96773" lon="5.08271">
        <ele>229</ele>
        <time>2012-04-03T18:00:24.000Z</time>
      </trkpt>
      <trkpt lat="43.96783" lon="5.08251">
        <ele>230.80000305176</ele>
        <time>2012-04-03T18:00:30.000Z</time>
      </trkpt>
      <trkpt lat="43.96783" lon="5.08233">
        <ele>230.19999694824</ele>
        <time>2012-04-03T18:00:34.000Z</time>
      </trkpt>
      <trkpt lat="43.96783" lon="5.08229">
        <ele>230</ele>
        <time>2012-04-03T18:00:35.000Z</time>
      </trkpt>
      <trkpt lat="43.9679" lon="5.0821">
        <ele>230.19999694824</ele>
        <time>2012-04-03T18:00:40.000Z</time>
      </trkpt>
      <trkpt lat="43.96806" lon="5.08196">
        <ele>231.19999694824</ele>
        <time>2012-04-03T18:00:46.000Z</time>
      </trkpt>
      <trkpt lat="43.96819" lon="5.08185">
        <ele>232</ele>
        <time>2012-04-03T18:00:51.000Z</time>
      </trkpt>
      <trkpt lat="43.9682" lon="5.08181">
        <ele>231.80000305176</ele>
        <time>2012-04-03T18:00:52.000Z</time>
      </trkpt>
      <trkpt lat="43.96822" lon="5.08171">
        <ele>231.39999389648</ele>
        <time>2012-04-03T18:00:55.000Z</time>
      </trkpt>
      <trkpt lat="43.96826" lon="5.08152">
        <ele>231.19999694824</ele>
        <time>2012-04-03T18:01:00.000Z</time>
      </trkpt>
      <trkpt lat="43.96833" lon="5.08135">
        <ele>231.60000610352</ele>
        <time>2012-04-03T18:01:05.000Z</time>
      </trkpt>
      <trkpt lat="43.96835" lon="5.08127">
        <ele>231.80000305176</ele>
        <time>2012-04-03T18:01:08.000Z</time>
      </trkpt>
      <trkpt lat="43.96834" lon="5.08121">
        <ele>231.60000610352</ele>
        <time>2012-04-03T18:01:10.000Z</time>
      </trkpt>
      <trkpt lat="43.9683" lon="5.0811">
        <ele>231</ele>
        <time>2012-04-03T18:01:14.000Z</time>
      </trkpt>
      <trkpt lat="43.9682" lon="5.08096">
        <ele>230.19999694824</ele>
        <time>2012-04-03T18:01:19.000Z</time>
      </trkpt>
      <trkpt lat="43.96813" lon="5.08076">
        <ele>229.39999389648</ele>
        <time>2012-04-03T18:01:25.000Z</time>
      </trkpt>
      <trkpt lat="43.96814" lon="5.08057">
        <ele>229.39999389648</ele>
        <time>2012-04-03T18:01:30.000Z</time>
      </trkpt>
      <trkpt lat="43.96818" lon="5.08039">
        <ele>229.39999389648</ele>
        <time>2012-04-03T18:01:35.000Z</time>
      </trkpt>
      <trkpt lat="43.96824" lon="5.08022">
        <ele>229.60000610352</ele>
        <time>2012-04-03T18:01:40.000Z</time>
      </trkpt>
      <trkpt lat="43.96834" lon="5.08">
        <ele>230</ele>
        <time>2012-04-03T18:01:47.000Z</time>
      </trkpt>
      <trkpt lat="43.96845" lon="5.07992">
        <ele>229</ele>
        <time>2012-04-03T18:01:52.000Z</time>
      </trkpt>
      <trkpt lat="43.96859" lon="5.07992">
        <ele>229.39999389648</ele>
        <time>2012-04-03T18:01:57.000Z</time>
      </trkpt>
      <trkpt lat="43.96869" lon="5.07998">
        <ele>230.60000610352</ele>
        <time>2012-04-03T18:02:02.000Z</time>
      </trkpt>
      <trkpt lat="43.96887" lon="5.08005">
        <ele>231.60000610352</ele>
        <time>2012-04-03T18:02:08.000Z</time>
      </trkpt>
      <trkpt lat="43.969" lon="5.07997">
        <ele>231.19999694824</ele>
        <time>2012-04-03T18:02:13.000Z</time>
      </trkpt>
      <trkpt lat="43.96914" lon="5.07986">
        <ele>230</ele>
        <time>2012-04-03T18:02:19.000Z</time>
      </trkpt>
      <trkpt lat="43.96927" lon="5.0798">
        <ele>228.19999694824</ele>
        <time>2012-04-03T18:02:24.000Z</time>
      </trkpt>
      <trkpt lat="43.9694" lon="5.07977">
        <ele>226.60000610352</ele>
        <time>2012-04-03T18:02:29.000Z</time>
      </trkpt>
      <trkpt lat="43.96952" lon="5.07981">
        <ele>226</ele>
        <time>2012-04-03T18:02:33.000Z</time>
      </trkpt>
      <trkpt lat="43.96965" lon="5.07979">
        <ele>224.60000610352</ele>
        <time>2012-04-03T18:02:39.000Z</time>
      </trkpt>
      <trkpt lat="43.96967" lon="5.0798">
        <ele>224.60000610352</ele>
        <time>2012-04-03T18:02:40.000Z</time>
      </trkpt>
      <trkpt lat="43.96973" lon="5.07985">
        <ele>224.19999694824</ele>
        <time>2012-04-03T18:02:43.000Z</time>
      </trkpt>
      <trkpt lat="43.96979" lon="5.07989">
        <ele>223.60000610352</ele>
        <time>2012-04-03T18:02:48.000Z</time>
      </trkpt>
      <trkpt lat="43.96983" lon="5.07993">
        <ele>223.19999694824</ele>
        <time>2012-04-03T18:02:54.000Z</time>
      </trkpt>
      <trkpt lat="43.96984" lon="5.08006">
        <ele>223.39999389648</ele>
        <time>2012-04-03T18:03:00.000Z</time>
      </trkpt>
      <trkpt lat="43.96986" lon="5.08019">
        <ele>224</ele>
        <time>2012-04-03T18:03:04.000Z</time>
      </trkpt>
      <trkpt lat="43.96987" lon="5.08025">
        <ele>224.39999389648</ele>
        <time>2012-04-03T18:03:06.000Z</time>
      </trkpt>
      <trkpt lat="43.96994" lon="5.08041">
        <ele>224.39999389648</ele>
        <time>2012-04-03T18:03:11.000Z</time>
      </trkpt>
      <trkpt lat="43.96998" lon="5.08055">
        <ele>224.60000610352</ele>
        <time>2012-04-03T18:03:15.000Z</time>
      </trkpt>
      <trkpt lat="43.96998" lon="5.08058">
        <ele>224.80000305176</ele>
        <time>2012-04-03T18:03:16.000Z</time>
      </trkpt>
      <trkpt lat="43.96999" lon="5.08068">
        <ele>225.39999389648</ele>
        <time>2012-04-03T18:03:19.000Z</time>
      </trkpt>
      <trkpt lat="43.97001" lon="5.08084">
        <ele>225.80000305176</ele>
        <time>2012-04-03T18:03:24.000Z</time>
      </trkpt>
      <trkpt lat="43.97007" lon="5.08097">
        <ele>226.39999389648</ele>
        <time>2012-04-03T18:03:28.000Z</time>
      </trkpt>
      <trkpt lat="43.97008" lon="5.081">
        <ele>226.39999389648</ele>
        <time>2012-04-03T18:03:29.000Z</time>
      </trkpt>
      <trkpt lat="43.97013" lon="5.08109">
        <ele>226.60000610352</ele>
        <time>2012-04-03T18:03:32.000Z</time>
      </trkpt>
      <trkpt lat="43.97016" lon="5.0811">
        <ele>226</ele>
        <time>2012-04-03T18:03:33.000Z</time>
      </trkpt>
      <trkpt lat="43.97026" lon="5.08116">
        <ele>224.39999389648</ele>
        <time>2012-04-03T18:03:37.000Z</time>
      </trkpt>
      <trkpt lat="43.97029" lon="5.08117">
        <ele>224</ele>
        <time>2012-04-03T18:03:38.000Z</time>
      </trkpt>
      <trkpt lat="43.97037" lon="5.08122">
        <ele>222.80000305176</ele>
        <time>2012-04-03T18:03:41.000Z</time>
      </trkpt>
      <trkpt lat="43.97043" lon="5.08132">
        <ele>222.60000610352</ele>
        <time>2012-04-03T18:03:45.000Z</time>
      </trkpt>
      <trkpt lat="43.9705" lon="5.08149">
        <ele>223.39999389648</ele>
        <time>2012-04-03T18:03:50.000Z</time>
      </trkpt>
      <trkpt lat="43.97058" lon="5.08155">
        <ele>222.60000610352</ele>
        <time>2012-04-03T18:03:54.000Z</time>
      </trkpt>
      <trkpt lat="43.97068" lon="5.08162">
        <ele>221</ele>
        <time>2012-04-03T18:03:59.000Z</time>
      </trkpt>
      <trkpt lat="43.97076" lon="5.08167">
        <ele>220</ele>
        <time>2012-04-03T18:04:03.000Z</time>
      </trkpt>
      <trkpt lat="43.97077" lon="5.0817">
        <ele>220</ele>
        <time>2012-04-03T18:04:07.000Z</time>
      </trkpt>
      <trkpt lat="43.97079" lon="5.08173">
        <ele>220</ele>
        <time>2012-04-03T18:04:10.000Z</time>
      </trkpt>
      <trkpt lat="43.97083" lon="5.08175">
        <ele>219.60000610352</ele>
        <time>2012-04-03T18:04:13.000Z</time>
      </trkpt>
      <trkpt lat="43.97084" lon="5.0818">
        <ele>219.80000305176</ele>
        <time>2012-04-03T18:04:16.000Z</time>
      </trkpt>
      <trkpt lat="43.97087" lon="5.08186">
        <ele>220</ele>
        <time>2012-04-03T18:04:20.000Z</time>
      </trkpt>
      <trkpt lat="43.97088" lon="5.08188">
        <ele>220</ele>
        <time>2012-04-03T18:04:21.000Z</time>
      </trkpt>
      <trkpt lat="43.97095" lon="5.08195">
        <ele>218.80000305176</ele>
        <time>2012-04-03T18:04:26.000Z</time>
      </trkpt>
      <trkpt lat="43.97102" lon="5.08211">
        <ele>219</ele>
        <time>2012-04-03T18:04:32.000Z</time>
      </trkpt>
      <trkpt lat="43.97103" lon="5.08213">
        <ele>219</ele>
        <time>2012-04-03T18:04:33.000Z</time>
      </trkpt>
      <trkpt lat="43.97106" lon="5.08226">
        <ele>220.19999694824</ele>
        <time>2012-04-03T18:04:37.000Z</time>
      </trkpt>
      <trkpt lat="43.97106" lon="5.08229">
        <ele>220.39999389648</ele>
        <time>2012-04-03T18:04:38.000Z</time>
      </trkpt>
      <trkpt lat="43.97105" lon="5.08237">
        <ele>222</ele>
        <time>2012-04-03T18:04:41.000Z</time>
      </trkpt>
      <trkpt lat="43.97107" lon="5.08242">
        <ele>222.19999694824</ele>
        <time>2012-04-03T18:04:43.000Z</time>
      </trkpt>
      <trkpt lat="43.97109" lon="5.08252">
        <ele>223</ele>
        <time>2012-04-03T18:04:46.000Z</time>
      </trkpt>
      <trkpt lat="43.97114" lon="5.08266">
        <ele>224</ele>
        <time>2012-04-03T18:04:50.000Z</time>
      </trkpt>
      <trkpt lat="43.97121" lon="5.08278">
        <ele>224</ele>
        <time>2012-04-03T18:04:54.000Z</time>
      </trkpt>
      <trkpt lat="43.97123" lon="5.08279">
        <ele>223.80000305176</ele>
        <time>2012-04-03T18:04:55.000Z</time>
      </trkpt>
      <trkpt lat="43.97132" lon="5.08288">
        <ele>223</ele>
        <time>2012-04-03T18:05:00.000Z</time>
      </trkpt>
      <trkpt lat="43.97136" lon="5.08293">
        <ele>222.60000610352</ele>
        <time>2012-04-03T18:05:03.000Z</time>
      </trkpt>
      <trkpt lat="43.97142" lon="5.08293">
        <ele>221</ele>
        <time>2012-04-03T18:05:06.000Z</time>
      </trkpt>
      <trkpt lat="43.97152" lon="5.08292">
        <ele>217.80000305176</ele>
        <time>2012-04-03T18:05:10.000Z</time>
      </trkpt>
      <trkpt lat="43.97162" lon="5.08291">
        <ele>214.60000610352</ele>
        <time>2012-04-03T18:05:14.000Z</time>
      </trkpt>
      <trkpt lat="43.97166" lon="5.08294">
        <ele>214.39999389648</ele>
        <time>2012-04-03T18:05:16.000Z</time>
      </trkpt>
      <trkpt lat="43.9717" lon="5.08303">
        <ele>215.39999389648</ele>
        <time>2012-04-03T18:05:19.000Z</time>
      </trkpt>
      <trkpt lat="43.97171" lon="5.08306">
        <ele>215.80000305176</ele>
        <time>2012-04-03T18:05:20.000Z</time>
      </trkpt>
      <trkpt lat="43.97177" lon="5.08315">
        <ele>216.39999389648</ele>
        <time>2012-04-03T18:05:24.000Z</time>
      </trkpt>
      <trkpt lat="43.9718" lon="5.08319">
        <ele>216.60000610352</ele>
        <time>2012-04-03T18:05:26.000Z</time>
      </trkpt>
      <trkpt lat="43.97181" lon="5.0832">
        <ele>216.60000610352</ele>
        <time>2012-04-03T18:05:27.000Z</time>
      </trkpt>
      <trkpt lat="43.97185" lon="5.08319">
        <ele>215.60000610352</ele>
        <time>2012-04-03T18:05:29.000Z</time>
      </trkpt>
      <trkpt lat="43.97198" lon="5.08319">
        <ele>212.60000610352</ele>
        <time>2012-04-03T18:05:33.000Z</time>
      </trkpt>
      <trkpt lat="43.97207" lon="5.0832">
        <ele>210.60000610352</ele>
        <time>2012-04-03T18:05:37.000Z</time>
      </trkpt>
      <trkpt lat="43.9721" lon="5.08317">
        <ele>209.39999389648</ele>
        <time>2012-04-03T18:05:39.000Z</time>
      </trkpt>
      <trkpt lat="43.97213" lon="5.08312">
        <ele>207.60000610352</ele>
        <time>2012-04-03T18:05:41.000Z</time>
      </trkpt>
      <trkpt lat="43.97221" lon="5.08308">
        <ele>205.19999694824</ele>
        <time>2012-04-03T18:05:45.000Z</time>
      </trkpt>
      <trkpt lat="43.97226" lon="5.08307">
        <ele>203.80000305176</ele>
        <time>2012-04-03T18:05:48.000Z</time>
      </trkpt>
      <trkpt lat="43.97229" lon="5.08305">
        <ele>202.80000305176</ele>
        <time>2012-04-03T18:05:51.000Z</time>
      </trkpt>
      <trkpt lat="43.97232" lon="5.08305">
        <ele>202.19999694824</ele>
        <time>2012-04-03T18:05:52.000Z</time>
      </trkpt>
      <trkpt lat="43.9724" lon="5.08309">
        <ele>201.19999694824</ele>
        <time>2012-04-03T18:05:55.000Z</time>
      </trkpt>
      <trkpt lat="43.97251" lon="5.08309">
        <ele>198.60000610352</ele>
        <time>2012-04-03T18:06:00.000Z</time>
      </trkpt>
      <trkpt lat="43.97263" lon="5.08306">
        <ele>195.80000305176</ele>
        <time>2012-04-03T18:06:04.000Z</time>
      </trkpt>
      <trkpt lat="43.97272" lon="5.08315">
        <ele>195.19999694824</ele>
        <time>2012-04-03T18:06:08.000Z</time>
      </trkpt>
      <trkpt lat="43.97277" lon="5.08325">
        <ele>195.80000305176</ele>
        <time>2012-04-03T18:06:11.000Z</time>
      </trkpt>
      <trkpt lat="43.97276" lon="5.08332">
        <ele>197.19999694824</ele>
        <time>2012-04-03T18:06:13.000Z</time>
      </trkpt>
      <trkpt lat="43.97279" lon="5.08343">
        <ele>198.39999389648</ele>
        <time>2012-04-03T18:06:17.000Z</time>
      </trkpt>
      <trkpt lat="43.97287" lon="5.08353">
        <ele>198.39999389648</ele>
        <time>2012-04-03T18:06:21.000Z</time>
      </trkpt>
      <trkpt lat="43.97291" lon="5.08361">
        <ele>199</ele>
        <time>2012-04-03T18:06:24.000Z</time>
      </trkpt>
      <trkpt lat="43.97295" lon="5.08367">
        <ele>199.19999694824</ele>
        <time>2012-04-03T18:06:26.000Z</time>
      </trkpt>
      <trkpt lat="43.97302" lon="5.08379">
        <ele>199.80000305176</ele>
        <time>2012-04-03T18:06:31.000Z</time>
      </trkpt>
      <trkpt lat="43.97304" lon="5.08383">
        <ele>200</ele>
        <time>2012-04-03T18:06:33.000Z</time>
      </trkpt>
      <trkpt lat="43.97309" lon="5.08386">
        <ele>199.60000610352</ele>
        <time>2012-04-03T18:06:35.000Z</time>
      </trkpt>
      <trkpt lat="43.97319" lon="5.08391">
        <ele>198.39999389648</ele>
        <time>2012-04-03T18:06:39.000Z</time>
      </trkpt>
      <trkpt lat="43.97335" lon="5.08389">
        <ele>194.80000305176</ele>
        <time>2012-04-03T18:06:44.000Z</time>
      </trkpt>
      <trkpt lat="43.97349" lon="5.08394">
        <ele>193.60000610352</ele>
        <time>2012-04-03T18:06:49.000Z</time>
      </trkpt>
      <trkpt lat="43.97356" lon="5.08397">
        <ele>193</ele>
        <time>2012-04-03T18:06:52.000Z</time>
      </trkpt>
      <trkpt lat="43.97357" lon="5.08399">
        <ele>193.19999694824</ele>
        <time>2012-04-03T18:06:53.000Z</time>
      </trkpt>
      <trkpt lat="43.97365" lon="5.08409">
        <ele>193.60000610352</ele>
        <time>2012-04-03T18:06:57.000Z</time>
      </trkpt>
      <trkpt lat="43.97367" lon="5.0841">
        <ele>193.60000610352</ele>
        <time>2012-04-03T18:06:58.000Z</time>
      </trkpt>
      <trkpt lat="43.97374" lon="5.08419">
        <ele>194.19999694824</ele>
        <time>2012-04-03T18:07:02.000Z</time>
      </trkpt>
      <trkpt lat="43.97384" lon="5.08429">
        <ele>194.60000610352</ele>
        <time>2012-04-03T18:07:07.000Z</time>
      </trkpt>
      <trkpt lat="43.97391" lon="5.08447">
        <ele>196.80000305176</ele>
        <time>2012-04-03T18:07:11.000Z</time>
      </trkpt>
      <trkpt lat="43.97393" lon="5.08451">
        <ele>197.19999694824</ele>
        <time>2012-04-03T18:07:13.000Z</time>
      </trkpt>
      <trkpt lat="43.97394" lon="5.08453">
        <ele>197.39999389648</ele>
        <time>2012-04-03T18:07:14.000Z</time>
      </trkpt>
      <trkpt lat="43.97395" lon="5.08458">
        <ele>198</ele>
        <time>2012-04-03T18:07:17.000Z</time>
      </trkpt>
      <trkpt lat="43.97397" lon="5.08458">
        <ele>197.80000305176</ele>
        <time>2012-04-03T18:07:18.000Z</time>
      </trkpt>
      <trkpt lat="43.97403" lon="5.08461">
        <ele>197.60000610352</ele>
        <time>2012-04-03T18:07:21.000Z</time>
      </trkpt>
      <trkpt lat="43.97404" lon="5.08461">
        <ele>197.19999694824</ele>
        <time>2012-04-03T18:07:22.000Z</time>
      </trkpt>
      <trkpt lat="43.9741" lon="5.0846">
        <ele>195.80000305176</ele>
        <time>2012-04-03T18:07:26.000Z</time>
      </trkpt>
      <trkpt lat="43.97414" lon="5.08461">
        <ele>195.39999389648</ele>
        <time>2012-04-03T18:07:30.000Z</time>
      </trkpt>
      <trkpt lat="43.97416" lon="5.08462">
        <ele>195.39999389648</ele>
        <time>2012-04-03T18:07:32.000Z</time>
      </trkpt>
      <trkpt lat="43.97418" lon="5.08463">
        <ele>195.19999694824</ele>
        <time>2012-04-03T18:07:35.000Z</time>
      </trkpt>
      <trkpt lat="43.97421" lon="5.08466">
        <ele>195.39999389648</ele>
        <time>2012-04-03T18:07:38.000Z</time>
      </trkpt>
      <trkpt lat="43.97422" lon="5.08466">
        <ele>195.39999389648</ele>
        <time>2012-04-03T18:07:39.000Z</time>
      </trkpt>
      <trkpt lat="43.97423" lon="5.08467">
        <ele>195.19999694824</ele>
        <time>2012-04-03T18:07:40.000Z</time>
      </trkpt>
      <trkpt lat="43.97425" lon="5.08467">
        <ele>195</ele>
        <time>2012-04-03T18:07:41.000Z</time>
      </trkpt>
      <trkpt lat="43.97427" lon="5.0847">
        <ele>195.19999694824</ele>
        <time>2012-04-03T18:07:44.000Z</time>
      </trkpt>
      <trkpt lat="43.97427" lon="5.08471">
        <ele>195.39999389648</ele>
        <time>2012-04-03T18:07:45.000Z</time>
      </trkpt>
      <trkpt lat="43.97427" lon="5.08475">
        <ele>196</ele>
        <time>2012-04-03T18:07:48.000Z</time>
      </trkpt>
      <trkpt lat="43.97428" lon="5.08476">
        <ele>196</ele>
        <time>2012-04-03T18:07:50.000Z</time>
      </trkpt>
      <trkpt lat="43.97433" lon="5.08478">
        <ele>195.80000305176</ele>
        <time>2012-04-03T18:07:55.000Z</time>
      </trkpt>
      <trkpt lat="43.97435" lon="5.08481">
        <ele>196</ele>
        <time>2012-04-03T18:07:58.000Z</time>
      </trkpt>
      <trkpt lat="43.97436" lon="5.08482">
        <ele>196</ele>
        <time>2012-04-03T18:07:59.000Z</time>
      </trkpt>
      <trkpt lat="43.97442" lon="5.08481">
        <ele>195</ele>
        <time>2012-04-03T18:08:02.000Z</time>
      </trkpt>
      <trkpt lat="43.97445" lon="5.08483">
        <ele>195</ele>
        <time>2012-04-03T18:08:04.000Z</time>
      </trkpt>
      <trkpt lat="43.97444" lon="5.08489">
        <ele>196</ele>
        <time>2012-04-03T18:08:07.000Z</time>
      </trkpt>
      <trkpt lat="43.97443" lon="5.08491">
        <ele>196.39999389648</ele>
        <time>2012-04-03T18:08:08.000Z</time>
      </trkpt>
      <trkpt lat="43.97444" lon="5.08501">
        <ele>197.80000305176</ele>
        <time>2012-04-03T18:08:12.000Z</time>
      </trkpt>
      <trkpt lat="43.97445" lon="5.08505">
        <ele>198.19999694824</ele>
        <time>2012-04-03T18:08:13.000Z</time>
      </trkpt>
      <trkpt lat="43.97447" lon="5.08521">
        <ele>200</ele>
        <time>2012-04-03T18:08:18.000Z</time>
      </trkpt>
      <trkpt lat="43.97453" lon="5.08536">
        <ele>200.80000305176</ele>
        <time>2012-04-03T18:08:23.000Z</time>
      </trkpt>
      <trkpt lat="43.97459" lon="5.08551">
        <ele>201.80000305176</ele>
        <time>2012-04-03T18:08:28.000Z</time>
      </trkpt>
      <trkpt lat="43.97462" lon="5.0856">
        <ele>202.39999389648</ele>
        <time>2012-04-03T18:08:31.000Z</time>
      </trkpt>
      <trkpt lat="43.97462" lon="5.08563">
        <ele>202.80000305176</ele>
        <time>2012-04-03T18:08:32.000Z</time>
      </trkpt>
      <trkpt lat="43.97461" lon="5.08574">
        <ele>204.39999389648</ele>
        <time>2012-04-03T18:08:36.000Z</time>
      </trkpt>
      <trkpt lat="43.97465" lon="5.08584">
        <ele>205</ele>
        <time>2012-04-03T18:08:40.000Z</time>
      </trkpt>
      <trkpt lat="43.97464" lon="5.08587">
        <ele>205.39999389648</ele>
        <time>2012-04-03T18:08:41.000Z</time>
      </trkpt>
      <trkpt lat="43.97463" lon="5.08588">
        <ele>205.80000305176</ele>
        <time>2012-04-03T18:08:42.000Z</time>
      </trkpt>
      <trkpt lat="43.97464" lon="5.08594">
        <ele>206.39999389648</ele>
        <time>2012-04-03T18:08:45.000Z</time>
      </trkpt>
      <trkpt lat="43.97466" lon="5.08596">
        <ele>206.39999389648</ele>
        <time>2012-04-03T18:08:46.000Z</time>
      </trkpt>
      <trkpt lat="43.97473" lon="5.08607">
        <ele>206.39999389648</ele>
        <time>2012-04-03T18:08:50.000Z</time>
      </trkpt>
      <trkpt lat="43.97481" lon="5.08616">
        <ele>206.39999389648</ele>
        <time>2012-04-03T18:08:55.000Z</time>
      </trkpt>
      <trkpt lat="43.97491" lon="5.08619">
        <ele>205</ele>
        <time>2012-04-03T18:08:59.000Z</time>
      </trkpt>
      <trkpt lat="43.97503" lon="5.08624">
        <ele>203.39999389648</ele>
        <time>2012-04-03T18:09:04.000Z</time>
      </trkpt>
      <trkpt lat="43.97509" lon="5.08633">
        <ele>203.60000610352</ele>
        <time>2012-04-03T18:09:09.000Z</time>
      </trkpt>
      <trkpt lat="43.97518" lon="5.08641">
        <ele>203.19999694824</ele>
        <time>2012-04-03T18:09:13.000Z</time>
      </trkpt>
      <trkpt lat="43.97528" lon="5.08654">
        <ele>203.19999694824</ele>
        <time>2012-04-03T18:09:19.000Z</time>
      </trkpt>
      <trkpt lat="43.97538" lon="5.08655">
        <ele>202.19999694824</ele>
        <time>2012-04-03T18:09:23.000Z</time>
      </trkpt>
      <trkpt lat="43.97547" lon="5.08652">
        <ele>200.19999694824</ele>
        <time>2012-04-03T18:09:27.000Z</time>
      </trkpt>
      <trkpt lat="43.97558" lon="5.08653">
        <ele>198.60000610352</ele>
        <time>2012-04-03T18:09:32.000Z</time>
      </trkpt>
      <trkpt lat="43.97561" lon="5.08652">
        <ele>198.19999694824</ele>
        <time>2012-04-03T18:09:34.000Z</time>
      </trkpt>
      <trkpt lat="43.97565" lon="5.08649">
        <ele>197.19999694824</ele>
        <time>2012-04-03T18:09:38.000Z</time>
      </trkpt>
      <trkpt lat="43.97564" lon="5.08647">
        <ele>197</ele>
        <time>2012-04-03T18:09:40.000Z</time>
      </trkpt>
      <trkpt lat="43.97565" lon="5.08643">
        <ele>196.39999389648</ele>
        <time>2012-04-03T18:09:42.000Z</time>
      </trkpt>
      <trkpt lat="43.97566" lon="5.08638">
        <ele>195.60000610352</ele>
        <time>2012-04-03T18:09:46.000Z</time>
      </trkpt>
      <trkpt lat="43.97565" lon="5.08637">
        <ele>195.60000610352</ele>
        <time>2012-04-03T18:09:47.000Z</time>
      </trkpt>
      <trkpt lat="43.97562" lon="5.08634">
        <ele>195.60000610352</ele>
        <time>2012-04-03T18:09:52.000Z</time>
      </trkpt>
      <trkpt lat="43.97561" lon="5.08633">
        <ele>195.39999389648</ele>
        <time>2012-04-03T18:09:54.000Z</time>
      </trkpt>
      <trkpt lat="43.97561" lon="5.08631">
        <ele>195.39999389648</ele>
        <time>2012-04-03T18:09:56.000Z</time>
      </trkpt>
      <trkpt lat="43.97561" lon="5.08626">
        <ele>194.60000610352</ele>
        <time>2012-04-03T18:09:58.000Z</time>
      </trkpt>
      <trkpt lat="43.97562" lon="5.08624">
        <ele>194.19999694824</ele>
        <time>2012-04-03T18:09:59.000Z</time>
      </trkpt>
      <trkpt lat="43.97566" lon="5.08622">
        <ele>193.19999694824</ele>
        <time>2012-04-03T18:10:03.000Z</time>
      </trkpt>
      <trkpt lat="43.97567" lon="5.08621">
        <ele>193</ele>
        <time>2012-04-03T18:10:04.000Z</time>
      </trkpt>
      <trkpt lat="43.97567" lon="5.08622">
        <ele>193</ele>
        <time>2012-04-03T18:10:05.000Z</time>
      </trkpt>
      <trkpt lat="43.97569" lon="5.08625">
        <ele>193.19999694824</ele>
        <time>2012-04-03T18:10:07.000Z</time>
      </trkpt>
      <trkpt lat="43.97575" lon="5.08636">
        <ele>193.80000305176</ele>
        <time>2012-04-03T18:10:12.000Z</time>
      </trkpt>
      <trkpt lat="43.9758" lon="5.08642">
        <ele>194</ele>
        <time>2012-04-03T18:10:16.000Z</time>
      </trkpt>
      <trkpt lat="43.97584" lon="5.08654">
        <ele>195.19999694824</ele>
        <time>2012-04-03T18:10:21.000Z</time>
      </trkpt>
      <trkpt lat="43.97589" lon="5.08662">
        <ele>196.60000610352</ele>
        <time>2012-04-03T18:10:25.000Z</time>
      </trkpt>
      <trkpt lat="43.97592" lon="5.08665">
        <ele>197.39999389648</ele>
        <time>2012-04-03T18:10:27.000Z</time>
      </trkpt>
      <trkpt lat="43.97594" lon="5.08672">
        <ele>198</ele>
        <time>2012-04-03T18:10:30.000Z</time>
      </trkpt>
      <trkpt lat="43.97596" lon="5.08682">
        <ele>199</ele>
        <time>2012-04-03T18:10:35.000Z</time>
      </trkpt>
      <trkpt lat="43.976" lon="5.08683">
        <ele>199.39999389648</ele>
        <time>2012-04-03T18:10:39.000Z</time>
      </trkpt>
      <trkpt lat="43.97601" lon="5.08683">
        <ele>199.39999389648</ele>
        <time>2012-04-03T18:10:40.000Z</time>
      </trkpt>
      <trkpt lat="43.97601" lon="5.08682">
        <ele>199.19999694824</ele>
        <time>2012-04-03T18:10:41.000Z</time>
      </trkpt>
      <trkpt lat="43.97602" lon="5.08677">
        <ele>199</ele>
        <time>2012-04-03T18:10:44.000Z</time>
      </trkpt>
      <trkpt lat="43.97602" lon="5.08666">
        <ele>198.19999694824</ele>
        <time>2012-04-03T18:10:48.000Z</time>
      </trkpt>
      <trkpt lat="43.97602" lon="5.08663">
        <ele>197.60000610352</ele>
        <time>2012-04-03T18:10:49.000Z</time>
      </trkpt>
      <trkpt lat="43.97601" lon="5.08657">
        <ele>196.80000305176</ele>
        <time>2012-04-03T18:10:52.000Z</time>
      </trkpt>
      <trkpt lat="43.976" lon="5.08654">
        <ele>196.19999694824</ele>
        <time>2012-04-03T18:10:54.000Z</time>
      </trkpt>
      <trkpt lat="43.97598" lon="5.08646">
        <ele>195</ele>
        <time>2012-04-03T18:10:57.000Z</time>
      </trkpt>
      <trkpt lat="43.97597" lon="5.08644">
        <ele>194.60000610352</ele>
        <time>2012-04-03T18:10:58.000Z</time>
      </trkpt>
      <trkpt lat="43.97592" lon="5.08633">
        <ele>192.80000305176</ele>
        <time>2012-04-03T18:11:02.000Z</time>
      </trkpt>
      <trkpt lat="43.97585" lon="5.08622">
        <ele>190.80000305176</ele>
        <time>2012-04-03T18:11:07.000Z</time>
      </trkpt>
      <trkpt lat="43.97576" lon="5.08614">
        <ele>190.60000610352</ele>
        <time>2012-04-03T18:11:13.000Z</time>
      </trkpt>
      <trkpt lat="43.97568" lon="5.08604">
        <ele>190.60000610352</ele>
        <time>2012-04-03T18:11:17.000Z</time>
      </trkpt>
      <trkpt lat="43.97564" lon="5.0859">
        <ele>189.19999694824</ele>
        <time>2012-04-03T18:11:22.000Z</time>
      </trkpt>
      <trkpt lat="43.97563" lon="5.08575">
        <ele>187.80000305176</ele>
        <time>2012-04-03T18:11:27.000Z</time>
      </trkpt>
      <trkpt lat="43.97566" lon="5.0857">
        <ele>187</ele>
        <time>2012-04-03T18:11:30.000Z</time>
      </trkpt>
      <trkpt lat="43.97566" lon="5.08568">
        <ele>186.80000305176</ele>
        <time>2012-04-03T18:11:32.000Z</time>
      </trkpt>
      <trkpt lat="43.97564" lon="5.08564">
        <ele>186.60000610352</ele>
        <time>2012-04-03T18:11:36.000Z</time>
      </trkpt>
      <trkpt lat="43.97565" lon="5.08552">
        <ele>185.39999389648</ele>
        <time>2012-04-03T18:11:40.000Z</time>
      </trkpt>
      <trkpt lat="43.97569" lon="5.08536">
        <ele>183.60000610352</ele>
        <time>2012-04-03T18:11:45.000Z</time>
      </trkpt>
      <trkpt lat="43.97574" lon="5.08522">
        <ele>181.80000305176</ele>
        <time>2012-04-03T18:11:50.000Z</time>
      </trkpt>
      <trkpt lat="43.97572" lon="5.08508">
        <ele>181</ele>
        <time>2012-04-03T18:11:54.000Z</time>
      </trkpt>
      <trkpt lat="43.97569" lon="5.08495">
        <ele>180.19999694824</ele>
        <time>2012-04-03T18:11:58.000Z</time>
      </trkpt>
      <trkpt lat="43.97575" lon="5.0848">
        <ele>178.19999694824</ele>
        <time>2012-04-03T18:12:03.000Z</time>
      </trkpt>
      <trkpt lat="43.97583" lon="5.08465">
        <ele>176</ele>
        <time>2012-04-03T18:12:10.000Z</time>
      </trkpt>
      <trkpt lat="43.97589" lon="5.08467">
        <ele>176.19999694824</ele>
        <time>2012-04-03T18:12:15.000Z</time>
      </trkpt>
      <trkpt lat="43.97592" lon="5.08466">
        <ele>176.19999694824</ele>
        <time>2012-04-03T18:12:16.000Z</time>
      </trkpt>
      <trkpt lat="43.97602" lon="5.0846">
        <ele>175.80000305176</ele>
        <time>2012-04-03T18:12:20.000Z</time>
      </trkpt>
      <trkpt lat="43.97608" lon="5.0845">
        <ele>174.80000305176</ele>
        <time>2012-04-03T18:12:24.000Z</time>
      </trkpt>
      <trkpt lat="43.97613" lon="5.08441">
        <ele>174</ele>
        <time>2012-04-03T18:12:27.000Z</time>
      </trkpt>
      <trkpt lat="43.97614" lon="5.08436">
        <ele>173.39999389648</ele>
        <time>2012-04-03T18:12:29.000Z</time>
      </trkpt>
      <trkpt lat="43.97613" lon="5.08429">
        <ele>172.80000305176</ele>
        <time>2012-04-03T18:12:31.000Z</time>
      </trkpt>
      <trkpt lat="43.97612" lon="5.08422">
        <ele>172.19999694824</ele>
        <time>2012-04-03T18:12:33.000Z</time>
      </trkpt>
      <trkpt lat="43.97614" lon="5.08412">
        <ele>171.19999694824</ele>
        <time>2012-04-03T18:12:36.000Z</time>
      </trkpt>
      <trkpt lat="43.97624" lon="5.0841">
        <ele>170.80000305176</ele>
        <time>2012-04-03T18:12:40.000Z</time>
      </trkpt>
      <trkpt lat="43.97627" lon="5.0841">
        <ele>170.80000305176</ele>
        <time>2012-04-03T18:12:41.000Z</time>
      </trkpt>
      <trkpt lat="43.97637" lon="5.08412">
        <ele>170.80000305176</ele>
        <time>2012-04-03T18:12:44.000Z</time>
      </trkpt>
      <trkpt lat="43.97654" lon="5.08415">
        <ele>171</ele>
        <time>2012-04-03T18:12:50.000Z</time>
      </trkpt>
      <trkpt lat="43.97669" lon="5.08423">
        <ele>172</ele>
        <time>2012-04-03T18:12:56.000Z</time>
      </trkpt>
      <trkpt lat="43.97679" lon="5.08426">
        <ele>173</ele>
        <time>2012-04-03T18:13:00.000Z</time>
      </trkpt>
      <trkpt lat="43.97689" lon="5.08427">
        <ele>173.80000305176</ele>
        <time>2012-04-03T18:13:05.000Z</time>
      </trkpt>
      <trkpt lat="43.97701" lon="5.08424">
        <ele>174</ele>
        <time>2012-04-03T18:13:10.000Z</time>
      </trkpt>
      <trkpt lat="43.97711" lon="5.08415">
        <ele>173.39999389648</ele>
        <time>2012-04-03T18:13:15.000Z</time>
      </trkpt>
      <trkpt lat="43.97719" lon="5.08405">
        <ele>173</ele>
        <time>2012-04-03T18:13:19.000Z</time>
      </trkpt>
      <trkpt lat="43.97731" lon="5.08397">
        <ele>172.80000305176</ele>
        <time>2012-04-03T18:13:24.000Z</time>
      </trkpt>
      <trkpt lat="43.97739" lon="5.08399">
        <ele>173.39999389648</ele>
        <time>2012-04-03T18:13:28.000Z</time>
      </trkpt>
      <trkpt lat="43.97745" lon="5.08402">
        <ele>174.19999694824</ele>
        <time>2012-04-03T18:13:34.000Z</time>
      </trkpt>
      <trkpt lat="43.97745" lon="5.08403">
        <ele>174.19999694824</ele>
        <time>2012-04-03T18:13:40.000Z</time>
      </trkpt>
      <trkpt lat="43.97745" lon="5.084">
        <ele>174</ele>
        <time>2012-04-03T18:14:09.000Z</time>
      </trkpt>
      <trkpt lat="43.97752" lon="5.08392">
        <ele>173.19999694824</ele>
        <time>2012-04-03T18:14:15.000Z</time>
      </trkpt>
      <trkpt lat="43.97762" lon="5.08392">
        <ele>173</ele>
        <time>2012-04-03T18:14:19.000Z</time>
      </trkpt>
      <trkpt lat="43.97775" lon="5.08399">
        <ele>173.19999694824</ele>
        <time>2012-04-03T18:14:24.000Z</time>
      </trkpt>
      <trkpt lat="43.97788" lon="5.08408">
        <ele>173.80000305176</ele>
        <time>2012-04-03T18:14:29.000Z</time>
      </trkpt>
      <trkpt lat="43.97803" lon="5.08414">
        <ele>173.80000305176</ele>
        <time>2012-04-03T18:14:34.000Z</time>
      </trkpt>
      <trkpt lat="43.97817" lon="5.08423">
        <ele>174.60000610352</ele>
        <time>2012-04-03T18:14:39.000Z</time>
      </trkpt>
      <trkpt lat="43.97834" lon="5.08432">
        <ele>175.39999389648</ele>
        <time>2012-04-03T18:14:45.000Z</time>
      </trkpt>
      <trkpt lat="43.97842" lon="5.08441">
        <ele>176.60000610352</ele>
        <time>2012-04-03T18:14:49.000Z</time>
      </trkpt>
      <trkpt lat="43.97852" lon="5.0845">
        <ele>177.39999389648</ele>
        <time>2012-04-03T18:14:53.000Z</time>
      </trkpt>
      <trkpt lat="43.97864" lon="5.08455">
        <ele>177.60000610352</ele>
        <time>2012-04-03T18:14:58.000Z</time>
      </trkpt>
      <trkpt lat="43.97874" lon="5.08461">
        <ele>177.80000305176</ele>
        <time>2012-04-03T18:15:03.000Z</time>
      </trkpt>
      <trkpt lat="43.97876" lon="5.08462">
        <ele>178</ele>
        <time>2012-04-03T18:15:06.000Z</time>
      </trkpt>
      <trkpt lat="43.97877" lon="5.0846">
        <ele>177.60000610352</ele>
        <time>2012-04-03T18:15:09.000Z</time>
      </trkpt>
      <trkpt lat="43.97877" lon="5.08457">
        <ele>177.19999694824</ele>
        <time>2012-04-03T18:15:11.000Z</time>
      </trkpt>
      <trkpt lat="43.97877" lon="5.08449">
        <ele>176.19999694824</ele>
        <time>2012-04-03T18:15:14.000Z</time>
      </trkpt>
      <trkpt lat="43.97877" lon="5.08436">
        <ele>174.80000305176</ele>
        <time>2012-04-03T18:15:19.000Z</time>
      </trkpt>
      <trkpt lat="43.97879" lon="5.08424">
        <ele>173.39999389648</ele>
        <time>2012-04-03T18:15:24.000Z</time>
      </trkpt>
      <trkpt lat="43.97883" lon="5.08409">
        <ele>171.80000305176</ele>
        <time>2012-04-03T18:15:29.000Z</time>
      </trkpt>
      <trkpt lat="43.9789" lon="5.08394">
        <ele>170.39999389648</ele>
        <time>2012-04-03T18:15:34.000Z</time>
      </trkpt>
      <trkpt lat="43.97898" lon="5.08375">
        <ele>169</ele>
        <time>2012-04-03T18:15:39.000Z</time>
      </trkpt>
      <trkpt lat="43.97904" lon="5.08357">
        <ele>167.60000610352</ele>
        <time>2012-04-03T18:15:44.000Z</time>
      </trkpt>
      <trkpt lat="43.97909" lon="5.08342">
        <ele>166.60000610352</ele>
        <time>2012-04-03T18:15:48.000Z</time>
      </trkpt>
      <trkpt lat="43.97915" lon="5.08328">
        <ele>165.60000610352</ele>
        <time>2012-04-03T18:15:52.000Z</time>
      </trkpt>
      <trkpt lat="43.97923" lon="5.08311">
        <ele>164.39999389648</ele>
        <time>2012-04-03T18:15:57.000Z</time>
      </trkpt>
      <trkpt lat="43.97935" lon="5.08287">
        <ele>163</ele>
        <time>2012-04-03T18:16:04.000Z</time>
      </trkpt>
      <trkpt lat="43.97946" lon="5.08266">
        <ele>161.80000305176</ele>
        <time>2012-04-03T18:16:10.000Z</time>
      </trkpt>
      <trkpt lat="43.97951" lon="5.0825">
        <ele>161</ele>
        <time>2012-04-03T18:16:14.000Z</time>
      </trkpt>
      <trkpt lat="43.97957" lon="5.08232">
        <ele>160.60000610352</ele>
        <time>2012-04-03T18:16:18.000Z</time>
      </trkpt>
      <trkpt lat="43.97965" lon="5.08209">
        <ele>160</ele>
        <time>2012-04-03T18:16:24.000Z</time>
      </trkpt>
      <trkpt lat="43.97975" lon="5.08183">
        <ele>159</ele>
        <time>2012-04-03T18:16:30.000Z</time>
      </trkpt>
      <trkpt lat="43.97984" lon="5.08162">
        <ele>158.19999694824</ele>
        <time>2012-04-03T18:16:35.000Z</time>
      </trkpt>
      <trkpt lat="43.97995" lon="5.08138">
        <ele>157.39999389648</ele>
        <time>2012-04-03T18:16:41.000Z</time>
      </trkpt>
      <trkpt lat="43.98001" lon="5.08122">
        <ele>157</ele>
        <time>2012-04-03T18:16:45.000Z</time>
      </trkpt>
      <trkpt lat="43.98006" lon="5.08105">
        <ele>157</ele>
        <time>2012-04-03T18:16:49.000Z</time>
      </trkpt>
      <trkpt lat="43.9801" lon="5.08085">
        <ele>157</ele>
        <time>2012-04-03T18:16:54.000Z</time>
      </trkpt>
      <trkpt lat="43.98019" lon="5.08066">
        <ele>157.39999389648</ele>
        <time>2012-04-03T18:16:59.000Z</time>
      </trkpt>
      <trkpt lat="43.98026" lon="5.08052">
        <ele>157.60000610352</ele>
        <time>2012-04-03T18:17:03.000Z</time>
      </trkpt>
      <trkpt lat="43.98036" lon="5.0804">
        <ele>157.80000305176</ele>
        <time>2012-04-03T18:17:07.000Z</time>
      </trkpt>
      <trkpt lat="43.98045" lon="5.08024">
        <ele>157.80000305176</ele>
        <time>2012-04-03T18:17:12.000Z</time>
      </trkpt>
      <trkpt lat="43.98051" lon="5.08016">
        <ele>157.80000305176</ele>
        <time>2012-04-03T18:17:19.000Z</time>
      </trkpt>
      <trkpt lat="43.98052" lon="5.08016">
        <ele>157.80000305176</ele>
        <time>2012-04-03T18:17:20.000Z</time>
      </trkpt>
      <trkpt lat="43.98053" lon="5.08016">
        <ele>157.80000305176</ele>
        <time>2012-04-03T18:17:24.000Z</time>
      </trkpt>
      <trkpt lat="43.98053" lon="5.08014">
        <ele>157.80000305176</ele>
        <time>2012-04-03T18:17:37.000Z</time>
      </trkpt>
      <trkpt lat="43.98056" lon="5.08014">
        <ele>158</ele>
        <time>2012-04-03T18:18:02.000Z</time>
      </trkpt>
      <trkpt lat="43.98058" lon="5.08015">
        <ele>158</ele>
        <time>2012-04-03T18:18:08.000Z</time>
      </trkpt>
      <trkpt lat="43.9806" lon="5.08016">
        <ele>158.19999694824</ele>
        <time>2012-04-03T18:18:11.000Z</time>
      </trkpt>
      <trkpt lat="43.9806" lon="5.08017">
        <ele>158.19999694824</ele>
        <time>2012-04-03T18:18:12.000Z</time>
      </trkpt>
      <trkpt lat="43.98064" lon="5.08026">
        <ele>158.80000305176</ele>
        <time>2012-04-03T18:18:19.000Z</time>
      </trkpt>
      <trkpt lat="43.98066" lon="5.08039">
        <ele>159.39999389648</ele>
        <time>2012-04-03T18:18:25.000Z</time>
      </trkpt>
      <trkpt lat="43.98072" lon="5.08053">
        <ele>160.39999389648</ele>
        <time>2012-04-03T18:18:30.000Z</time>
      </trkpt>
      <trkpt lat="43.98077" lon="5.08072">
        <ele>161.80000305176</ele>
        <time>2012-04-03T18:18:35.000Z</time>
      </trkpt>
      <trkpt lat="43.98082" lon="5.08088">
        <ele>162.80000305176</ele>
        <time>2012-04-03T18:18:40.000Z</time>
      </trkpt>
      <trkpt lat="43.98088" lon="5.081">
        <ele>162.80000305176</ele>
        <time>2012-04-03T18:18:44.000Z</time>
      </trkpt>
      <trkpt lat="43.98096" lon="5.0812">
        <ele>162.60000610352</ele>
        <time>2012-04-03T18:18:50.000Z</time>
      </trkpt>
      <trkpt lat="43.98103" lon="5.08133">
        <ele>162.60000610352</ele>
        <time>2012-04-03T18:18:54.000Z</time>
      </trkpt>
      <trkpt lat="43.98111" lon="5.08152">
        <ele>162.60000610352</ele>
        <time>2012-04-03T18:19:00.000Z</time>
      </trkpt>
      <trkpt lat="43.9812" lon="5.08167">
        <ele>162.80000305176</ele>
        <time>2012-04-03T18:19:04.000Z</time>
      </trkpt>
      <trkpt lat="43.98131" lon="5.08188">
        <ele>162.60000610352</ele>
        <time>2012-04-03T18:19:10.000Z</time>
      </trkpt>
      <trkpt lat="43.9814" lon="5.0821">
        <ele>162.19999694824</ele>
        <time>2012-04-03T18:19:16.000Z</time>
      </trkpt>
      <trkpt lat="43.98144" lon="5.08233">
        <ele>161.60000610352</ele>
        <time>2012-04-03T18:19:21.000Z</time>
      </trkpt>
      <trkpt lat="43.98153" lon="5.0825">
        <ele>161</ele>
        <time>2012-04-03T18:19:26.000Z</time>
      </trkpt>
      <trkpt lat="43.98163" lon="5.08269">
        <ele>161.60000610352</ele>
        <time>2012-04-03T18:19:31.000Z</time>
      </trkpt>
      <trkpt lat="43.98174" lon="5.08291">
        <ele>163</ele>
        <time>2012-04-03T18:19:37.000Z</time>
      </trkpt>
      <trkpt lat="43.9818" lon="5.08312">
        <ele>164</ele>
        <time>2012-04-03T18:19:42.000Z</time>
      </trkpt>
      <trkpt lat="43.98185" lon="5.08327">
        <ele>164.60000610352</ele>
        <time>2012-04-03T18:19:46.000Z</time>
      </trkpt>
      <trkpt lat="43.98192" lon="5.08343">
        <ele>165.39999389648</ele>
        <time>2012-04-03T18:19:51.000Z</time>
      </trkpt>
      <trkpt lat="43.98201" lon="5.08359">
        <ele>165.80000305176</ele>
        <time>2012-04-03T18:19:56.000Z</time>
      </trkpt>
      <trkpt lat="43.98211" lon="5.08377">
        <ele>166</ele>
        <time>2012-04-03T18:20:02.000Z</time>
      </trkpt>
      <trkpt lat="43.98218" lon="5.08394">
        <ele>166.19999694824</ele>
        <time>2012-04-03T18:20:07.000Z</time>
      </trkpt>
      <trkpt lat="43.98223" lon="5.08409">
        <ele>166</ele>
        <time>2012-04-03T18:20:11.000Z</time>
      </trkpt>
      <trkpt lat="43.98231" lon="5.0843">
        <ele>166.60000610352</ele>
        <time>2012-04-03T18:20:17.000Z</time>
      </trkpt>
      <trkpt lat="43.98239" lon="5.08444">
        <ele>167.60000610352</ele>
        <time>2012-04-03T18:20:22.000Z</time>
      </trkpt>
      <trkpt lat="43.98248" lon="5.08459">
        <ele>168.60000610352</ele>
        <time>2012-04-03T18:20:27.000Z</time>
      </trkpt>
      <trkpt lat="43.98256" lon="5.08467">
        <ele>169.39999389648</ele>
        <time>2012-04-03T18:20:32.000Z</time>
      </trkpt>
      <trkpt lat="43.98271" lon="5.0847">
        <ele>170.19999694824</ele>
        <time>2012-04-03T18:20:39.000Z</time>
      </trkpt>
      <trkpt lat="43.98276" lon="5.08465">
        <ele>170.19999694824</ele>
        <time>2012-04-03T18:20:42.000Z</time>
      </trkpt>
      <trkpt lat="43.98278" lon="5.0846">
        <ele>170</ele>
        <time>2012-04-03T18:20:44.000Z</time>
      </trkpt>
      <trkpt lat="43.98286" lon="5.08445">
        <ele>169.39999389648</ele>
        <time>2012-04-03T18:20:49.000Z</time>
      </trkpt>
      <trkpt lat="43.98297" lon="5.08435">
        <ele>169.39999389648</ele>
        <time>2012-04-03T18:20:54.000Z</time>
      </trkpt>
      <trkpt lat="43.98308" lon="5.08423">
        <ele>169.19999694824</ele>
        <time>2012-04-03T18:20:59.000Z</time>
      </trkpt>
      <trkpt lat="43.9832" lon="5.08409">
        <ele>169</ele>
        <time>2012-04-03T18:21:05.000Z</time>
      </trkpt>
      <trkpt lat="43.98332" lon="5.08399">
        <ele>169</ele>
        <time>2012-04-03T18:21:10.000Z</time>
      </trkpt>
      <trkpt lat="43.98343" lon="5.08391">
        <ele>168.80000305176</ele>
        <time>2012-04-03T18:21:15.000Z</time>
      </trkpt>
      <trkpt lat="43.98359" lon="5.08374">
        <ele>168.19999694824</ele>
        <time>2012-04-03T18:21:23.000Z</time>
      </trkpt>
      <trkpt lat="43.98368" lon="5.08366">
        <ele>168</ele>
        <time>2012-04-03T18:21:27.000Z</time>
      </trkpt>
      <trkpt lat="43.98382" lon="5.08367">
        <ele>168.39999389648</ele>
        <time>2012-04-03T18:21:32.000Z</time>
      </trkpt>
      <trkpt lat="43.98396" lon="5.08368">
        <ele>168.80000305176</ele>
        <time>2012-04-03T18:21:37.000Z</time>
      </trkpt>
      <trkpt lat="43.98408" lon="5.08362">
        <ele>168.80000305176</ele>
        <time>2012-04-03T18:21:42.000Z</time>
      </trkpt>
      <trkpt lat="43.9842" lon="5.08351">
        <ele>168.19999694824</ele>
        <time>2012-04-03T18:21:47.000Z</time>
      </trkpt>
      <trkpt lat="43.98432" lon="5.08341">
        <ele>167</ele>
        <time>2012-04-03T18:21:52.000Z</time>
      </trkpt>
      <trkpt lat="43.98443" lon="5.08332">
        <ele>166</ele>
        <time>2012-04-03T18:21:57.000Z</time>
      </trkpt>
      <trkpt lat="43.98447" lon="5.08327">
        <ele>165.39999389648</ele>
        <time>2012-04-03T18:21:59.000Z</time>
      </trkpt>
      <trkpt lat="43.98453" lon="5.08321">
        <ele>164.80000305176</ele>
        <time>2012-04-03T18:22:02.000Z</time>
      </trkpt>
      <trkpt lat="43.98454" lon="5.0832">
        <ele>164.80000305176</ele>
        <time>2012-04-03T18:22:03.000Z</time>
      </trkpt>
      <trkpt lat="43.9846" lon="5.08315">
        <ele>164.19999694824</ele>
        <time>2012-04-03T18:22:06.000Z</time>
      </trkpt>
      <trkpt lat="43.98466" lon="5.08307">
        <ele>163.60000610352</ele>
        <time>2012-04-03T18:22:09.000Z</time>
      </trkpt>
      <trkpt lat="43.98468" lon="5.08305">
        <ele>163.39999389648</ele>
        <time>2012-04-03T18:22:10.000Z</time>
      </trkpt>
      <trkpt lat="43.9848" lon="5.08291">
        <ele>162.39999389648</ele>
        <time>2012-04-03T18:22:16.000Z</time>
      </trkpt>
      <trkpt lat="43.98492" lon="5.08276">
        <ele>161.39999389648</ele>
        <time>2012-04-03T18:22:22.000Z</time>
      </trkpt>
      <trkpt lat="43.98497" lon="5.08262">
        <ele>160.60000610352</ele>
        <time>2012-04-03T18:22:27.000Z</time>
      </trkpt>
      <trkpt lat="43.98505" lon="5.08245">
        <ele>159.60000610352</ele>
        <time>2012-04-03T18:22:33.000Z</time>
      </trkpt>
      <trkpt lat="43.98514" lon="5.08226">
        <ele>158.60000610352</ele>
        <time>2012-04-03T18:22:38.000Z</time>
      </trkpt>
      <trkpt lat="43.98523" lon="5.0821">
        <ele>158</ele>
        <time>2012-04-03T18:22:43.000Z</time>
      </trkpt>
      <trkpt lat="43.98531" lon="5.08194">
        <ele>157.60000610352</ele>
        <time>2012-04-03T18:22:48.000Z</time>
      </trkpt>
      <trkpt lat="43.98546" lon="5.08178">
        <ele>157.39999389648</ele>
        <time>2012-04-03T18:22:54.000Z</time>
      </trkpt>
      <trkpt lat="43.98553" lon="5.08158">
        <ele>157.19999694824</ele>
        <time>2012-04-03T18:23:00.000Z</time>
      </trkpt>
      <trkpt lat="43.98548" lon="5.08143">
        <ele>156.39999389648</ele>
        <time>2012-04-03T18:23:05.000Z</time>
      </trkpt>
      <trkpt lat="43.98552" lon="5.08129">
        <ele>155.80000305176</ele>
        <time>2012-04-03T18:23:09.000Z</time>
      </trkpt>
      <trkpt lat="43.98552" lon="5.08125">
        <ele>155.80000305176</ele>
        <time>2012-04-03T18:23:10.000Z</time>
      </trkpt>
      <trkpt lat="43.98552" lon="5.08099">
        <ele>154.60000610352</ele>
        <time>2012-04-03T18:23:16.000Z</time>
      </trkpt>
      <trkpt lat="43.98549" lon="5.08089">
        <ele>154.19999694824</ele>
        <time>2012-04-03T18:23:19.000Z</time>
      </trkpt>
      <trkpt lat="43.98548" lon="5.08086">
        <ele>154.19999694824</ele>
        <time>2012-04-03T18:23:20.000Z</time>
      </trkpt>
      <trkpt lat="43.98544" lon="5.0807">
        <ele>153.60000610352</ele>
        <time>2012-04-03T18:23:24.000Z</time>
      </trkpt>
      <trkpt lat="43.98541" lon="5.08062">
        <ele>153.19999694824</ele>
        <time>2012-04-03T18:23:26.000Z</time>
      </trkpt>
      <trkpt lat="43.98538" lon="5.08055">
        <ele>153</ele>
        <time>2012-04-03T18:23:28.000Z</time>
      </trkpt>
      <trkpt lat="43.98533" lon="5.08038">
        <ele>152.39999389648</ele>
        <time>2012-04-03T18:23:33.000Z</time>
      </trkpt>
      <trkpt lat="43.98525" lon="5.08024">
        <ele>152.19999694824</ele>
        <time>2012-04-03T18:23:39.000Z</time>
      </trkpt>
      <trkpt lat="43.98521" lon="5.08015">
        <ele>152</ele>
        <time>2012-04-03T18:23:44.000Z</time>
      </trkpt>
      <trkpt lat="43.98519" lon="5.0801">
        <ele>151.80000305176</ele>
        <time>2012-04-03T18:23:47.000Z</time>
      </trkpt>
      <trkpt lat="43.98518" lon="5.08008">
        <ele>151.80000305176</ele>
        <time>2012-04-03T18:23:49.000Z</time>
      </trkpt>
      <trkpt lat="43.98516" lon="5.08002">
        <ele>151.60000610352</ele>
        <time>2012-04-03T18:23:54.000Z</time>
      </trkpt>
      <trkpt lat="43.98516" lon="5.07995">
        <ele>151.39999389648</ele>
        <time>2012-04-03T18:23:59.000Z</time>
      </trkpt>
      <trkpt lat="43.9852" lon="5.0799">
        <ele>151.19999694824</ele>
        <time>2012-04-03T18:24:32.000Z</time>
      </trkpt>
      <trkpt lat="43.9852" lon="5.07991">
        <ele>151.19999694824</ele>
        <time>2012-04-03T18:24:39.000Z</time>
      </trkpt>
      <trkpt lat="43.9852" lon="5.07988">
        <ele>151</ele>
        <time>2012-04-03T18:25:14.000Z</time>
      </trkpt>
      <trkpt lat="43.98522" lon="5.0798">
        <ele>150.80000305176</ele>
        <time>2012-04-03T18:25:19.000Z</time>
      </trkpt>
      <trkpt lat="43.98519" lon="5.07964">
        <ele>150.39999389648</ele>
        <time>2012-04-03T18:25:24.000Z</time>
      </trkpt>
      <trkpt lat="43.98518" lon="5.07961">
        <ele>150.19999694824</ele>
        <time>2012-04-03T18:25:25.000Z</time>
      </trkpt>
      <trkpt lat="43.9852" lon="5.07954">
        <ele>150</ele>
        <time>2012-04-03T18:25:28.000Z</time>
      </trkpt>
      <trkpt lat="43.98524" lon="5.0794">
        <ele>149.39999389648</ele>
        <time>2012-04-03T18:25:33.000Z</time>
      </trkpt>
      <trkpt lat="43.9853" lon="5.07922">
        <ele>148.80000305176</ele>
        <time>2012-04-03T18:25:39.000Z</time>
      </trkpt>
      <trkpt lat="43.98533" lon="5.07918">
        <ele>148.60000610352</ele>
        <time>2012-04-03T18:25:41.000Z</time>
      </trkpt>
      <trkpt lat="43.98537" lon="5.07915">
        <ele>148.39999389648</ele>
        <time>2012-04-03T18:25:43.000Z</time>
      </trkpt>
      <trkpt lat="43.98546" lon="5.07908">
        <ele>148</ele>
        <time>2012-04-03T18:25:48.000Z</time>
      </trkpt>
      <trkpt lat="43.98554" lon="5.07896">
        <ele>147</ele>
        <time>2012-04-03T18:25:53.000Z</time>
      </trkpt>
      <trkpt lat="43.9856" lon="5.0788">
        <ele>145.80000305176</ele>
        <time>2012-04-03T18:25:58.000Z</time>
      </trkpt>
      <trkpt lat="43.98568" lon="5.07863">
        <ele>144.19999694824</ele>
        <time>2012-04-03T18:26:03.000Z</time>
      </trkpt>
      <trkpt lat="43.98582" lon="5.07849">
        <ele>142.39999389648</ele>
        <time>2012-04-03T18:26:09.000Z</time>
      </trkpt>
      <trkpt lat="43.98592" lon="5.07837">
        <ele>140.80000305176</ele>
        <time>2012-04-03T18:26:14.000Z</time>
      </trkpt>
      <trkpt lat="43.98607" lon="5.07825">
        <ele>139.39999389648</ele>
        <time>2012-04-03T18:26:20.000Z</time>
      </trkpt>
      <trkpt lat="43.98614" lon="5.07814">
        <ele>138.80000305176</ele>
        <time>2012-04-03T18:26:24.000Z</time>
      </trkpt>
      <trkpt lat="43.98621" lon="5.07795">
        <ele>138</ele>
        <time>2012-04-03T18:26:29.000Z</time>
      </trkpt>
      <trkpt lat="43.98616" lon="5.07781">
        <ele>137.60000610352</ele>
        <time>2012-04-03T18:26:33.000Z</time>
      </trkpt>
      <trkpt lat="43.98612" lon="5.07761">
        <ele>136.80000305176</ele>
        <time>2012-04-03T18:26:38.000Z</time>
      </trkpt>
      <trkpt lat="43.98615" lon="5.07739">
        <ele>135.80000305176</ele>
        <time>2012-04-03T18:26:43.000Z</time>
      </trkpt>
      <trkpt lat="43.98616" lon="5.07735">
        <ele>135.60000610352</ele>
        <time>2012-04-03T18:26:44.000Z</time>
      </trkpt>
      <trkpt lat="43.98617" lon="5.07715">
        <ele>134.60000610352</ele>
        <time>2012-04-03T18:26:49.000Z</time>
      </trkpt>
      <trkpt lat="43.9862" lon="5.07698">
        <ele>133.80000305176</ele>
        <time>2012-04-03T18:26:53.000Z</time>
      </trkpt>
      <trkpt lat="43.98626" lon="5.07679">
        <ele>133.19999694824</ele>
        <time>2012-04-03T18:26:58.000Z</time>
      </trkpt>
      <trkpt lat="43.98637" lon="5.07668">
        <ele>133</ele>
        <time>2012-04-03T18:27:02.000Z</time>
      </trkpt>
      <trkpt lat="43.9865" lon="5.07657">
        <ele>132.39999389648</ele>
        <time>2012-04-03T18:27:07.000Z</time>
      </trkpt>
      <trkpt lat="43.98665" lon="5.07641">
        <ele>131.19999694824</ele>
        <time>2012-04-03T18:27:13.000Z</time>
      </trkpt>
      <trkpt lat="43.98678" lon="5.07632">
        <ele>129.80000305176</ele>
        <time>2012-04-03T18:27:18.000Z</time>
      </trkpt>
      <trkpt lat="43.98694" lon="5.07618">
        <ele>127.80000305176</ele>
        <time>2012-04-03T18:27:24.000Z</time>
      </trkpt>
      <trkpt lat="43.98708" lon="5.07607">
        <ele>126</ele>
        <time>2012-04-03T18:27:29.000Z</time>
      </trkpt>
      <trkpt lat="43.9872" lon="5.07592">
        <ele>124</ele>
        <time>2012-04-03T18:27:34.000Z</time>
      </trkpt>
      <trkpt lat="43.98731" lon="5.07576">
        <ele>122.59999847412</ele>
        <time>2012-04-03T18:27:39.000Z</time>
      </trkpt>
      <trkpt lat="43.98743" lon="5.07558">
        <ele>122.19999694824</ele>
        <time>2012-04-03T18:27:44.000Z</time>
      </trkpt>
      <trkpt lat="43.98753" lon="5.07541">
        <ele>122</ele>
        <time>2012-04-03T18:27:49.000Z</time>
      </trkpt>
      <trkpt lat="43.98763" lon="5.07525">
        <ele>121.59999847412</ele>
        <time>2012-04-03T18:27:54.000Z</time>
      </trkpt>
      <trkpt lat="43.98778" lon="5.07512">
        <ele>121.40000152588</ele>
        <time>2012-04-03T18:28:00.000Z</time>
      </trkpt>
      <trkpt lat="43.98788" lon="5.07501">
        <ele>121</ele>
        <time>2012-04-03T18:28:04.000Z</time>
      </trkpt>
      <trkpt lat="43.98794" lon="5.07493">
        <ele>121</ele>
        <time>2012-04-03T18:28:08.000Z</time>
      </trkpt>
      <trkpt lat="43.98796" lon="5.07492">
        <ele>121</ele>
        <time>2012-04-03T18:28:09.000Z</time>
      </trkpt>
      <trkpt lat="43.98799" lon="5.07489">
        <ele>121</ele>
        <time>2012-04-03T18:28:12.000Z</time>
      </trkpt>
      <trkpt lat="43.988" lon="5.0749">
        <ele>120.80000305176</ele>
        <time>2012-04-03T18:28:14.000Z</time>
      </trkpt>
      <trkpt lat="43.988" lon="5.07491">
        <ele>120.80000305176</ele>
        <time>2012-04-03T18:28:18.000Z</time>
      </trkpt>
      <trkpt lat="43.98802" lon="5.07491">
        <ele>120.80000305176</ele>
        <time>2012-04-03T18:28:24.000Z</time>
      </trkpt>
      <trkpt lat="43.98802" lon="5.07491">
        <ele>120.80000305176</ele>
        <time>2012-04-03T18:28:32.000Z</time>
      </trkpt>
      <trkpt lat="43.98804" lon="5.07488">
        <ele>120.80000305176</ele>
        <time>2012-04-03T18:28:48.000Z</time>
      </trkpt>
      <trkpt lat="43.98811" lon="5.07485">
        <ele>120.80000305176</ele>
        <time>2012-04-03T18:29:09.000Z</time>
      </trkpt>
      <trkpt lat="43.98816" lon="5.07481">
        <ele>120.80000305176</ele>
        <time>2012-04-03T18:29:17.000Z</time>
      </trkpt>
      <trkpt lat="43.98824" lon="5.07472">
        <ele>120.80000305176</ele>
        <time>2012-04-03T18:29:23.000Z</time>
      </trkpt>
      <trkpt lat="43.98837" lon="5.07458">
        <ele>120.80000305176</ele>
        <time>2012-04-03T18:29:29.000Z</time>
      </trkpt>
      <trkpt lat="43.98853" lon="5.07446">
        <ele>120.59999847412</ele>
        <time>2012-04-03T18:29:35.000Z</time>
      </trkpt>
      <trkpt lat="43.98871" lon="5.07439">
        <ele>120.19999694824</ele>
        <time>2012-04-03T18:29:41.000Z</time>
      </trkpt>
      <trkpt lat="43.98883" lon="5.07431">
        <ele>120.19999694824</ele>
        <time>2012-04-03T18:29:45.000Z</time>
      </trkpt>
      <trkpt lat="43.98885" lon="5.07429">
        <ele>120.19999694824</ele>
        <time>2012-04-03T18:29:46.000Z</time>
      </trkpt>
      <trkpt lat="43.98899" lon="5.07419">
        <ele>120.19999694824</ele>
        <time>2012-04-03T18:29:51.000Z</time>
      </trkpt>
      <trkpt lat="43.98916" lon="5.07408">
        <ele>120.19999694824</ele>
        <time>2012-04-03T18:29:57.000Z</time>
      </trkpt>
      <trkpt lat="43.98919" lon="5.07406">
        <ele>120</ele>
        <time>2012-04-03T18:29:58.000Z</time>
      </trkpt>
      <trkpt lat="43.98931" lon="5.074">
        <ele>119.40000152588</ele>
        <time>2012-04-03T18:30:02.000Z</time>
      </trkpt>
      <trkpt lat="43.98947" lon="5.07391">
        <ele>118.59999847412</ele>
        <time>2012-04-03T18:30:08.000Z</time>
      </trkpt>
      <trkpt lat="43.98958" lon="5.07395">
        <ele>117.80000305176</ele>
        <time>2012-04-03T18:30:12.000Z</time>
      </trkpt>
      <trkpt lat="43.9896" lon="5.07408">
        <ele>117.19999694824</ele>
        <time>2012-04-03T18:30:16.000Z</time>
      </trkpt>
      <trkpt lat="43.98958" lon="5.0742">
        <ele>117</ele>
        <time>2012-04-03T18:30:19.000Z</time>
      </trkpt>
      <trkpt lat="43.98958" lon="5.07424">
        <ele>116.59999847412</ele>
        <time>2012-04-03T18:30:21.000Z</time>
      </trkpt>
      <trkpt lat="43.9896" lon="5.07424">
        <ele>116.59999847412</ele>
        <time>2012-04-03T18:30:24.000Z</time>
      </trkpt>
      <trkpt lat="43.98962" lon="5.07422">
        <ele>116.59999847412</ele>
        <time>2012-04-03T18:30:25.000Z</time>
      </trkpt>
      <trkpt lat="43.98968" lon="5.07418">
        <ele>116.19999694824</ele>
        <time>2012-04-03T18:30:28.000Z</time>
      </trkpt>
      <trkpt lat="43.98971" lon="5.07414">
        <ele>116.19999694824</ele>
        <time>2012-04-03T18:30:30.000Z</time>
      </trkpt>
      <trkpt lat="43.9898" lon="5.07404">
        <ele>116</ele>
        <time>2012-04-03T18:30:35.000Z</time>
      </trkpt>
      <trkpt lat="43.98988" lon="5.07397">
        <ele>116</ele>
        <time>2012-04-03T18:30:39.000Z</time>
      </trkpt>
      <trkpt lat="43.98999" lon="5.07387">
        <ele>115.80000305176</ele>
        <time>2012-04-03T18:30:45.000Z</time>
      </trkpt>
      <trkpt lat="43.9901" lon="5.07375">
        <ele>115.80000305176</ele>
        <time>2012-04-03T18:30:51.000Z</time>
      </trkpt>
      <trkpt lat="43.9902" lon="5.07368">
        <ele>115.59999847412</ele>
        <time>2012-04-03T18:30:56.000Z</time>
      </trkpt>
      <trkpt lat="43.99029" lon="5.07363">
        <ele>115.19999694824</ele>
        <time>2012-04-03T18:31:00.000Z</time>
      </trkpt>
      <trkpt lat="43.99038" lon="5.07356">
        <ele>115</ele>
        <time>2012-04-03T18:31:05.000Z</time>
      </trkpt>
      <trkpt lat="43.99041" lon="5.07353">
        <ele>115</ele>
        <time>2012-04-03T18:31:08.000Z</time>
      </trkpt>
      <trkpt lat="43.9905" lon="5.07346">
        <ele>114.59999847412</ele>
        <time>2012-04-03T18:31:14.000Z</time>
      </trkpt>
      <trkpt lat="43.9906" lon="5.0734">
        <ele>114.40000152588</ele>
        <time>2012-04-03T18:31:19.000Z</time>
      </trkpt>
      <trkpt lat="43.99063" lon="5.07339">
        <ele>114.19999694824</ele>
        <time>2012-04-03T18:31:21.000Z</time>
      </trkpt>
      <trkpt lat="43.99067" lon="5.07339">
        <ele>113.80000305176</ele>
        <time>2012-04-03T18:31:23.000Z</time>
      </trkpt>
      <trkpt lat="43.9908" lon="5.07332">
        <ele>113.40000152588</ele>
        <time>2012-04-03T18:31:28.000Z</time>
      </trkpt>
      <trkpt lat="43.99092" lon="5.07321">
        <ele>113.40000152588</ele>
        <time>2012-04-03T18:31:33.000Z</time>
      </trkpt>
      <trkpt lat="43.99104" lon="5.07309">
        <ele>113.59999847412</ele>
        <time>2012-04-03T18:31:38.000Z</time>
      </trkpt>
      <trkpt lat="43.99114" lon="5.07294">
        <ele>113.80000305176</ele>
        <time>2012-04-03T18:31:43.000Z</time>
      </trkpt>
      <trkpt lat="43.99125" lon="5.0728">
        <ele>113.59999847412</ele>
        <time>2012-04-03T18:31:48.000Z</time>
      </trkpt>
      <trkpt lat="43.99136" lon="5.07267">
        <ele>113.40000152588</ele>
        <time>2012-04-03T18:31:53.000Z</time>
      </trkpt>
      <trkpt lat="43.99149" lon="5.07251">
        <ele>112.80000305176</ele>
        <time>2012-04-03T18:31:59.000Z</time>
      </trkpt>
      <trkpt lat="43.9916" lon="5.07238">
        <ele>111.59999847412</ele>
        <time>2012-04-03T18:32:04.000Z</time>
      </trkpt>
      <trkpt lat="43.99175" lon="5.0722">
        <ele>110</ele>
        <time>2012-04-03T18:32:10.000Z</time>
      </trkpt>
      <trkpt lat="43.99188" lon="5.072">
        <ele>109.19999694824</ele>
        <time>2012-04-03T18:32:16.000Z</time>
      </trkpt>
      <trkpt lat="43.99198" lon="5.07177">
        <ele>108.59999847412</ele>
        <time>2012-04-03T18:32:22.000Z</time>
      </trkpt>
      <trkpt lat="43.99206" lon="5.07163">
        <ele>108</ele>
        <time>2012-04-03T18:32:26.000Z</time>
      </trkpt>
      <trkpt lat="43.99219" lon="5.07151">
        <ele>107.19999694824</ele>
        <time>2012-04-03T18:32:31.000Z</time>
      </trkpt>
      <trkpt lat="43.99232" lon="5.07144">
        <ele>106.40000152588</ele>
        <time>2012-04-03T18:32:35.000Z</time>
      </trkpt>
      <trkpt lat="43.99245" lon="5.07136">
        <ele>105.40000152588</ele>
        <time>2012-04-03T18:32:40.000Z</time>
      </trkpt>
      <trkpt lat="43.99259" lon="5.07129">
        <ele>105</ele>
        <time>2012-04-03T18:32:45.000Z</time>
      </trkpt>
      <trkpt lat="43.9927" lon="5.07125">
        <ele>104.59999847412</ele>
        <time>2012-04-03T18:32:49.000Z</time>
      </trkpt>
      <trkpt lat="43.99282" lon="5.07124">
        <ele>104.40000152588</ele>
        <time>2012-04-03T18:32:53.000Z</time>
      </trkpt>
      <trkpt lat="43.99299" lon="5.07126">
        <ele>104.19999694824</ele>
        <time>2012-04-03T18:32:58.000Z</time>
      </trkpt>
      <trkpt lat="43.99316" lon="5.0713">
        <ele>103.80000305176</ele>
        <time>2012-04-03T18:33:04.000Z</time>
      </trkpt>
      <trkpt lat="43.99332" lon="5.07134">
        <ele>103.59999847412</ele>
        <time>2012-04-03T18:33:09.000Z</time>
      </trkpt>
      <trkpt lat="43.99351" lon="5.0714">
        <ele>103</ele>
        <time>2012-04-03T18:33:15.000Z</time>
      </trkpt>
      <trkpt lat="43.99369" lon="5.07148">
        <ele>102.19999694824</ele>
        <time>2012-04-03T18:33:21.000Z</time>
      </trkpt>
      <trkpt lat="43.99372" lon="5.07149">
        <ele>102</ele>
        <time>2012-04-03T18:33:22.000Z</time>
      </trkpt>
      <trkpt lat="43.9939" lon="5.07156">
        <ele>101.19999694824</ele>
        <time>2012-04-03T18:33:28.000Z</time>
      </trkpt>
      <trkpt lat="43.99404" lon="5.07161">
        <ele>100.59999847412</ele>
        <time>2012-04-03T18:33:33.000Z</time>
      </trkpt>
      <trkpt lat="43.99417" lon="5.07158">
        <ele>100</ele>
        <time>2012-04-03T18:33:38.000Z</time>
      </trkpt>
      <trkpt lat="43.99425" lon="5.0714">
        <ele>100</ele>
        <time>2012-04-03T18:33:43.000Z</time>
      </trkpt>
      <trkpt lat="43.99432" lon="5.07123">
        <ele>100</ele>
        <time>2012-04-03T18:33:48.000Z</time>
      </trkpt>
      <trkpt lat="43.9944" lon="5.07098">
        <ele>99.800003051758</ele>
        <time>2012-04-03T18:33:54.000Z</time>
      </trkpt>
      <trkpt lat="43.99441" lon="5.07094">
        <ele>99.800003051758</ele>
        <time>2012-04-03T18:33:55.000Z</time>
      </trkpt>
      <trkpt lat="43.99445" lon="5.07072">
        <ele>99.599998474121</ele>
        <time>2012-04-03T18:34:00.000Z</time>
      </trkpt>
      <trkpt lat="43.99448" lon="5.07049">
        <ele>99.400001525879</ele>
        <time>2012-04-03T18:34:05.000Z</time>
      </trkpt>
      <trkpt lat="43.99451" lon="5.07025">
        <ele>99.199996948242</ele>
        <time>2012-04-03T18:34:10.000Z</time>
      </trkpt>
      <trkpt lat="43.99452" lon="5.07007">
        <ele>99</ele>
        <time>2012-04-03T18:34:14.000Z</time>
      </trkpt>
      <trkpt lat="43.99453" lon="5.06984">
        <ele>98.800003051758</ele>
        <time>2012-04-03T18:34:19.000Z</time>
      </trkpt>
      <trkpt lat="43.99454" lon="5.06966">
        <ele>98.599998474121</ele>
        <time>2012-04-03T18:34:23.000Z</time>
      </trkpt>
      <trkpt lat="43.99456" lon="5.06942">
        <ele>98.400001525879</ele>
        <time>2012-04-03T18:34:28.000Z</time>
      </trkpt>
      <trkpt lat="43.99457" lon="5.06917">
        <ele>98</ele>
        <time>2012-04-03T18:34:33.000Z</time>
      </trkpt>
      <trkpt lat="43.99459" lon="5.06892">
        <ele>98.199996948242</ele>
        <time>2012-04-03T18:34:38.000Z</time>
      </trkpt>
      <trkpt lat="43.99463" lon="5.06867">
        <ele>98.599998474121</ele>
        <time>2012-04-03T18:34:43.000Z</time>
      </trkpt>
      <trkpt lat="43.99467" lon="5.06846">
        <ele>98.599998474121</ele>
        <time>2012-04-03T18:34:48.000Z</time>
      </trkpt>
      <trkpt lat="43.99469" lon="5.06829">
        <ele>98.599998474121</ele>
        <time>2012-04-03T18:34:52.000Z</time>
      </trkpt>
      <trkpt lat="43.99471" lon="5.06815">
        <ele>98.199996948242</ele>
        <time>2012-04-03T18:34:55.000Z</time>
      </trkpt>
      <trkpt lat="43.99472" lon="5.0681">
        <ele>98</ele>
        <time>2012-04-03T18:34:56.000Z</time>
      </trkpt>
      <trkpt lat="43.99478" lon="5.06782">
        <ele>97.199996948242</ele>
        <time>2012-04-03T18:35:02.000Z</time>
      </trkpt>
      <trkpt lat="43.99476" lon="5.06773">
        <ele>97</ele>
        <time>2012-04-03T18:35:04.000Z</time>
      </trkpt>
      <trkpt lat="43.99472" lon="5.06766">
        <ele>96.800003051758</ele>
        <time>2012-04-03T18:35:06.000Z</time>
      </trkpt>
      <trkpt lat="43.99461" lon="5.06746">
        <ele>96.400001525879</ele>
        <time>2012-04-03T18:35:12.000Z</time>
      </trkpt>
      <trkpt lat="43.99464" lon="5.06727">
        <ele>96.199996948242</ele>
        <time>2012-04-03T18:35:16.000Z</time>
      </trkpt>
      <trkpt lat="43.99467" lon="5.06708">
        <ele>95.800003051758</ele>
        <time>2012-04-03T18:35:20.000Z</time>
      </trkpt>
      <trkpt lat="43.99466" lon="5.06703">
        <ele>95.800003051758</ele>
        <time>2012-04-03T18:35:21.000Z</time>
      </trkpt>
      <trkpt lat="43.99462" lon="5.06692">
        <ele>95.599998474121</ele>
        <time>2012-04-03T18:35:24.000Z</time>
      </trkpt>
      <trkpt lat="43.99452" lon="5.06668">
        <ele>95.800003051758</ele>
        <time>2012-04-03T18:35:30.000Z</time>
      </trkpt>
      <trkpt lat="43.9945" lon="5.06663">
        <ele>95.800003051758</ele>
        <time>2012-04-03T18:35:31.000Z</time>
      </trkpt>
      <trkpt lat="43.9945" lon="5.06644">
        <ele>95.800003051758</ele>
        <time>2012-04-03T18:35:35.000Z</time>
      </trkpt>
      <trkpt lat="43.99453" lon="5.06621">
        <ele>95.599998474121</ele>
        <time>2012-04-03T18:35:40.000Z</time>
      </trkpt>
      <trkpt lat="43.99458" lon="5.06598">
        <ele>95.400001525879</ele>
        <time>2012-04-03T18:35:45.000Z</time>
      </trkpt>
      <trkpt lat="43.99461" lon="5.0658">
        <ele>95.599998474121</ele>
        <time>2012-04-03T18:35:49.000Z</time>
      </trkpt>
      <trkpt lat="43.99464" lon="5.06559">
        <ele>96.400001525879</ele>
        <time>2012-04-03T18:35:54.000Z</time>
      </trkpt>
      <trkpt lat="43.99465" lon="5.06542">
        <ele>97</ele>
        <time>2012-04-03T18:35:58.000Z</time>
      </trkpt>
      <trkpt lat="43.99457" lon="5.06519">
        <ele>98.199996948242</ele>
        <time>2012-04-03T18:36:04.000Z</time>
      </trkpt>
      <trkpt lat="43.99459" lon="5.06502">
        <ele>98.800003051758</ele>
        <time>2012-04-03T18:36:09.000Z</time>
      </trkpt>
      <trkpt lat="43.99471" lon="5.06495">
        <ele>99</ele>
        <time>2012-04-03T18:36:13.000Z</time>
      </trkpt>
      <trkpt lat="43.99488" lon="5.06487">
        <ele>99.199996948242</ele>
        <time>2012-04-03T18:36:18.000Z</time>
      </trkpt>
      <trkpt lat="43.99502" lon="5.0648">
        <ele>99.199996948242</ele>
        <time>2012-04-03T18:36:23.000Z</time>
      </trkpt>
      <trkpt lat="43.99521" lon="5.06467">
        <ele>98.800003051758</ele>
        <time>2012-04-03T18:36:29.000Z</time>
      </trkpt>
      <trkpt lat="43.99533" lon="5.06458">
        <ele>98.400001525879</ele>
        <time>2012-04-03T18:36:33.000Z</time>
      </trkpt>
      <trkpt lat="43.99545" lon="5.0645">
        <ele>97.800003051758</ele>
        <time>2012-04-03T18:36:37.000Z</time>
      </trkpt>
      <trkpt lat="43.99558" lon="5.06439">
        <ele>96.800003051758</ele>
        <time>2012-04-03T18:36:42.000Z</time>
      </trkpt>
      <trkpt lat="43.9957" lon="5.06425">
        <ele>95.599998474121</ele>
        <time>2012-04-03T18:36:47.000Z</time>
      </trkpt>
      <trkpt lat="43.99583" lon="5.06411">
        <ele>94.800003051758</ele>
        <time>2012-04-03T18:36:52.000Z</time>
      </trkpt>
      <trkpt lat="43.99595" lon="5.06396">
        <ele>95.599998474121</ele>
        <time>2012-04-03T18:36:57.000Z</time>
      </trkpt>
      <trkpt lat="43.9961" lon="5.06378">
        <ele>96.199996948242</ele>
        <time>2012-04-03T18:37:03.000Z</time>
      </trkpt>
      <trkpt lat="43.99623" lon="5.06362">
        <ele>96.199996948242</ele>
        <time>2012-04-03T18:37:08.000Z</time>
      </trkpt>
      <trkpt lat="43.99633" lon="5.0635">
        <ele>95.800003051758</ele>
        <time>2012-04-03T18:37:12.000Z</time>
      </trkpt>
      <trkpt lat="43.99647" lon="5.06336">
        <ele>94.800003051758</ele>
        <time>2012-04-03T18:37:17.000Z</time>
      </trkpt>
      <trkpt lat="43.99658" lon="5.06323">
        <ele>93.599998474121</ele>
        <time>2012-04-03T18:37:21.000Z</time>
      </trkpt>
      <trkpt lat="43.99669" lon="5.06309">
        <ele>92.400001525879</ele>
        <time>2012-04-03T18:37:26.000Z</time>
      </trkpt>
      <trkpt lat="43.9968" lon="5.06295">
        <ele>92.400001525879</ele>
        <time>2012-04-03T18:37:31.000Z</time>
      </trkpt>
      <trkpt lat="43.99692" lon="5.06282">
        <ele>92.199996948242</ele>
        <time>2012-04-03T18:37:37.000Z</time>
      </trkpt>
      <trkpt lat="43.99701" lon="5.06267">
        <ele>92</ele>
        <time>2012-04-03T18:37:42.000Z</time>
      </trkpt>
      <trkpt lat="43.9971" lon="5.06252">
        <ele>91.800003051758</ele>
        <time>2012-04-03T18:37:47.000Z</time>
      </trkpt>
      <trkpt lat="43.99719" lon="5.06235">
        <ele>92</ele>
        <time>2012-04-03T18:37:52.000Z</time>
      </trkpt>
      <trkpt lat="43.99725" lon="5.06224">
        <ele>92</ele>
        <time>2012-04-03T18:37:56.000Z</time>
      </trkpt>
      <trkpt lat="43.99725" lon="5.0622">
        <ele>92</ele>
        <time>2012-04-03T18:37:57.000Z</time>
      </trkpt>
      <trkpt lat="43.9972" lon="5.06209">
        <ele>92.599998474121</ele>
        <time>2012-04-03T18:38:00.000Z</time>
      </trkpt>
      <trkpt lat="43.99719" lon="5.06205">
        <ele>92.800003051758</ele>
        <time>2012-04-03T18:38:01.000Z</time>
      </trkpt>
      <trkpt lat="43.99715" lon="5.06191">
        <ele>93.400001525879</ele>
        <time>2012-04-03T18:38:05.000Z</time>
      </trkpt>
      <trkpt lat="43.99708" lon="5.06176">
        <ele>94.199996948242</ele>
        <time>2012-04-03T18:38:10.000Z</time>
      </trkpt>
      <trkpt lat="43.99704" lon="5.06161">
        <ele>94.800003051758</ele>
        <time>2012-04-03T18:38:15.000Z</time>
      </trkpt>
      <trkpt lat="43.99704" lon="5.06157">
        <ele>95</ele>
        <time>2012-04-03T18:38:16.000Z</time>
      </trkpt>
      <trkpt lat="43.99705" lon="5.06151">
        <ele>95</ele>
        <time>2012-04-03T18:38:19.000Z</time>
      </trkpt>
    </trkseg>
  </trk>
</gpx>